<?xml version='1.0' encoding='UTF-8'?>
<gpx version="1.1" creator="https://www.komoot.de" xmlns="http://www.topografix.com/GPX/1/1" xmlns:xsi="http://www.w3.org/2001/XMLSchema-instance" xsi:schemaLocation="http://www.topografix.com/GPX/1/1 http://www.topografix.com/GPX/1/1/gpx.xsd">
  <metadata>
    <name>52_680RuehrbMetzlerhoehe</name>
    <author>
      <link href="https://www.komoot.de">
        <text>komoot</text>
        <type>text/html</type>
      </link>
    </author>
  </metadata>
  <trk>
    <name>52_680RuehrbMetzlerhoehe</name>
    <trkseg>
      <trkpt lat="47.541469" lon="7.870746">
        <ele>339.085195</ele>
        <time>2021-11-13T13:26:29.294Z</time>
      </trkpt>
      <trkpt lat="47.541576" lon="7.870664">
        <ele>339.085195</ele>
        <time>2021-11-13T13:26:30.838Z</time>
      </trkpt>
      <trkpt lat="47.541550" lon="7.870601">
        <ele>339.085195</ele>
        <time>2021-11-13T13:26:31.648Z</time>
      </trkpt>
      <trkpt lat="47.541521" lon="7.870517">
        <ele>339.085195</ele>
        <time>2021-11-13T13:26:32.705Z</time>
      </trkpt>
      <trkpt lat="47.541606" lon="7.870424">
        <ele>339.085195</ele>
        <time>2021-11-13T13:26:34.444Z</time>
      </trkpt>
      <trkpt lat="47.541910" lon="7.870106">
        <ele>339.085195</ele>
        <time>2021-11-13T13:26:40.293Z</time>
      </trkpt>
      <trkpt lat="47.542014" lon="7.870126">
        <ele>339.085195</ele>
        <time>2021-11-13T13:26:41.796Z</time>
      </trkpt>
      <trkpt lat="47.542118" lon="7.870135">
        <ele>339.063030</ele>
        <time>2021-11-13T13:26:43.545Z</time>
      </trkpt>
      <trkpt lat="47.542181" lon="7.870131">
        <ele>338.998200</ele>
        <time>2021-11-13T13:26:44.433Z</time>
      </trkpt>
      <trkpt lat="47.542317" lon="7.870012">
        <ele>338.835810</ele>
        <time>2021-11-13T13:26:46.633Z</time>
      </trkpt>
      <trkpt lat="47.542348" lon="7.869983">
        <ele>338.798116</ele>
        <time>2021-11-13T13:26:47.076Z</time>
      </trkpt>
      <trkpt lat="47.542329" lon="7.869820">
        <ele>338.683317</ele>
        <time>2021-11-13T13:26:48.868Z</time>
      </trkpt>
      <trkpt lat="47.542372" lon="7.869746">
        <ele>338.615554</ele>
        <time>2021-11-13T13:26:49.692Z</time>
      </trkpt>
      <trkpt lat="47.542657" lon="7.869354">
        <ele>338.215721</ele>
        <time>2021-11-13T13:26:54.551Z</time>
      </trkpt>
      <trkpt lat="47.542696" lon="7.869257">
        <ele>338.137366</ele>
        <time>2021-11-13T13:26:55.486Z</time>
      </trkpt>
      <trkpt lat="47.542722" lon="7.869201">
        <ele>338.090196</ele>
        <time>2021-11-13T13:26:56.078Z</time>
      </trkpt>
      <trkpt lat="47.543049" lon="7.868759">
        <ele>337.635093</ele>
        <time>2021-11-13T13:27:00.991Z</time>
      </trkpt>
      <trkpt lat="47.543105" lon="7.868711">
        <ele>337.568577</ele>
        <time>2021-11-13T13:27:01.729Z</time>
      </trkpt>
      <trkpt lat="47.543201" lon="7.868657">
        <ele>337.463004</ele>
        <time>2021-11-13T13:27:02.807Z</time>
      </trkpt>
      <trkpt lat="47.543657" lon="7.868359">
        <ele>336.896806</ele>
        <time>2021-11-13T13:27:08.603Z</time>
      </trkpt>
      <trkpt lat="47.543801" lon="7.868269">
        <ele>336.705837</ele>
        <time>2021-11-13T13:27:11.082Z</time>
      </trkpt>
      <trkpt lat="47.544214" lon="7.867988">
        <ele>336.150523</ele>
        <time>2021-11-13T13:27:18.699Z</time>
      </trkpt>
      <trkpt lat="47.544246" lon="7.867967">
        <ele>336.107759</ele>
        <time>2021-11-13T13:27:19.295Z</time>
      </trkpt>
      <trkpt lat="47.544410" lon="7.867825">
        <ele>335.875654</ele>
        <time>2021-11-13T13:27:22.548Z</time>
      </trkpt>
      <trkpt lat="47.544469" lon="7.867776">
        <ele>335.793007</ele>
        <time>2021-11-13T13:27:23.570Z</time>
      </trkpt>
      <trkpt lat="47.544568" lon="7.867693">
        <ele>335.654014</ele>
        <time>2021-11-13T13:27:25.497Z</time>
      </trkpt>
      <trkpt lat="47.545003" lon="7.867278">
        <ele>335.049899</ele>
        <time>2021-11-13T13:27:34.346Z</time>
      </trkpt>
      <trkpt lat="47.545160" lon="7.866985">
        <ele>335.267435</ele>
        <time>2021-11-13T13:27:38.996Z</time>
      </trkpt>
      <trkpt lat="47.545240" lon="7.866887">
        <ele>335.356862</ele>
        <time>2021-11-13T13:27:41.270Z</time>
      </trkpt>
      <trkpt lat="47.546096" lon="7.866147">
        <ele>336.210645</ele>
        <time>2021-11-13T13:28:06.340Z</time>
      </trkpt>
      <trkpt lat="47.546327" lon="7.865959">
        <ele>336.437694</ele>
        <time>2021-11-13T13:28:12.754Z</time>
      </trkpt>
      <trkpt lat="47.546510" lon="7.865766">
        <ele>336.678428</ele>
        <time>2021-11-13T13:28:19.250Z</time>
      </trkpt>
      <trkpt lat="47.546819" lon="7.865489">
        <ele>337.327710</ele>
        <time>2021-11-13T13:28:29.223Z</time>
      </trkpt>
      <trkpt lat="47.546889" lon="7.865225">
        <ele>337.671893</ele>
        <time>2021-11-13T13:28:33.844Z</time>
      </trkpt>
      <trkpt lat="47.546894" lon="7.864837">
        <ele>338.142799</ele>
        <time>2021-11-13T13:28:41.049Z</time>
      </trkpt>
      <trkpt lat="47.546885" lon="7.864500">
        <ele>338.552053</ele>
        <time>2021-11-13T13:28:48.615Z</time>
      </trkpt>
      <trkpt lat="47.546974" lon="7.864423">
        <ele>338.737337</ele>
        <time>2021-11-13T13:28:50.587Z</time>
      </trkpt>
      <trkpt lat="47.547133" lon="7.864167">
        <ele>339.159480</ele>
        <time>2021-11-13T13:28:58.127Z</time>
      </trkpt>
      <trkpt lat="47.546974" lon="7.864423">
        <ele>339.581623</ele>
        <time>2021-11-13T13:29:03.790Z</time>
      </trkpt>
      <trkpt lat="47.546885" lon="7.864500">
        <ele>339.766907</ele>
        <time>2021-11-13T13:29:07.339Z</time>
      </trkpt>
      <trkpt lat="47.546877" lon="7.864345">
        <ele>339.892865</ele>
        <time>2021-11-13T13:29:09.892Z</time>
      </trkpt>
      <trkpt lat="47.546592" lon="7.863006">
        <ele>340.801321</ele>
        <time>2021-11-13T13:29:33.513Z</time>
      </trkpt>
      <trkpt lat="47.546526" lon="7.861665">
        <ele>341.521329</ele>
        <time>2021-11-13T13:29:54.145Z</time>
      </trkpt>
      <trkpt lat="47.546487" lon="7.859119">
        <ele>341.199977</ele>
        <time>2021-11-13T13:30:26.778Z</time>
      </trkpt>
      <trkpt lat="47.546537" lon="7.857497">
        <ele>340.884350</ele>
        <time>2021-11-13T13:30:47.789Z</time>
      </trkpt>
      <trkpt lat="47.546557" lon="7.857028">
        <ele>340.793000</ele>
        <time>2021-11-13T13:30:53.973Z</time>
      </trkpt>
      <trkpt lat="47.546582" lon="7.856413">
        <ele>340.674908</ele>
        <time>2021-11-13T13:31:02.144Z</time>
      </trkpt>
      <trkpt lat="47.546945" lon="7.851719">
        <ele>339.378658</ele>
        <time>2021-11-13T13:32:03.165Z</time>
      </trkpt>
      <trkpt lat="47.547141" lon="7.850355">
        <ele>338.087385</ele>
        <time>2021-11-13T13:32:18.731Z</time>
      </trkpt>
      <trkpt lat="47.547143" lon="7.849985">
        <ele>337.638400</ele>
        <time>2021-11-13T13:32:22.639Z</time>
      </trkpt>
      <trkpt lat="47.547124" lon="7.848795">
        <ele>336.194010</ele>
        <time>2021-11-13T13:32:35.237Z</time>
      </trkpt>
      <trkpt lat="47.547274" lon="7.845536">
        <ele>332.113755</ele>
        <time>2021-11-13T13:33:09.996Z</time>
      </trkpt>
      <trkpt lat="47.547295" lon="7.844722">
        <ele>331.445974</ele>
        <time>2021-11-13T13:33:19.479Z</time>
      </trkpt>
      <trkpt lat="47.547313" lon="7.843735">
        <ele>330.636566</ele>
        <time>2021-11-13T13:33:31.267Z</time>
      </trkpt>
      <trkpt lat="47.547354" lon="7.842839">
        <ele>329.754717</ele>
        <time>2021-11-13T13:33:41.539Z</time>
      </trkpt>
      <trkpt lat="47.547448" lon="7.842262">
        <ele>329.073476</ele>
        <time>2021-11-13T13:33:48.340Z</time>
      </trkpt>
      <trkpt lat="47.547549" lon="7.842268">
        <ele>328.901602</ele>
        <time>2021-11-13T13:33:50.034Z</time>
      </trkpt>
      <trkpt lat="47.547674" lon="7.842266">
        <ele>328.689045</ele>
        <time>2021-11-13T13:33:52.128Z</time>
      </trkpt>
      <trkpt lat="47.548105" lon="7.842284">
        <ele>327.955902</ele>
        <time>2021-11-13T13:33:58.884Z</time>
      </trkpt>
      <trkpt lat="47.549188" lon="7.842622">
        <ele>326.060741</ele>
        <time>2021-11-13T13:34:15.799Z</time>
      </trkpt>
      <trkpt lat="47.549582" lon="7.842702">
        <ele>325.376617</ele>
        <time>2021-11-13T13:34:21.987Z</time>
      </trkpt>
      <trkpt lat="47.549927" lon="7.842747">
        <ele>324.780827</ele>
        <time>2021-11-13T13:34:27.770Z</time>
      </trkpt>
      <trkpt lat="47.551243" lon="7.842849">
        <ele>323.757624</ele>
        <time>2021-11-13T13:34:51.908Z</time>
      </trkpt>
      <trkpt lat="47.551454" lon="7.842815">
        <ele>323.676668</ele>
        <time>2021-11-13T13:34:56.567Z</time>
      </trkpt>
      <trkpt lat="47.551668" lon="7.842770">
        <ele>323.594225</ele>
        <time>2021-11-13T13:35:01.125Z</time>
      </trkpt>
      <trkpt lat="47.551922" lon="7.842704">
        <ele>323.495863</ele>
        <time>2021-11-13T13:35:06.058Z</time>
      </trkpt>
      <trkpt lat="47.552380" lon="7.842592">
        <ele>323.146337</ele>
        <time>2021-11-13T13:35:14.970Z</time>
      </trkpt>
      <trkpt lat="47.552833" lon="7.842495">
        <ele>322.690637</ele>
        <time>2021-11-13T13:35:23.233Z</time>
      </trkpt>
      <trkpt lat="47.553133" lon="7.842431">
        <ele>322.388872</ele>
        <time>2021-11-13T13:35:28.531Z</time>
      </trkpt>
      <trkpt lat="47.553123" lon="7.842222">
        <ele>322.248082</ele>
        <time>2021-11-13T13:35:30.106Z</time>
      </trkpt>
      <trkpt lat="47.553190" lon="7.841953">
        <ele>322.055412</ele>
        <time>2021-11-13T13:35:32.500Z</time>
      </trkpt>
      <trkpt lat="47.553216" lon="7.841849">
        <ele>321.980890</ele>
        <time>2021-11-13T13:35:33.335Z</time>
      </trkpt>
      <trkpt lat="47.553231" lon="7.841529">
        <ele>321.765349</ele>
        <time>2021-11-13T13:35:35.835Z</time>
      </trkpt>
      <trkpt lat="47.552939" lon="7.839526">
        <ele>319.603651</ele>
        <time>2021-11-13T13:35:51.363Z</time>
      </trkpt>
      <trkpt lat="47.552802" lon="7.839009">
        <ele>318.995522</ele>
        <time>2021-11-13T13:35:55.686Z</time>
      </trkpt>
      <trkpt lat="47.552736" lon="7.838578">
        <ele>318.529337</ele>
        <time>2021-11-13T13:35:59.125Z</time>
      </trkpt>
      <trkpt lat="47.552697" lon="7.838068">
        <ele>318.015771</ele>
        <time>2021-11-13T13:36:03.140Z</time>
      </trkpt>
      <trkpt lat="47.552719" lon="7.836790">
        <ele>316.736601</ele>
        <time>2021-11-13T13:36:13.168Z</time>
      </trkpt>
      <trkpt lat="47.552714" lon="7.835010">
        <ele>314.363574</ele>
        <time>2021-11-13T13:36:26.918Z</time>
      </trkpt>
      <trkpt lat="47.552700" lon="7.833938">
        <ele>312.710830</ele>
        <time>2021-11-13T13:36:34.485Z</time>
      </trkpt>
      <trkpt lat="47.552696" lon="7.833789">
        <ele>312.480972</ele>
        <time>2021-11-13T13:36:35.482Z</time>
      </trkpt>
      <trkpt lat="47.552452" lon="7.833284">
        <ele>311.393121</ele>
        <time>2021-11-13T13:36:39.807Z</time>
      </trkpt>
      <trkpt lat="47.552467" lon="7.833198">
        <ele>311.213562</ele>
        <time>2021-11-13T13:36:40.419Z</time>
      </trkpt>
      <trkpt lat="47.552511" lon="7.833072">
        <ele>310.926782</ele>
        <time>2021-11-13T13:36:41.425Z</time>
      </trkpt>
      <trkpt lat="47.552556" lon="7.832977">
        <ele>310.692164</ele>
        <time>2021-11-13T13:36:42.241Z</time>
      </trkpt>
      <trkpt lat="47.552616" lon="7.832891">
        <ele>310.442128</ele>
        <time>2021-11-13T13:36:43.047Z</time>
      </trkpt>
      <trkpt lat="47.552690" lon="7.832598">
        <ele>309.809725</ele>
        <time>2021-11-13T13:36:45.248Z</time>
      </trkpt>
      <trkpt lat="47.552645" lon="7.830686">
        <ele>306.097957</ele>
        <time>2021-11-13T13:36:58.371Z</time>
      </trkpt>
      <trkpt lat="47.552554" lon="7.829266">
        <ele>303.946435</ele>
        <time>2021-11-13T13:37:08.658Z</time>
      </trkpt>
      <trkpt lat="47.552416" lon="7.828822">
        <ele>303.209113</ele>
        <time>2021-11-13T13:37:12.321Z</time>
      </trkpt>
      <trkpt lat="47.552404" lon="7.828582">
        <ele>302.846111</ele>
        <time>2021-11-13T13:37:14.236Z</time>
      </trkpt>
      <trkpt lat="47.552421" lon="7.828481">
        <ele>302.689099</ele>
        <time>2021-11-13T13:37:14.992Z</time>
      </trkpt>
      <trkpt lat="47.552477" lon="7.828294">
        <ele>302.468627</ele>
        <time>2021-11-13T13:37:16.567Z</time>
      </trkpt>
      <trkpt lat="47.552515" lon="7.828094">
        <ele>302.333221</ele>
        <time>2021-11-13T13:37:18.285Z</time>
      </trkpt>
      <trkpt lat="47.552491" lon="7.827227">
        <ele>301.767720</ele>
        <time>2021-11-13T13:37:25.193Z</time>
      </trkpt>
      <trkpt lat="47.552567" lon="7.824508">
        <ele>300.222619</ele>
        <time>2021-11-13T13:37:49.041Z</time>
      </trkpt>
      <trkpt lat="47.552896" lon="7.820699">
        <ele>298.303427</ele>
        <time>2021-11-13T13:38:21.780Z</time>
      </trkpt>
      <trkpt lat="47.552948" lon="7.819358">
        <ele>297.827945</ele>
        <time>2021-11-13T13:38:33.319Z</time>
      </trkpt>
      <trkpt lat="47.552844" lon="7.816432">
        <ele>297.500593</ele>
        <time>2021-11-13T13:39:00.953Z</time>
      </trkpt>
      <trkpt lat="47.552711" lon="7.812955">
        <ele>298.597963</ele>
        <time>2021-11-13T13:39:41.607Z</time>
      </trkpt>
      <trkpt lat="47.552566" lon="7.810386">
        <ele>299.747779</ele>
        <time>2021-11-13T13:40:11.639Z</time>
      </trkpt>
      <trkpt lat="47.552398" lon="7.808880">
        <ele>300.366597</ele>
        <time>2021-11-13T13:40:30.120Z</time>
      </trkpt>
      <trkpt lat="47.552068" lon="7.806445">
        <ele>300.808396</ele>
        <time>2021-11-13T13:40:58.460Z</time>
      </trkpt>
      <trkpt lat="47.552015" lon="7.806307">
        <ele>300.765055</ele>
        <time>2021-11-13T13:41:00.183Z</time>
      </trkpt>
      <trkpt lat="47.551895" lon="7.806278">
        <ele>300.715881</ele>
        <time>2021-11-13T13:41:01.492Z</time>
      </trkpt>
      <trkpt lat="47.551651" lon="7.806246">
        <ele>300.616812</ele>
        <time>2021-11-13T13:41:05.254Z</time>
      </trkpt>
      <trkpt lat="47.551671" lon="7.806117">
        <ele>300.580682</ele>
        <time>2021-11-13T13:41:06.569Z</time>
      </trkpt>
      <trkpt lat="47.551681" lon="7.805477">
        <ele>300.405936</ele>
        <time>2021-11-13T13:41:14.267Z</time>
      </trkpt>
      <trkpt lat="47.551709" lon="7.805000">
        <ele>300.261973</ele>
        <time>2021-11-13T13:41:19.906Z</time>
      </trkpt>
      <trkpt lat="47.551731" lon="7.804667">
        <ele>300.084969</ele>
        <time>2021-11-13T13:41:24.491Z</time>
      </trkpt>
      <trkpt lat="47.551744" lon="7.804473">
        <ele>299.981836</ele>
        <time>2021-11-13T13:41:26.487Z</time>
      </trkpt>
      <trkpt lat="47.551741" lon="7.804294">
        <ele>299.887113</ele>
        <time>2021-11-13T13:41:28.822Z</time>
      </trkpt>
      <trkpt lat="47.551692" lon="7.803510">
        <ele>299.470592</ele>
        <time>2021-11-13T13:41:37.952Z</time>
      </trkpt>
      <trkpt lat="47.551751" lon="7.803369">
        <ele>299.382828</ele>
        <time>2021-11-13T13:41:39.887Z</time>
      </trkpt>
      <trkpt lat="47.551744" lon="7.803277">
        <ele>299.333851</ele>
        <time>2021-11-13T13:41:40.682Z</time>
      </trkpt>
      <trkpt lat="47.551732" lon="7.803125">
        <ele>299.252892</ele>
        <time>2021-11-13T13:41:42.079Z</time>
      </trkpt>
      <trkpt lat="47.551700" lon="7.802648">
        <ele>298.999309</ele>
        <time>2021-11-13T13:41:46.426Z</time>
      </trkpt>
      <trkpt lat="47.551688" lon="7.802394">
        <ele>298.849745</ele>
        <time>2021-11-13T13:41:48.819Z</time>
      </trkpt>
      <trkpt lat="47.551679" lon="7.802228">
        <ele>298.674181</ele>
        <time>2021-11-13T13:41:50.309Z</time>
      </trkpt>
      <trkpt lat="47.551671" lon="7.802077">
        <ele>298.514505</ele>
        <time>2021-11-13T13:41:51.869Z</time>
      </trkpt>
      <trkpt lat="47.551669" lon="7.801853">
        <ele>298.278341</ele>
        <time>2021-11-13T13:41:53.855Z</time>
      </trkpt>
      <trkpt lat="47.551666" lon="7.801632">
        <ele>298.045312</ele>
        <time>2021-11-13T13:41:55.824Z</time>
      </trkpt>
      <trkpt lat="47.551669" lon="7.801438">
        <ele>297.840741</ele>
        <time>2021-11-13T13:41:57.328Z</time>
      </trkpt>
      <trkpt lat="47.551672" lon="7.801147">
        <ele>297.533929</ele>
        <time>2021-11-13T13:41:59.789Z</time>
      </trkpt>
      <trkpt lat="47.551704" lon="7.800451">
        <ele>296.798495</ele>
        <time>2021-11-13T13:42:05.215Z</time>
      </trkpt>
      <trkpt lat="47.551712" lon="7.800249">
        <ele>296.585178</ele>
        <time>2021-11-13T13:42:06.657Z</time>
      </trkpt>
      <trkpt lat="47.551732" lon="7.800020">
        <ele>296.341750</ele>
        <time>2021-11-13T13:42:08.276Z</time>
      </trkpt>
      <trkpt lat="47.551754" lon="7.799766">
        <ele>296.071784</ele>
        <time>2021-11-13T13:42:10.003Z</time>
      </trkpt>
      <trkpt lat="47.551793" lon="7.799434">
        <ele>295.180349</ele>
        <time>2021-11-13T13:42:12.343Z</time>
      </trkpt>
      <trkpt lat="47.551805" lon="7.799326">
        <ele>294.890011</ele>
        <time>2021-11-13T13:42:13.044Z</time>
      </trkpt>
      <trkpt lat="47.551948" lon="7.798607">
        <ele>292.901700</ele>
        <time>2021-11-13T13:42:18.127Z</time>
      </trkpt>
      <trkpt lat="47.552084" lon="7.798083">
        <ele>291.412504</ele>
        <time>2021-11-13T13:42:21.746Z</time>
      </trkpt>
      <trkpt lat="47.552152" lon="7.797876">
        <ele>290.801830</ele>
        <time>2021-11-13T13:42:23.209Z</time>
      </trkpt>
      <trkpt lat="47.552493" lon="7.797048">
        <ele>288.438415</ele>
        <time>2021-11-13T13:42:29.437Z</time>
      </trkpt>
      <trkpt lat="47.552762" lon="7.796425">
        <ele>287.008968</ele>
        <time>2021-11-13T13:42:34.394Z</time>
      </trkpt>
      <trkpt lat="47.552817" lon="7.796239">
        <ele>286.616485</ele>
        <time>2021-11-13T13:42:35.798Z</time>
      </trkpt>
      <trkpt lat="47.552886" lon="7.795976">
        <ele>286.071114</ele>
        <time>2021-11-13T13:42:37.798Z</time>
      </trkpt>
      <trkpt lat="47.552930" lon="7.795600">
        <ele>285.333555</ele>
        <time>2021-11-13T13:42:40.692Z</time>
      </trkpt>
      <trkpt lat="47.552930" lon="7.795600">
        <ele>285.333555</ele>
        <time>2021-11-13T13:42:40.696Z</time>
      </trkpt>
      <trkpt lat="47.552930" lon="7.795600">
        <ele>285.333555</ele>
        <time>2021-11-13T13:42:40.740Z</time>
      </trkpt>
      <trkpt lat="47.552917" lon="7.795354">
        <ele>284.856642</ele>
        <time>2021-11-13T13:42:42.640Z</time>
      </trkpt>
      <trkpt lat="47.552909" lon="7.795229">
        <ele>284.613963</ele>
        <time>2021-11-13T13:42:43.621Z</time>
      </trkpt>
      <trkpt lat="47.552892" lon="7.795106">
        <ele>284.371301</ele>
        <time>2021-11-13T13:42:44.547Z</time>
      </trkpt>
      <trkpt lat="47.552861" lon="7.794992">
        <ele>284.133754</ele>
        <time>2021-11-13T13:42:45.434Z</time>
      </trkpt>
      <trkpt lat="47.552837" lon="7.794925">
        <ele>283.987151</ele>
        <time>2021-11-13T13:42:46.011Z</time>
      </trkpt>
      <trkpt lat="47.552826" lon="7.794894">
        <ele>283.919459</ele>
        <time>2021-11-13T13:42:46.276Z</time>
      </trkpt>
      <trkpt lat="47.552786" lon="7.794796">
        <ele>283.761450</ele>
        <time>2021-11-13T13:42:47.116Z</time>
      </trkpt>
      <trkpt lat="47.552763" lon="7.794750">
        <ele>283.696879</ele>
        <time>2021-11-13T13:42:47.637Z</time>
      </trkpt>
      <trkpt lat="47.552644" lon="7.794507">
        <ele>283.358244</ele>
        <time>2021-11-13T13:42:49.909Z</time>
      </trkpt>
      <trkpt lat="47.552532" lon="7.794285">
        <ele>283.045619</ele>
        <time>2021-11-13T13:42:52.042Z</time>
      </trkpt>
      <trkpt lat="47.552494" lon="7.794200">
        <ele>282.930619</ele>
        <time>2021-11-13T13:42:52.761Z</time>
      </trkpt>
      <trkpt lat="47.552384" lon="7.793915">
        <ele>282.560308</ele>
        <time>2021-11-13T13:42:55.440Z</time>
      </trkpt>
      <trkpt lat="47.552369" lon="7.793872">
        <ele>282.505711</ele>
        <time>2021-11-13T13:42:56.043Z</time>
      </trkpt>
      <trkpt lat="47.552292" lon="7.793607">
        <ele>282.180286</ele>
        <time>2021-11-13T13:42:58.066Z</time>
      </trkpt>
      <trkpt lat="47.552233" lon="7.793294">
        <ele>281.813733</ele>
        <time>2021-11-13T13:43:00.844Z</time>
      </trkpt>
      <trkpt lat="47.552216" lon="7.793160">
        <ele>281.659943</ele>
        <time>2021-11-13T13:43:01.785Z</time>
      </trkpt>
      <trkpt lat="47.552198" lon="7.792976">
        <ele>281.450235</ele>
        <time>2021-11-13T13:43:03.298Z</time>
      </trkpt>
      <trkpt lat="47.552184" lon="7.792540">
        <ele>280.957900</ele>
        <time>2021-11-13T13:43:06.718Z</time>
      </trkpt>
      <trkpt lat="47.552180" lon="7.792294">
        <ele>280.613921</ele>
        <time>2021-11-13T13:43:08.898Z</time>
      </trkpt>
      <trkpt lat="47.552285" lon="7.792311">
        <ele>280.365884</ele>
        <time>2021-11-13T13:43:10.397Z</time>
      </trkpt>
      <trkpt lat="47.552522" lon="7.792324">
        <ele>279.808959</ele>
        <time>2021-11-13T13:43:14.246Z</time>
      </trkpt>
      <trkpt lat="47.552612" lon="7.792307">
        <ele>279.595903</ele>
        <time>2021-11-13T13:43:15.527Z</time>
      </trkpt>
      <trkpt lat="47.552708" lon="7.792288">
        <ele>279.368465</ele>
        <time>2021-11-13T13:43:16.939Z</time>
      </trkpt>
      <trkpt lat="47.552708" lon="7.792288">
        <ele>279.368465</ele>
        <time>2021-11-13T13:43:16.959Z</time>
      </trkpt>
      <trkpt lat="47.552708" lon="7.792288">
        <ele>279.368465</ele>
        <time>2021-11-13T13:43:16.979Z</time>
      </trkpt>
      <trkpt lat="47.553011" lon="7.792201">
        <ele>278.643698</ele>
        <time>2021-11-13T13:43:21.595Z</time>
      </trkpt>
      <trkpt lat="47.553144" lon="7.792160">
        <ele>278.324688</ele>
        <time>2021-11-13T13:43:23.642Z</time>
      </trkpt>
      <trkpt lat="47.553340" lon="7.792098">
        <ele>277.854052</ele>
        <time>2021-11-13T13:43:26.658Z</time>
      </trkpt>
      <trkpt lat="47.553447" lon="7.792045">
        <ele>277.589117</ele>
        <time>2021-11-13T13:43:34.516Z</time>
      </trkpt>
      <trkpt lat="47.553588" lon="7.791974">
        <ele>277.239410</ele>
        <time>2021-11-13T13:43:44.882Z</time>
      </trkpt>
      <trkpt lat="47.553765" lon="7.791892">
        <ele>276.803921</ele>
        <time>2021-11-13T13:43:57.738Z</time>
      </trkpt>
      <trkpt lat="47.553805" lon="7.791874">
        <ele>276.705753</ele>
        <time>2021-11-13T13:44:00.651Z</time>
      </trkpt>
      <trkpt lat="47.553889" lon="7.791874">
        <ele>276.489675</ele>
        <time>2021-11-13T13:44:06.542Z</time>
      </trkpt>
      <trkpt lat="47.554067" lon="7.791938">
        <ele>275.987321</ele>
        <time>2021-11-13T13:44:19.228Z</time>
      </trkpt>
      <trkpt lat="47.554162" lon="7.791971">
        <ele>275.719707</ele>
        <time>2021-11-13T13:44:26.035Z</time>
      </trkpt>
      <trkpt lat="47.554211" lon="7.791989">
        <ele>275.581250</ele>
        <time>2021-11-13T13:44:29.571Z</time>
      </trkpt>
      <trkpt lat="47.554342" lon="7.792039">
        <ele>275.210238</ele>
        <time>2021-11-13T13:44:38.973Z</time>
      </trkpt>
      <trkpt lat="47.554504" lon="7.792023">
        <ele>274.764947</ele>
        <time>2021-11-13T13:44:50.198Z</time>
      </trkpt>
      <trkpt lat="47.554581" lon="7.792014">
        <ele>274.553109</ele>
        <time>2021-11-13T13:44:55.626Z</time>
      </trkpt>
      <trkpt lat="47.554682" lon="7.792286">
        <ele>273.978475</ele>
        <time>2021-11-13T13:45:10.187Z</time>
      </trkpt>
      <trkpt lat="47.554823" lon="7.792244">
        <ele>273.584028</ele>
        <time>2021-11-13T13:45:20.185Z</time>
      </trkpt>
      <trkpt lat="47.554849" lon="7.792237">
        <ele>273.511552</ele>
        <time>2021-11-13T13:45:21.995Z</time>
      </trkpt>
      <trkpt lat="47.554849" lon="7.792237">
        <ele>273.511552</ele>
        <time>2021-11-13T13:45:22.006Z</time>
      </trkpt>
      <trkpt lat="47.554849" lon="7.792237">
        <ele>273.511552</ele>
        <time>2021-11-13T13:45:22.017Z</time>
      </trkpt>
      <trkpt lat="47.555085" lon="7.792163">
        <ele>272.849959</ele>
        <time>2021-11-13T13:45:38.802Z</time>
      </trkpt>
      <trkpt lat="47.555027" lon="7.791948">
        <ele>272.421391</ele>
        <time>2021-11-13T13:45:43.303Z</time>
      </trkpt>
      <trkpt lat="47.554911" lon="7.791459">
        <ele>271.462065</ele>
        <time>2021-11-13T13:45:53.597Z</time>
      </trkpt>
      <trkpt lat="47.554756" lon="7.790897">
        <ele>270.338685</ele>
        <time>2021-11-13T13:46:05.564Z</time>
      </trkpt>
      <trkpt lat="47.554788" lon="7.790844">
        <ele>270.207098</ele>
        <time>2021-11-13T13:46:06.916Z</time>
      </trkpt>
      <trkpt lat="47.554858" lon="7.790696">
        <ele>269.872690</ele>
        <time>2021-11-13T13:46:10.638Z</time>
      </trkpt>
      <trkpt lat="47.554865" lon="7.790678">
        <ele>269.834250</ele>
        <time>2021-11-13T13:46:10.996Z</time>
      </trkpt>
      <trkpt lat="47.554999" lon="7.790090">
        <ele>268.685890</ele>
        <time>2021-11-13T13:46:23.142Z</time>
      </trkpt>
      <trkpt lat="47.555031" lon="7.789894">
        <ele>268.312761</ele>
        <time>2021-11-13T13:46:27.047Z</time>
      </trkpt>
      <trkpt lat="47.555052" lon="7.789771">
        <ele>268.077999</ele>
        <time>2021-11-13T13:46:29.591Z</time>
      </trkpt>
      <trkpt lat="47.555062" lon="7.789726">
        <ele>267.990336</ele>
        <time>2021-11-13T13:46:30.586Z</time>
      </trkpt>
      <trkpt lat="47.555085" lon="7.789685">
        <ele>267.891685</ele>
        <time>2021-11-13T13:46:31.691Z</time>
      </trkpt>
      <trkpt lat="47.555936" lon="7.788828">
        <ele>267.823476</ele>
        <time>2021-11-13T13:47:06.407Z</time>
      </trkpt>
      <trkpt lat="47.556069" lon="7.788614">
        <ele>268.164321</ele>
        <time>2021-11-13T13:47:10.768Z</time>
      </trkpt>
      <trkpt lat="47.556111" lon="7.788537">
        <ele>268.280317</ele>
        <time>2021-11-13T13:47:12.306Z</time>
      </trkpt>
      <trkpt lat="47.556137" lon="7.788488">
        <ele>268.353345</ele>
        <time>2021-11-13T13:47:13.473Z</time>
      </trkpt>
      <trkpt lat="47.556249" lon="7.788270">
        <ele>268.674344</ele>
        <time>2021-11-13T13:47:18.462Z</time>
      </trkpt>
      <trkpt lat="47.556357" lon="7.788058">
        <ele>268.985546</ele>
        <time>2021-11-13T13:47:23.440Z</time>
      </trkpt>
      <trkpt lat="47.556539" lon="7.787710">
        <ele>269.501360</ele>
        <time>2021-11-13T13:47:32.091Z</time>
      </trkpt>
      <trkpt lat="47.556658" lon="7.787468">
        <ele>269.852169</ele>
        <time>2021-11-13T13:47:38.588Z</time>
      </trkpt>
      <trkpt lat="47.556783" lon="7.787207">
        <ele>270.685705</ele>
        <time>2021-11-13T13:47:45.431Z</time>
      </trkpt>
      <trkpt lat="47.556917" lon="7.786943">
        <ele>271.582118</ele>
        <time>2021-11-13T13:47:52.934Z</time>
      </trkpt>
      <trkpt lat="47.557019" lon="7.786803">
        <ele>272.141180</ele>
        <time>2021-11-13T13:47:57.692Z</time>
      </trkpt>
      <trkpt lat="47.557118" lon="7.786638">
        <ele>272.740304</ele>
        <time>2021-11-13T13:48:02.991Z</time>
      </trkpt>
      <trkpt lat="47.557180" lon="7.786638">
        <ele>272.989609</ele>
        <time>2021-11-13T13:48:05.037Z</time>
      </trkpt>
      <trkpt lat="47.557490" lon="7.786586">
        <ele>274.244095</ele>
        <time>2021-11-13T13:48:15.987Z</time>
      </trkpt>
      <trkpt lat="47.557562" lon="7.786575">
        <ele>274.535145</ele>
        <time>2021-11-13T13:48:18.250Z</time>
      </trkpt>
      <trkpt lat="47.557711" lon="7.786536">
        <ele>275.143556</ele>
        <time>2021-11-13T13:48:23.053Z</time>
      </trkpt>
      <trkpt lat="47.557823" lon="7.786486">
        <ele>275.613907</ele>
        <time>2021-11-13T13:48:26.693Z</time>
      </trkpt>
      <trkpt lat="47.557901" lon="7.786427">
        <ele>275.966049</ele>
        <time>2021-11-13T13:48:29.083Z</time>
      </trkpt>
      <trkpt lat="47.557921" lon="7.786413">
        <ele>276.054991</ele>
        <time>2021-11-13T13:48:29.703Z</time>
      </trkpt>
      <trkpt lat="47.558006" lon="7.786349">
        <ele>276.438372</ele>
        <time>2021-11-13T13:48:32.273Z</time>
      </trkpt>
      <trkpt lat="47.558028" lon="7.786327">
        <ele>276.545094</ele>
        <time>2021-11-13T13:48:32.995Z</time>
      </trkpt>
      <trkpt lat="47.558071" lon="7.786282">
        <ele>276.756771</ele>
        <time>2021-11-13T13:48:34.368Z</time>
      </trkpt>
      <trkpt lat="47.558166" lon="7.786166">
        <ele>277.151868</ele>
        <time>2021-11-13T13:48:37.533Z</time>
      </trkpt>
      <trkpt lat="47.558367" lon="7.785913">
        <ele>277.458962</ele>
        <time>2021-11-13T13:48:43.959Z</time>
      </trkpt>
      <trkpt lat="47.558577" lon="7.785598">
        <ele>277.806910</ele>
        <time>2021-11-13T13:48:50.420Z</time>
      </trkpt>
      <trkpt lat="47.558660" lon="7.785434">
        <ele>277.967998</ele>
        <time>2021-11-13T13:48:53.086Z</time>
      </trkpt>
      <trkpt lat="47.558747" lon="7.785215">
        <ele>278.167694</ele>
        <time>2021-11-13T13:48:56.505Z</time>
      </trkpt>
      <trkpt lat="47.558782" lon="7.785128">
        <ele>278.247286</ele>
        <time>2021-11-13T13:48:57.578Z</time>
      </trkpt>
      <trkpt lat="47.558822" lon="7.785030">
        <ele>278.337285</ele>
        <time>2021-11-13T13:48:58.918Z</time>
      </trkpt>
      <trkpt lat="47.558920" lon="7.784817">
        <ele>278.539862</ele>
        <time>2021-11-13T13:49:02.109Z</time>
      </trkpt>
      <trkpt lat="47.558986" lon="7.784674">
        <ele>278.676000</ele>
        <time>2021-11-13T13:49:03.879Z</time>
      </trkpt>
      <trkpt lat="47.558935" lon="7.784583">
        <ele>278.768952</ele>
        <time>2021-11-13T13:49:05.117Z</time>
      </trkpt>
      <trkpt lat="47.558900" lon="7.784465">
        <ele>278.870239</ele>
        <time>2021-11-13T13:49:06.539Z</time>
      </trkpt>
      <trkpt lat="47.558878" lon="7.784352">
        <ele>278.962656</ele>
        <time>2021-11-13T13:49:07.867Z</time>
      </trkpt>
      <trkpt lat="47.558835" lon="7.784082">
        <ele>279.180652</ele>
        <time>2021-11-13T13:49:10.401Z</time>
      </trkpt>
      <trkpt lat="47.558788" lon="7.783782">
        <ele>279.152638</ele>
        <time>2021-11-13T13:49:13.680Z</time>
      </trkpt>
      <trkpt lat="47.558766" lon="7.783650">
        <ele>279.126586</ele>
        <time>2021-11-13T13:49:14.799Z</time>
      </trkpt>
      <trkpt lat="47.558609" lon="7.782690">
        <ele>278.937313</ele>
        <time>2021-11-13T13:49:24.283Z</time>
      </trkpt>
      <trkpt lat="47.558561" lon="7.782282">
        <ele>278.857956</ele>
        <time>2021-11-13T13:49:28.276Z</time>
      </trkpt>
      <trkpt lat="47.558538" lon="7.782086">
        <ele>278.819837</ele>
        <time>2021-11-13T13:49:29.982Z</time>
      </trkpt>
      <trkpt lat="47.558528" lon="7.781999">
        <ele>278.802926</ele>
        <time>2021-11-13T13:49:30.812Z</time>
      </trkpt>
      <trkpt lat="47.558488" lon="7.781576">
        <ele>278.721082</ele>
        <time>2021-11-13T13:49:34.552Z</time>
      </trkpt>
      <trkpt lat="47.558475" lon="7.781460">
        <ele>278.698551</ele>
        <time>2021-11-13T13:49:35.550Z</time>
      </trkpt>
      <trkpt lat="47.558415" lon="7.780958">
        <ele>278.508380</ele>
        <time>2021-11-13T13:49:39.910Z</time>
      </trkpt>
      <trkpt lat="47.558406" lon="7.780884">
        <ele>278.479797</ele>
        <time>2021-11-13T13:49:40.577Z</time>
      </trkpt>
      <trkpt lat="47.558365" lon="7.780533">
        <ele>278.344388</ele>
        <time>2021-11-13T13:49:43.652Z</time>
      </trkpt>
      <trkpt lat="47.558325" lon="7.780058">
        <ele>278.162426</ele>
        <time>2021-11-13T13:49:49.592Z</time>
      </trkpt>
      <trkpt lat="47.558089" lon="7.777904">
        <ele>277.145150</ele>
        <time>2021-11-13T13:50:17.017Z</time>
      </trkpt>
      <trkpt lat="47.557841" lon="7.775695">
        <ele>275.715824</ele>
        <time>2021-11-13T13:50:43.064Z</time>
      </trkpt>
      <trkpt lat="47.557796" lon="7.775255">
        <ele>275.347104</ele>
        <time>2021-11-13T13:50:48.058Z</time>
      </trkpt>
      <trkpt lat="47.557718" lon="7.774680">
        <ele>274.861164</ele>
        <time>2021-11-13T13:50:54.649Z</time>
      </trkpt>
      <trkpt lat="47.557636" lon="7.774194">
        <ele>274.446098</ele>
        <time>2021-11-13T13:51:00.265Z</time>
      </trkpt>
      <trkpt lat="47.557423" lon="7.773208">
        <ele>273.842871</ele>
        <time>2021-11-13T13:51:12.071Z</time>
      </trkpt>
      <trkpt lat="47.556998" lon="7.771574">
        <ele>273.522768</ele>
        <time>2021-11-13T13:51:34.713Z</time>
      </trkpt>
      <trkpt lat="47.556970" lon="7.771488">
        <ele>273.505314</ele>
        <time>2021-11-13T13:51:36.219Z</time>
      </trkpt>
      <trkpt lat="47.556644" lon="7.770245">
        <ele>273.947565</ele>
        <time>2021-11-13T13:51:56.639Z</time>
      </trkpt>
      <trkpt lat="47.556588" lon="7.770024">
        <ele>274.082538</ele>
        <time>2021-11-13T13:52:00.316Z</time>
      </trkpt>
      <trkpt lat="47.556325" lon="7.769016">
        <ele>274.700450</ele>
        <time>2021-11-13T13:52:18.128Z</time>
      </trkpt>
      <trkpt lat="47.556308" lon="7.768946">
        <ele>274.742986</ele>
        <time>2021-11-13T13:52:19.489Z</time>
      </trkpt>
      <trkpt lat="47.556180" lon="7.768445">
        <ele>275.057341</ele>
        <time>2021-11-13T13:52:28.567Z</time>
      </trkpt>
      <trkpt lat="47.555779" lon="7.766907">
        <ele>276.077859</ele>
        <time>2021-11-13T13:52:55.419Z</time>
      </trkpt>
      <trkpt lat="47.555705" lon="7.766563">
        <ele>276.301334</ele>
        <time>2021-11-13T13:53:01.055Z</time>
      </trkpt>
      <trkpt lat="47.555683" lon="7.766459">
        <ele>276.368794</ele>
        <time>2021-11-13T13:53:02.715Z</time>
      </trkpt>
      <trkpt lat="47.555631" lon="7.766213">
        <ele>276.528350</ele>
        <time>2021-11-13T13:53:05.828Z</time>
      </trkpt>
      <trkpt lat="47.555496" lon="7.765461">
        <ele>276.780615</ele>
        <time>2021-11-13T13:53:14.675Z</time>
      </trkpt>
      <trkpt lat="47.555465" lon="7.765253">
        <ele>276.838479</ele>
        <time>2021-11-13T13:53:17.255Z</time>
      </trkpt>
      <trkpt lat="47.555426" lon="7.764999">
        <ele>276.909242</ele>
        <time>2021-11-13T13:53:20.219Z</time>
      </trkpt>
      <trkpt lat="47.555344" lon="7.764439">
        <ele>277.064905</ele>
        <time>2021-11-13T13:53:26.827Z</time>
      </trkpt>
      <trkpt lat="47.555256" lon="7.763536">
        <ele>277.312750</ele>
        <time>2021-11-13T13:53:36.234Z</time>
      </trkpt>
      <trkpt lat="47.555215" lon="7.763047">
        <ele>277.267064</ele>
        <time>2021-11-13T13:53:41.226Z</time>
      </trkpt>
      <trkpt lat="47.555178" lon="7.762514">
        <ele>277.197380</ele>
        <time>2021-11-13T13:53:46.644Z</time>
      </trkpt>
      <trkpt lat="47.555160" lon="7.762248">
        <ele>277.162613</ele>
        <time>2021-11-13T13:53:49.204Z</time>
      </trkpt>
      <trkpt lat="47.555151" lon="7.762144">
        <ele>277.148977</ele>
        <time>2021-11-13T13:53:50.240Z</time>
      </trkpt>
      <trkpt lat="47.555137" lon="7.761950">
        <ele>277.123603</ele>
        <time>2021-11-13T13:53:52.140Z</time>
      </trkpt>
      <trkpt lat="47.555021" lon="7.760351">
        <ele>276.740045</ele>
        <time>2021-11-13T13:54:06.804Z</time>
      </trkpt>
      <trkpt lat="47.555025" lon="7.760185">
        <ele>276.659698</ele>
        <time>2021-11-13T13:54:08.208Z</time>
      </trkpt>
      <trkpt lat="47.555058" lon="7.757801">
        <ele>275.466501</ele>
        <time>2021-11-13T13:54:28.357Z</time>
      </trkpt>
      <trkpt lat="47.555069" lon="7.757021">
        <ele>275.007150</ele>
        <time>2021-11-13T13:54:34.884Z</time>
      </trkpt>
      <trkpt lat="47.555067" lon="7.756625">
        <ele>274.773985</ele>
        <time>2021-11-13T13:54:38.213Z</time>
      </trkpt>
      <trkpt lat="47.555039" lon="7.756348">
        <ele>274.609073</ele>
        <time>2021-11-13T13:54:40.501Z</time>
      </trkpt>
      <trkpt lat="47.554914" lon="7.755680">
        <ele>274.200926</ele>
        <time>2021-11-13T13:54:46.368Z</time>
      </trkpt>
      <trkpt lat="47.554815" lon="7.755400">
        <ele>274.059214</ele>
        <time>2021-11-13T13:54:49.049Z</time>
      </trkpt>
      <trkpt lat="47.554777" lon="7.755293">
        <ele>274.018004</ele>
        <time>2021-11-13T13:54:50.097Z</time>
      </trkpt>
      <trkpt lat="47.554452" lon="7.754585">
        <ele>273.726165</ele>
        <time>2021-11-13T13:54:57.593Z</time>
      </trkpt>
      <trkpt lat="47.554347" lon="7.754347">
        <ele>273.629252</ele>
        <time>2021-11-13T13:55:00.097Z</time>
      </trkpt>
      <trkpt lat="47.554275" lon="7.754160">
        <ele>273.555873</ele>
        <time>2021-11-13T13:55:02.063Z</time>
      </trkpt>
      <trkpt lat="47.554176" lon="7.753798">
        <ele>273.422745</ele>
        <time>2021-11-13T13:55:05.639Z</time>
      </trkpt>
      <trkpt lat="47.554122" lon="7.753011">
        <ele>273.215222</ele>
        <time>2021-11-13T13:55:13.018Z</time>
      </trkpt>
      <trkpt lat="47.554075" lon="7.752001">
        <ele>273.234765</ele>
        <time>2021-11-13T13:55:22.896Z</time>
      </trkpt>
      <trkpt lat="47.554273" lon="7.750704">
        <ele>273.260434</ele>
        <time>2021-11-13T13:55:36.609Z</time>
      </trkpt>
      <trkpt lat="47.554302" lon="7.750411">
        <ele>273.306837</ele>
        <time>2021-11-13T13:55:39.721Z</time>
      </trkpt>
      <trkpt lat="47.554319" lon="7.750058">
        <ele>273.412529</ele>
        <time>2021-11-13T13:55:43.485Z</time>
      </trkpt>
      <trkpt lat="47.554786" lon="7.747259">
        <ele>274.312781</ele>
        <time>2021-11-13T13:56:16.294Z</time>
      </trkpt>
      <trkpt lat="47.554853" lon="7.745965">
        <ele>274.771183</ele>
        <time>2021-11-13T13:56:31.736Z</time>
      </trkpt>
      <trkpt lat="47.554871" lon="7.745667">
        <ele>274.876862</ele>
        <time>2021-11-13T13:56:35.128Z</time>
      </trkpt>
      <trkpt lat="47.554910" lon="7.745450">
        <ele>274.956180</ele>
        <time>2021-11-13T13:56:37.586Z</time>
      </trkpt>
      <trkpt lat="47.555091" lon="7.744936">
        <ele>275.019330</ele>
        <time>2021-11-13T13:56:43.817Z</time>
      </trkpt>
      <trkpt lat="47.555182" lon="7.744738">
        <ele>275.029199</ele>
        <time>2021-11-13T13:56:46.353Z</time>
      </trkpt>
      <trkpt lat="47.555226" lon="7.744660">
        <ele>275.033387</ele>
        <time>2021-11-13T13:56:47.525Z</time>
      </trkpt>
      <trkpt lat="47.555416" lon="7.744384">
        <ele>275.049630</ele>
        <time>2021-11-13T13:56:51.451Z</time>
      </trkpt>
      <trkpt lat="47.555572" lon="7.744136">
        <ele>275.063597</ele>
        <time>2021-11-13T13:56:54.878Z</time>
      </trkpt>
      <trkpt lat="47.555722" lon="7.743661">
        <ele>275.085202</ele>
        <time>2021-11-13T13:57:00.048Z</time>
      </trkpt>
      <trkpt lat="47.555842" lon="7.742820">
        <ele>275.135675</ele>
        <time>2021-11-13T13:57:08.204Z</time>
      </trkpt>
      <trkpt lat="47.556109" lon="7.741529">
        <ele>275.273533</ele>
        <time>2021-11-13T13:57:21.099Z</time>
      </trkpt>
      <trkpt lat="47.556198" lon="7.740232">
        <ele>275.513754</ele>
        <time>2021-11-13T13:57:36.438Z</time>
      </trkpt>
      <trkpt lat="47.556465" lon="7.739495">
        <ele>275.978725</ele>
        <time>2021-11-13T13:57:46.197Z</time>
      </trkpt>
      <trkpt lat="47.556492" lon="7.739412">
        <ele>276.029942</ele>
        <time>2021-11-13T13:57:47.515Z</time>
      </trkpt>
      <trkpt lat="47.556461" lon="7.739007">
        <ele>276.256510</ele>
        <time>2021-11-13T13:57:52.164Z</time>
      </trkpt>
      <trkpt lat="47.556427" lon="7.738558">
        <ele>276.507660</ele>
        <time>2021-11-13T13:57:57.938Z</time>
      </trkpt>
      <trkpt lat="47.556423" lon="7.738362">
        <ele>276.616660</ele>
        <time>2021-11-13T13:58:00.582Z</time>
      </trkpt>
      <trkpt lat="47.556422" lon="7.737881">
        <ele>276.885870</ele>
        <time>2021-11-13T13:58:06.745Z</time>
      </trkpt>
      <trkpt lat="47.556447" lon="7.737561">
        <ele>277.081375</ele>
        <time>2021-11-13T13:58:10.733Z</time>
      </trkpt>
      <trkpt lat="47.556486" lon="7.737232">
        <ele>277.284102</ele>
        <time>2021-11-13T13:58:15.231Z</time>
      </trkpt>
      <trkpt lat="47.556578" lon="7.736762">
        <ele>277.581101</ele>
        <time>2021-11-13T13:58:21.313Z</time>
      </trkpt>
      <trkpt lat="47.556614" lon="7.736602">
        <ele>277.683459</ele>
        <time>2021-11-13T13:58:23.254Z</time>
      </trkpt>
      <trkpt lat="47.556658" lon="7.736525">
        <ele>277.744692</ele>
        <time>2021-11-13T13:58:24.470Z</time>
      </trkpt>
      <trkpt lat="47.556652" lon="7.736450">
        <ele>277.790528</ele>
        <time>2021-11-13T13:58:25.690Z</time>
      </trkpt>
      <trkpt lat="47.556909" lon="7.735277">
        <ele>278.520559</ele>
        <time>2021-11-13T13:58:40.290Z</time>
      </trkpt>
      <trkpt lat="47.556947" lon="7.734300">
        <ele>278.923929</ele>
        <time>2021-11-13T13:58:52.538Z</time>
      </trkpt>
      <trkpt lat="47.556910" lon="7.733982">
        <ele>279.056936</ele>
        <time>2021-11-13T13:58:56.169Z</time>
      </trkpt>
      <trkpt lat="47.556872" lon="7.733723">
        <ele>279.166185</ele>
        <time>2021-11-13T13:58:59.132Z</time>
      </trkpt>
      <trkpt lat="47.556784" lon="7.733151">
        <ele>279.408002</ele>
        <time>2021-11-13T13:59:05.637Z</time>
      </trkpt>
      <trkpt lat="47.556773" lon="7.733074">
        <ele>279.440443</ele>
        <time>2021-11-13T13:59:06.563Z</time>
      </trkpt>
      <trkpt lat="47.556704" lon="7.732597">
        <ele>279.611294</ele>
        <time>2021-11-13T13:59:12.279Z</time>
      </trkpt>
      <trkpt lat="47.556695" lon="7.732526">
        <ele>279.626420</ele>
        <time>2021-11-13T13:59:13.148Z</time>
      </trkpt>
      <trkpt lat="47.556684" lon="7.732421">
        <ele>279.648669</ele>
        <time>2021-11-13T13:59:14.338Z</time>
      </trkpt>
      <trkpt lat="47.556635" lon="7.731437">
        <ele>279.855263</ele>
        <time>2021-11-13T13:59:25.751Z</time>
      </trkpt>
      <trkpt lat="47.556599" lon="7.731204">
        <ele>279.905312</ele>
        <time>2021-11-13T13:59:28.264Z</time>
      </trkpt>
      <trkpt lat="47.556427" lon="7.730477">
        <ele>280.066618</ele>
        <time>2021-11-13T13:59:36.654Z</time>
      </trkpt>
      <trkpt lat="47.556357" lon="7.730174">
        <ele>280.133676</ele>
        <time>2021-11-13T13:59:39.522Z</time>
      </trkpt>
      <trkpt lat="47.556305" lon="7.729996">
        <ele>280.060066</ele>
        <time>2021-11-13T13:59:41.608Z</time>
      </trkpt>
      <trkpt lat="47.556229" lon="7.729846">
        <ele>279.975244</ele>
        <time>2021-11-13T13:59:43.312Z</time>
      </trkpt>
      <trkpt lat="47.556120" lon="7.729737">
        <ele>279.887129</ele>
        <time>2021-11-13T13:59:45.081Z</time>
      </trkpt>
      <trkpt lat="47.555982" lon="7.729642">
        <ele>279.785166</ele>
        <time>2021-11-13T13:59:47.403Z</time>
      </trkpt>
      <trkpt lat="47.555310" lon="7.729256">
        <ele>279.302224</ele>
        <time>2021-11-13T13:59:56.622Z</time>
      </trkpt>
      <trkpt lat="47.555159" lon="7.729171">
        <ele>279.193987</ele>
        <time>2021-11-13T13:59:58.441Z</time>
      </trkpt>
      <trkpt lat="47.554645" lon="7.728883">
        <ele>278.770408</ele>
        <time>2021-11-13T14:00:05.131Z</time>
      </trkpt>
      <trkpt lat="47.554503" lon="7.728787">
        <ele>278.611784</ele>
        <time>2021-11-13T14:00:06.881Z</time>
      </trkpt>
      <trkpt lat="47.554550" lon="7.728615">
        <ele>278.484511</ele>
        <time>2021-11-13T14:00:08.521Z</time>
      </trkpt>
      <trkpt lat="47.554499" lon="7.728580">
        <ele>278.427391</ele>
        <time>2021-11-13T14:00:09.188Z</time>
      </trkpt>
      <trkpt lat="47.554367" lon="7.728585">
        <ele>278.293199</ele>
        <time>2021-11-13T14:00:10.709Z</time>
      </trkpt>
      <trkpt lat="47.554136" lon="7.728404">
        <ele>278.027635</ele>
        <time>2021-11-13T14:00:13.961Z</time>
      </trkpt>
      <trkpt lat="47.553838" lon="7.728124">
        <ele>277.669025</ele>
        <time>2021-11-13T14:00:18.179Z</time>
      </trkpt>
      <trkpt lat="47.553253" lon="7.727551">
        <ele>277.015195</ele>
        <time>2021-11-13T14:00:26.946Z</time>
      </trkpt>
      <trkpt lat="47.553188" lon="7.727446">
        <ele>276.956162</ele>
        <time>2021-11-13T14:00:28.212Z</time>
      </trkpt>
      <trkpt lat="47.553028" lon="7.727114">
        <ele>276.787139</ele>
        <time>2021-11-13T14:00:31.891Z</time>
      </trkpt>
      <trkpt lat="47.552925" lon="7.726842">
        <ele>276.657917</ele>
        <time>2021-11-13T14:00:34.544Z</time>
      </trkpt>
      <trkpt lat="47.552325" lon="7.725243">
        <ele>275.961968</ele>
        <time>2021-11-13T14:00:50.727Z</time>
      </trkpt>
      <trkpt lat="47.552212" lon="7.724918">
        <ele>275.903659</ele>
        <time>2021-11-13T14:00:53.866Z</time>
      </trkpt>
      <trkpt lat="47.551732" lon="7.722977">
        <ele>275.577401</ele>
        <time>2021-11-13T14:01:13.801Z</time>
      </trkpt>
      <trkpt lat="47.551616" lon="7.722641">
        <ele>275.631754</ele>
        <time>2021-11-13T14:01:17.700Z</time>
      </trkpt>
      <trkpt lat="47.551366" lon="7.721998">
        <ele>275.738625</ele>
        <time>2021-11-13T14:01:25.603Z</time>
      </trkpt>
      <trkpt lat="47.551208" lon="7.721582">
        <ele>275.807373</ele>
        <time>2021-11-13T14:01:30.676Z</time>
      </trkpt>
      <trkpt lat="47.551056" lon="7.721158">
        <ele>275.876517</ele>
        <time>2021-11-13T14:01:35.916Z</time>
      </trkpt>
      <trkpt lat="47.550965" lon="7.720874">
        <ele>275.921794</ele>
        <time>2021-11-13T14:01:39.258Z</time>
      </trkpt>
      <trkpt lat="47.550910" lon="7.720574">
        <ele>275.968038</ele>
        <time>2021-11-13T14:01:42.777Z</time>
      </trkpt>
      <trkpt lat="47.550953" lon="7.719585">
        <ele>276.140814</ele>
        <time>2021-11-13T14:01:53.357Z</time>
      </trkpt>
      <trkpt lat="47.550904" lon="7.719258">
        <ele>276.199210</ele>
        <time>2021-11-13T14:01:56.736Z</time>
      </trkpt>
      <trkpt lat="47.550898" lon="7.719236">
        <ele>276.203346</ele>
        <time>2021-11-13T14:01:57.067Z</time>
      </trkpt>
      <trkpt lat="47.550264" lon="7.717130">
        <ele>276.626008</ele>
        <time>2021-11-13T14:02:21.936Z</time>
      </trkpt>
      <trkpt lat="47.550088" lon="7.716261">
        <ele>276.802200</ele>
        <time>2021-11-13T14:02:32.330Z</time>
      </trkpt>
      <trkpt lat="47.550065" lon="7.716105">
        <ele>276.833209</ele>
        <time>2021-11-13T14:02:34.048Z</time>
      </trkpt>
      <trkpt lat="47.550037" lon="7.715872">
        <ele>276.879169</ele>
        <time>2021-11-13T14:02:36.455Z</time>
      </trkpt>
      <trkpt lat="47.549978" lon="7.715484">
        <ele>276.917701</ele>
        <time>2021-11-13T14:02:40.424Z</time>
      </trkpt>
      <trkpt lat="47.549908" lon="7.715097">
        <ele>276.791103</ele>
        <time>2021-11-13T14:02:44.393Z</time>
      </trkpt>
      <trkpt lat="47.549644" lon="7.714162">
        <ele>276.470855</ele>
        <time>2021-11-13T14:02:53.808Z</time>
      </trkpt>
      <trkpt lat="47.549551" lon="7.713795">
        <ele>276.346987</ele>
        <time>2021-11-13T14:02:57.244Z</time>
      </trkpt>
      <trkpt lat="47.548964" lon="7.712473">
        <ele>275.760930</ele>
        <time>2021-11-13T14:03:10.397Z</time>
      </trkpt>
      <trkpt lat="47.548868" lon="7.712162">
        <ele>275.616070</ele>
        <time>2021-11-13T14:03:13.205Z</time>
      </trkpt>
      <trkpt lat="47.548718" lon="7.711675">
        <ele>275.389317</ele>
        <time>2021-11-13T14:03:17.702Z</time>
      </trkpt>
      <trkpt lat="47.547969" lon="7.708286">
        <ele>274.520011</ele>
        <time>2021-11-13T14:03:51.771Z</time>
      </trkpt>
      <trkpt lat="47.547782" lon="7.706642">
        <ele>273.817404</ele>
        <time>2021-11-13T14:04:06.482Z</time>
      </trkpt>
      <trkpt lat="47.547770" lon="7.706493">
        <ele>273.752137</ele>
        <time>2021-11-13T14:04:07.800Z</time>
      </trkpt>
      <trkpt lat="47.547774" lon="7.706385">
        <ele>273.705092</ele>
        <time>2021-11-13T14:04:08.680Z</time>
      </trkpt>
      <trkpt lat="47.547779" lon="7.706281">
        <ele>273.659742</ele>
        <time>2021-11-13T14:04:09.568Z</time>
      </trkpt>
      <trkpt lat="47.547767" lon="7.706177">
        <ele>273.613852</ele>
        <time>2021-11-13T14:04:10.396Z</time>
      </trkpt>
      <trkpt lat="47.547718" lon="7.706083">
        <ele>273.562193</ele>
        <time>2021-11-13T14:04:11.359Z</time>
      </trkpt>
      <trkpt lat="47.547645" lon="7.706169">
        <ele>273.502093</ele>
        <time>2021-11-13T14:04:13.151Z</time>
      </trkpt>
      <trkpt lat="47.547565" lon="7.706271">
        <ele>273.434080</ele>
        <time>2021-11-13T14:04:15.004Z</time>
      </trkpt>
      <trkpt lat="47.547456" lon="7.706117">
        <ele>273.337943</ele>
        <time>2021-11-13T14:04:16.802Z</time>
      </trkpt>
      <trkpt lat="47.547365" lon="7.706011">
        <ele>273.271142</ele>
        <time>2021-11-13T14:04:18.380Z</time>
      </trkpt>
      <trkpt lat="47.547338" lon="7.705979">
        <ele>273.251189</ele>
        <time>2021-11-13T14:04:18.787Z</time>
      </trkpt>
      <trkpt lat="47.547245" lon="7.705830">
        <ele>273.172142</ele>
        <time>2021-11-13T14:04:21.180Z</time>
      </trkpt>
      <trkpt lat="47.547175" lon="7.705728">
        <ele>273.115483</ele>
        <time>2021-11-13T14:04:22.897Z</time>
      </trkpt>
      <trkpt lat="47.547182" lon="7.705657">
        <ele>273.087535</ele>
        <time>2021-11-13T14:04:23.840Z</time>
      </trkpt>
      <trkpt lat="47.547150" lon="7.705539">
        <ele>273.038002</ele>
        <time>2021-11-13T14:04:25.357Z</time>
      </trkpt>
      <trkpt lat="47.547142" lon="7.705507">
        <ele>273.024710</ele>
        <time>2021-11-13T14:04:25.778Z</time>
      </trkpt>
      <trkpt lat="47.547132" lon="7.705492">
        <ele>273.016498</ele>
        <time>2021-11-13T14:04:26.028Z</time>
      </trkpt>
      <trkpt lat="47.547127" lon="7.705322">
        <ele>272.950218</ele>
        <time>2021-11-13T14:04:28.013Z</time>
      </trkpt>
      <trkpt lat="47.547129" lon="7.705131">
        <ele>272.875813</ele>
        <time>2021-11-13T14:04:30.373Z</time>
      </trkpt>
      <trkpt lat="47.547159" lon="7.704989">
        <ele>272.817856</ele>
        <time>2021-11-13T14:04:31.634Z</time>
      </trkpt>
      <trkpt lat="47.547296" lon="7.704274">
        <ele>272.528352</ele>
        <time>2021-11-13T14:04:37.983Z</time>
      </trkpt>
      <trkpt lat="47.547586" lon="7.702759">
        <ele>272.520113</ele>
        <time>2021-11-13T14:04:54.195Z</time>
      </trkpt>
      <trkpt lat="47.547718" lon="7.701632">
        <ele>272.760753</ele>
        <time>2021-11-13T14:05:07.144Z</time>
      </trkpt>
      <trkpt lat="47.547846" lon="7.699539">
        <ele>273.576935</ele>
        <time>2021-11-13T14:05:30.938Z</time>
      </trkpt>
      <trkpt lat="47.547900" lon="7.699136">
        <ele>273.760065</ele>
        <time>2021-11-13T14:05:35.984Z</time>
      </trkpt>
      <trkpt lat="47.547903" lon="7.699114">
        <ele>273.770069</ele>
        <time>2021-11-13T14:05:36.226Z</time>
      </trkpt>
      <trkpt lat="47.547913" lon="7.699038">
        <ele>273.804581</ele>
        <time>2021-11-13T14:05:37.259Z</time>
      </trkpt>
      <trkpt lat="47.547970" lon="7.698727">
        <ele>273.948219</ele>
        <time>2021-11-13T14:05:41.269Z</time>
      </trkpt>
      <trkpt lat="47.547999" lon="7.698586">
        <ele>274.013918</ele>
        <time>2021-11-13T14:05:43.043Z</time>
      </trkpt>
      <trkpt lat="47.548069" lon="7.698253">
        <ele>274.189893</ele>
        <time>2021-11-13T14:05:47.488Z</time>
      </trkpt>
      <trkpt lat="47.548224" lon="7.697419">
        <ele>274.645381</ele>
        <time>2021-11-13T14:05:58.520Z</time>
      </trkpt>
      <trkpt lat="47.548314" lon="7.696826">
        <ele>274.965422</ele>
        <time>2021-11-13T14:06:06.172Z</time>
      </trkpt>
      <trkpt lat="47.548339" lon="7.696589">
        <ele>275.091730</ele>
        <time>2021-11-13T14:06:09.272Z</time>
      </trkpt>
      <trkpt lat="47.548389" lon="7.696070">
        <ele>275.367779</ele>
        <time>2021-11-13T14:06:15.677Z</time>
      </trkpt>
      <trkpt lat="47.548417" lon="7.695616">
        <ele>275.429936</ele>
        <time>2021-11-13T14:06:20.384Z</time>
      </trkpt>
      <trkpt lat="47.548427" lon="7.695434">
        <ele>275.410868</ele>
        <time>2021-11-13T14:06:22.281Z</time>
      </trkpt>
      <trkpt lat="47.548452" lon="7.695145">
        <ele>275.380442</ele>
        <time>2021-11-13T14:06:24.914Z</time>
      </trkpt>
      <trkpt lat="47.548591" lon="7.694324">
        <ele>275.292052</ele>
        <time>2021-11-13T14:06:32.451Z</time>
      </trkpt>
      <trkpt lat="47.548638" lon="7.694044">
        <ele>275.261923</ele>
        <time>2021-11-13T14:06:34.931Z</time>
      </trkpt>
      <trkpt lat="47.548782" lon="7.693465">
        <ele>275.197487</ele>
        <time>2021-11-13T14:06:40.766Z</time>
      </trkpt>
      <trkpt lat="47.548974" lon="7.693002">
        <ele>275.388444</ele>
        <time>2021-11-13T14:06:46.250Z</time>
      </trkpt>
      <trkpt lat="47.549059" lon="7.692848">
        <ele>275.495157</ele>
        <time>2021-11-13T14:06:48.283Z</time>
      </trkpt>
      <trkpt lat="47.549216" lon="7.692540">
        <ele>275.702196</ele>
        <time>2021-11-13T14:06:52.667Z</time>
      </trkpt>
      <trkpt lat="47.549253" lon="7.692474">
        <ele>275.748218</ele>
        <time>2021-11-13T14:06:53.614Z</time>
      </trkpt>
      <trkpt lat="47.549325" lon="7.692315">
        <ele>275.850925</ele>
        <time>2021-11-13T14:06:55.563Z</time>
      </trkpt>
      <trkpt lat="47.549685" lon="7.691459">
        <ele>276.391938</ele>
        <time>2021-11-13T14:07:07.927Z</time>
      </trkpt>
      <trkpt lat="47.549695" lon="7.691435">
        <ele>276.407067</ele>
        <time>2021-11-13T14:07:08.275Z</time>
      </trkpt>
      <trkpt lat="47.549797" lon="7.691193">
        <ele>276.560111</ele>
        <time>2021-11-13T14:07:12.538Z</time>
      </trkpt>
      <trkpt lat="47.550112" lon="7.690714">
        <ele>278.453012</ele>
        <time>2021-11-13T14:07:23.441Z</time>
      </trkpt>
      <trkpt lat="47.550476" lon="7.690324">
        <ele>280.586633</ele>
        <time>2021-11-13T14:07:35.779Z</time>
      </trkpt>
      <trkpt lat="47.550764" lon="7.690746">
        <ele>282.510549</ele>
        <time>2021-11-13T14:07:50.510Z</time>
      </trkpt>
      <trkpt lat="47.551000" lon="7.691170">
        <ele>284.272394</ele>
        <time>2021-11-13T14:08:06.391Z</time>
      </trkpt>
      <trkpt lat="47.551182" lon="7.691473">
        <ele>286.285170</ele>
        <time>2021-11-13T14:08:18.718Z</time>
      </trkpt>
      <trkpt lat="47.551434" lon="7.691862">
        <ele>290.952908</ele>
        <time>2021-11-13T14:08:35.837Z</time>
      </trkpt>
      <trkpt lat="47.551568" lon="7.692024">
        <ele>293.171202</ele>
        <time>2021-11-13T14:08:44.704Z</time>
      </trkpt>
      <trkpt lat="47.551619" lon="7.692088">
        <ele>294.028446</ele>
        <time>2021-11-13T14:08:48.034Z</time>
      </trkpt>
      <trkpt lat="47.551995" lon="7.692291">
        <ele>299.161371</ele>
        <time>2021-11-13T14:09:16.169Z</time>
      </trkpt>
      <trkpt lat="47.552195" lon="7.692398">
        <ele>301.888759</ele>
        <time>2021-11-13T14:09:33.608Z</time>
      </trkpt>
      <trkpt lat="47.553059" lon="7.692566">
        <ele>314.514494</ele>
        <time>2021-11-13T14:10:45.208Z</time>
      </trkpt>
      <trkpt lat="47.553101" lon="7.692582">
        <ele>315.237147</ele>
        <time>2021-11-13T14:10:49.822Z</time>
      </trkpt>
      <trkpt lat="47.553281" lon="7.692750">
        <ele>318.782162</ele>
        <time>2021-11-13T14:11:08.755Z</time>
      </trkpt>
      <trkpt lat="47.553606" lon="7.693126">
        <ele>325.653340</ele>
        <time>2021-11-13T14:11:41.910Z</time>
      </trkpt>
      <trkpt lat="47.554028" lon="7.693827">
        <ele>336.217742</ele>
        <time>2021-11-13T14:12:34.073Z</time>
      </trkpt>
      <trkpt lat="47.554245" lon="7.694182">
        <ele>340.410623</ele>
        <time>2021-11-13T14:12:59.805Z</time>
      </trkpt>
      <trkpt lat="47.554384" lon="7.694448">
        <ele>342.868754</ele>
        <time>2021-11-13T14:13:15.036Z</time>
      </trkpt>
      <trkpt lat="47.554572" lon="7.694665">
        <ele>345.448868</ele>
        <time>2021-11-13T14:13:28.835Z</time>
      </trkpt>
      <trkpt lat="47.554864" lon="7.694875">
        <ele>348.962965</ele>
        <time>2021-11-13T14:13:48.053Z</time>
      </trkpt>
      <trkpt lat="47.555130" lon="7.694964">
        <ele>351.915373</ele>
        <time>2021-11-13T14:14:02.448Z</time>
      </trkpt>
      <trkpt lat="47.556836" lon="7.695079">
        <ele>366.627341</ele>
        <time>2021-11-13T14:15:17.555Z</time>
      </trkpt>
      <trkpt lat="47.558618" lon="7.694872">
        <ele>381.426899</ele>
        <time>2021-11-13T14:16:41.976Z</time>
      </trkpt>
      <trkpt lat="47.559078" lon="7.694904">
        <ele>385.403158</ele>
        <time>2021-11-13T14:17:05.856Z</time>
      </trkpt>
      <trkpt lat="47.560012" lon="7.695119">
        <ele>394.856682</ele>
        <time>2021-11-13T14:17:57.984Z</time>
      </trkpt>
      <trkpt lat="47.561053" lon="7.695338">
        <ele>405.734263</ele>
        <time>2021-11-13T14:18:57.572Z</time>
      </trkpt>
      <trkpt lat="47.561669" lon="7.695498">
        <ele>413.168211</ele>
        <time>2021-11-13T14:19:35.234Z</time>
      </trkpt>
      <trkpt lat="47.562128" lon="7.695702">
        <ele>418.864385</ele>
        <time>2021-11-13T14:20:05.254Z</time>
      </trkpt>
      <trkpt lat="47.562620" lon="7.695953">
        <ele>425.049576</ele>
        <time>2021-11-13T14:20:39.077Z</time>
      </trkpt>
      <trkpt lat="47.563259" lon="7.696241">
        <ele>433.774852</ele>
        <time>2021-11-13T14:21:23.321Z</time>
      </trkpt>
      <trkpt lat="47.565173" lon="7.697132">
        <ele>459.587600</ele>
        <time>2021-11-13T14:23:43.162Z</time>
      </trkpt>
      <trkpt lat="47.565744" lon="7.697318">
        <ele>466.559382</ele>
        <time>2021-11-13T14:24:19.251Z</time>
      </trkpt>
      <trkpt lat="47.566435" lon="7.697358">
        <ele>473.935257</ele>
        <time>2021-11-13T14:24:57.769Z</time>
      </trkpt>
      <trkpt lat="47.567166" lon="7.697504">
        <ele>479.586223</ele>
        <time>2021-11-13T14:25:33.435Z</time>
      </trkpt>
      <trkpt lat="47.567964" lon="7.697996">
        <ele>486.183861</ele>
        <time>2021-11-13T14:26:08.521Z</time>
      </trkpt>
      <trkpt lat="47.568602" lon="7.698487">
        <ele>489.386776</ele>
        <time>2021-11-13T14:26:34.020Z</time>
      </trkpt>
      <trkpt lat="47.569093" lon="7.699112">
        <ele>492.270436</ele>
        <time>2021-11-13T14:26:55.054Z</time>
      </trkpt>
      <trkpt lat="47.569386" lon="7.699378">
        <ele>493.801297</ele>
        <time>2021-11-13T14:27:04.851Z</time>
      </trkpt>
      <trkpt lat="47.570278" lon="7.699755">
        <ele>495.299560</ele>
        <time>2021-11-13T14:27:26.917Z</time>
      </trkpt>
      <trkpt lat="47.571068" lon="7.700068">
        <ele>496.396760</ele>
        <time>2021-11-13T14:27:41.482Z</time>
      </trkpt>
      <trkpt lat="47.571273" lon="7.700147">
        <ele>496.463582</ele>
        <time>2021-11-13T14:27:44.485Z</time>
      </trkpt>
      <trkpt lat="47.571718" lon="7.700291">
        <ele>495.788557</ele>
        <time>2021-11-13T14:27:50.156Z</time>
      </trkpt>
      <trkpt lat="47.572597" lon="7.700557">
        <ele>494.459005</ele>
        <time>2021-11-13T14:28:00.128Z</time>
      </trkpt>
      <trkpt lat="47.574305" lon="7.701458">
        <ele>490.630006</ele>
        <time>2021-11-13T14:28:19.484Z</time>
      </trkpt>
      <trkpt lat="47.574763" lon="7.701603">
        <ele>489.608315</ele>
        <time>2021-11-13T14:28:24.544Z</time>
      </trkpt>
      <trkpt lat="47.574915" lon="7.701638">
        <ele>489.316703</ele>
        <time>2021-11-13T14:28:26.178Z</time>
      </trkpt>
      <trkpt lat="47.575087" lon="7.701638">
        <ele>488.990632</ele>
        <time>2021-11-13T14:28:28.088Z</time>
      </trkpt>
      <trkpt lat="47.575365" lon="7.701553">
        <ele>488.452515</ele>
        <time>2021-11-13T14:28:31.218Z</time>
      </trkpt>
      <trkpt lat="47.575795" lon="7.701398">
        <ele>487.613582</ele>
        <time>2021-11-13T14:28:36.200Z</time>
      </trkpt>
      <trkpt lat="47.576967" lon="7.700886">
        <ele>484.157857</ele>
        <time>2021-11-13T14:28:50.034Z</time>
      </trkpt>
      <trkpt lat="47.577347" lon="7.700798">
        <ele>482.684683</ele>
        <time>2021-11-13T14:28:53.842Z</time>
      </trkpt>
      <trkpt lat="47.578079" lon="7.700973">
        <ele>479.844664</ele>
        <time>2021-11-13T14:29:00.856Z</time>
      </trkpt>
      <trkpt lat="47.578229" lon="7.701002">
        <ele>478.975828</ele>
        <time>2021-11-13T14:29:02.247Z</time>
      </trkpt>
      <trkpt lat="47.578727" lon="7.701081">
        <ele>474.915517</ele>
        <time>2021-11-13T14:29:06.754Z</time>
      </trkpt>
      <trkpt lat="47.579420" lon="7.701212">
        <ele>469.251910</ele>
        <time>2021-11-13T14:29:12.932Z</time>
      </trkpt>
      <trkpt lat="47.580164" lon="7.701066">
        <ele>462.462722</ele>
        <time>2021-11-13T14:29:19.380Z</time>
      </trkpt>
      <trkpt lat="47.580855" lon="7.700494">
        <ele>453.498640</ele>
        <time>2021-11-13T14:29:26.137Z</time>
      </trkpt>
      <trkpt lat="47.581097" lon="7.700270">
        <ele>450.267222</ele>
        <time>2021-11-13T14:29:28.557Z</time>
      </trkpt>
      <trkpt lat="47.581867" lon="7.699553">
        <ele>439.749745</ele>
        <time>2021-11-13T14:29:36.214Z</time>
      </trkpt>
      <trkpt lat="47.582483" lon="7.699048">
        <ele>431.398598</ele>
        <time>2021-11-13T14:29:42.130Z</time>
      </trkpt>
      <trkpt lat="47.582704" lon="7.698936">
        <ele>428.627709</ele>
        <time>2021-11-13T14:29:44.108Z</time>
      </trkpt>
      <trkpt lat="47.583204" lon="7.698814">
        <ele>422.798315</ele>
        <time>2021-11-13T14:29:48.446Z</time>
      </trkpt>
      <trkpt lat="47.584483" lon="7.698786">
        <ele>412.117337</ele>
        <time>2021-11-13T14:29:59.586Z</time>
      </trkpt>
      <trkpt lat="47.584998" lon="7.698675">
        <ele>407.940885</ele>
        <time>2021-11-13T14:30:04.352Z</time>
      </trkpt>
      <trkpt lat="47.585351" lon="7.698544">
        <ele>406.067292</ele>
        <time>2021-11-13T14:30:07.751Z</time>
      </trkpt>
      <trkpt lat="47.585826" lon="7.698379">
        <ele>403.555389</ele>
        <time>2021-11-13T14:30:12.291Z</time>
      </trkpt>
      <trkpt lat="47.586792" lon="7.698373">
        <ele>398.841142</ele>
        <time>2021-11-13T14:30:21.452Z</time>
      </trkpt>
      <trkpt lat="47.587113" lon="7.698428">
        <ele>398.343234</ele>
        <time>2021-11-13T14:30:24.654Z</time>
      </trkpt>
      <trkpt lat="47.587440" lon="7.698475">
        <ele>397.837011</ele>
        <time>2021-11-13T14:30:28.039Z</time>
      </trkpt>
      <trkpt lat="47.587873" lon="7.698650">
        <ele>397.145475</ele>
        <time>2021-11-13T14:30:33.404Z</time>
      </trkpt>
      <trkpt lat="47.588089" lon="7.698812">
        <ele>396.772490</ele>
        <time>2021-11-13T14:30:36.714Z</time>
      </trkpt>
      <trkpt lat="47.588335" lon="7.698996">
        <ele>396.347937</ele>
        <time>2021-11-13T14:30:41.033Z</time>
      </trkpt>
      <trkpt lat="47.588613" lon="7.699146">
        <ele>396.841451</ele>
        <time>2021-11-13T14:30:46.727Z</time>
      </trkpt>
      <trkpt lat="47.588783" lon="7.699233">
        <ele>397.476456</ele>
        <time>2021-11-13T14:30:50.687Z</time>
      </trkpt>
      <trkpt lat="47.588820" lon="7.699251">
        <ele>397.613952</ele>
        <time>2021-11-13T14:30:51.704Z</time>
      </trkpt>
      <trkpt lat="47.588888" lon="7.699285">
        <ele>397.867339</ele>
        <time>2021-11-13T14:30:53.527Z</time>
      </trkpt>
      <trkpt lat="47.589039" lon="7.699385">
        <ele>398.451272</ele>
        <time>2021-11-13T14:30:58.080Z</time>
      </trkpt>
      <trkpt lat="47.589187" lon="7.699499">
        <ele>399.040158</ele>
        <time>2021-11-13T14:31:03.152Z</time>
      </trkpt>
      <trkpt lat="47.589371" lon="7.699670">
        <ele>399.806918</ele>
        <time>2021-11-13T14:31:09.768Z</time>
      </trkpt>
      <trkpt lat="47.589386" lon="7.699686">
        <ele>399.872163</ele>
        <time>2021-11-13T14:31:10.427Z</time>
      </trkpt>
      <trkpt lat="47.589647" lon="7.699969">
        <ele>401.013859</ele>
        <time>2021-11-13T14:31:21.544Z</time>
      </trkpt>
      <trkpt lat="47.589999" lon="7.700344">
        <ele>402.552316</ele>
        <time>2021-11-13T14:31:36.916Z</time>
      </trkpt>
      <trkpt lat="47.590123" lon="7.700478">
        <ele>403.430595</ele>
        <time>2021-11-13T14:31:42.277Z</time>
      </trkpt>
      <trkpt lat="47.590145" lon="7.700501">
        <ele>403.584677</ele>
        <time>2021-11-13T14:31:43.215Z</time>
      </trkpt>
      <trkpt lat="47.590412" lon="7.700787">
        <ele>405.470065</ele>
        <time>2021-11-13T14:31:54.777Z</time>
      </trkpt>
      <trkpt lat="47.591948" lon="7.701748">
        <ele>415.276365</ele>
        <time>2021-11-13T14:32:59.363Z</time>
      </trkpt>
      <trkpt lat="47.592206" lon="7.701983">
        <ele>417.218561</ele>
        <time>2021-11-13T14:33:12.294Z</time>
      </trkpt>
      <trkpt lat="47.592428" lon="7.702221">
        <ele>418.975747</ele>
        <time>2021-11-13T14:33:24.056Z</time>
      </trkpt>
      <trkpt lat="47.592647" lon="7.702455">
        <ele>420.707201</ele>
        <time>2021-11-13T14:33:36.628Z</time>
      </trkpt>
      <trkpt lat="47.594235" lon="7.704161">
        <ele>429.923845</ele>
        <time>2021-11-13T14:34:50.192Z</time>
      </trkpt>
      <trkpt lat="47.594812" lon="7.704586">
        <ele>431.433490</ele>
        <time>2021-11-13T14:34:58.805Z</time>
      </trkpt>
      <trkpt lat="47.594878" lon="7.704623">
        <ele>431.397600</ele>
        <time>2021-11-13T14:34:59.558Z</time>
      </trkpt>
      <trkpt lat="47.595305" lon="7.704858">
        <ele>431.165930</ele>
        <time>2021-11-13T14:35:04.697Z</time>
      </trkpt>
      <trkpt lat="47.595409" lon="7.704915">
        <ele>431.109533</ele>
        <time>2021-11-13T14:35:06.104Z</time>
      </trkpt>
      <trkpt lat="47.595742" lon="7.705100">
        <ele>430.928655</ele>
        <time>2021-11-13T14:35:10.549Z</time>
      </trkpt>
      <trkpt lat="47.595916" lon="7.705224">
        <ele>430.830460</ele>
        <time>2021-11-13T14:35:12.977Z</time>
      </trkpt>
      <trkpt lat="47.595976" lon="7.705266">
        <ele>430.796712</ele>
        <time>2021-11-13T14:35:13.800Z</time>
      </trkpt>
      <trkpt lat="47.596060" lon="7.705296">
        <ele>430.752764</ele>
        <time>2021-11-13T14:35:14.907Z</time>
      </trkpt>
      <trkpt lat="47.596102" lon="7.705292">
        <ele>430.731356</ele>
        <time>2021-11-13T14:35:15.563Z</time>
      </trkpt>
      <trkpt lat="47.596152" lon="7.705269">
        <ele>430.704728</ele>
        <time>2021-11-13T14:35:16.201Z</time>
      </trkpt>
      <trkpt lat="47.596200" lon="7.705242">
        <ele>430.678615</ele>
        <time>2021-11-13T14:35:16.784Z</time>
      </trkpt>
      <trkpt lat="47.596231" lon="7.705216">
        <ele>430.660500</ele>
        <time>2021-11-13T14:35:17.369Z</time>
      </trkpt>
      <trkpt lat="47.596262" lon="7.705184">
        <ele>430.641288</ele>
        <time>2021-11-13T14:35:17.955Z</time>
      </trkpt>
      <trkpt lat="47.596320" lon="7.705087">
        <ele>430.874144</ele>
        <time>2021-11-13T14:35:19.201Z</time>
      </trkpt>
      <trkpt lat="47.596477" lon="7.704865">
        <ele>431.490828</ele>
        <time>2021-11-13T14:35:22.450Z</time>
      </trkpt>
      <trkpt lat="47.596597" lon="7.704697">
        <ele>431.959960</ele>
        <time>2021-11-13T14:35:25.789Z</time>
      </trkpt>
      <trkpt lat="47.596735" lon="7.704573">
        <ele>432.418652</ele>
        <time>2021-11-13T14:35:28.963Z</time>
      </trkpt>
      <trkpt lat="47.596806" lon="7.704509">
        <ele>432.654847</ele>
        <time>2021-11-13T14:35:31.385Z</time>
      </trkpt>
      <trkpt lat="47.598120" lon="7.703272">
        <ele>437.693318</ele>
        <time>2021-11-13T14:36:21.421Z</time>
      </trkpt>
      <trkpt lat="47.598495" lon="7.703052">
        <ele>439.370068</ele>
        <time>2021-11-13T14:36:34.214Z</time>
      </trkpt>
      <trkpt lat="47.599072" lon="7.702862">
        <ele>441.827550</ele>
        <time>2021-11-13T14:36:52.452Z</time>
      </trkpt>
      <trkpt lat="47.599487" lon="7.702726">
        <ele>443.563219</ele>
        <time>2021-11-13T14:37:05.617Z</time>
      </trkpt>
      <trkpt lat="47.599670" lon="7.702666">
        <ele>444.275210</ele>
        <time>2021-11-13T14:37:11.619Z</time>
      </trkpt>
      <trkpt lat="47.599943" lon="7.702573">
        <ele>445.339328</ele>
        <time>2021-11-13T14:37:20.443Z</time>
      </trkpt>
      <trkpt lat="47.600141" lon="7.702518">
        <ele>446.104596</ele>
        <time>2021-11-13T14:37:26.436Z</time>
      </trkpt>
      <trkpt lat="47.600237" lon="7.702499">
        <ele>446.472526</ele>
        <time>2021-11-13T14:37:29.612Z</time>
      </trkpt>
      <trkpt lat="47.600343" lon="7.702497">
        <ele>446.875245</ele>
        <time>2021-11-13T14:37:32.817Z</time>
      </trkpt>
      <trkpt lat="47.600440" lon="7.702507">
        <ele>447.244630</ele>
        <time>2021-11-13T14:37:35.586Z</time>
      </trkpt>
      <trkpt lat="47.600490" lon="7.702513">
        <ele>447.435197</ele>
        <time>2021-11-13T14:37:37.140Z</time>
      </trkpt>
      <trkpt lat="47.600598" lon="7.702542">
        <ele>447.852152</ele>
        <time>2021-11-13T14:37:40.719Z</time>
      </trkpt>
      <trkpt lat="47.600662" lon="7.702560">
        <ele>448.099617</ele>
        <time>2021-11-13T14:37:42.663Z</time>
      </trkpt>
      <trkpt lat="47.600825" lon="7.702621">
        <ele>448.738253</ele>
        <time>2021-11-13T14:37:47.503Z</time>
      </trkpt>
      <trkpt lat="47.601068" lon="7.702719">
        <ele>449.694916</ele>
        <time>2021-11-13T14:37:55.268Z</time>
      </trkpt>
      <trkpt lat="47.602034" lon="7.703189">
        <ele>451.640013</ele>
        <time>2021-11-13T14:38:21.802Z</time>
      </trkpt>
      <trkpt lat="47.602741" lon="7.703349">
        <ele>452.866145</ele>
        <time>2021-11-13T14:38:34.808Z</time>
      </trkpt>
      <trkpt lat="47.603078" lon="7.703349">
        <ele>452.977432</ele>
        <time>2021-11-13T14:38:39.492Z</time>
      </trkpt>
      <trkpt lat="47.603346" lon="7.703327">
        <ele>452.714854</ele>
        <time>2021-11-13T14:38:42.939Z</time>
      </trkpt>
      <trkpt lat="47.603613" lon="7.703281">
        <ele>452.451900</ele>
        <time>2021-11-13T14:38:46.288Z</time>
      </trkpt>
      <trkpt lat="47.603759" lon="7.703238">
        <ele>452.306284</ele>
        <time>2021-11-13T14:38:48.164Z</time>
      </trkpt>
      <trkpt lat="47.603904" lon="7.703195">
        <ele>452.161627</ele>
        <time>2021-11-13T14:38:49.854Z</time>
      </trkpt>
      <trkpt lat="47.604601" lon="7.702884">
        <ele>451.449586</ele>
        <time>2021-11-13T14:38:58.231Z</time>
      </trkpt>
      <trkpt lat="47.605215" lon="7.702410">
        <ele>450.416733</ele>
        <time>2021-11-13T14:39:06.110Z</time>
      </trkpt>
      <trkpt lat="47.605980" lon="7.701437">
        <ele>448.860587</ele>
        <time>2021-11-13T14:39:17.946Z</time>
      </trkpt>
      <trkpt lat="47.606445" lon="7.700518">
        <ele>447.974393</ele>
        <time>2021-11-13T14:39:26.398Z</time>
      </trkpt>
      <trkpt lat="47.606660" lon="7.699943">
        <ele>447.514304</ele>
        <time>2021-11-13T14:39:32.721Z</time>
      </trkpt>
      <trkpt lat="47.606797" lon="7.699470">
        <ele>447.154075</ele>
        <time>2021-11-13T14:39:38.593Z</time>
      </trkpt>
      <trkpt lat="47.606926" lon="7.698832">
        <ele>446.518885</ele>
        <time>2021-11-13T14:39:44.351Z</time>
      </trkpt>
      <trkpt lat="47.606976" lon="7.698603">
        <ele>445.834655</ele>
        <time>2021-11-13T14:39:46.182Z</time>
      </trkpt>
      <trkpt lat="47.607050" lon="7.698259">
        <ele>444.808249</ele>
        <time>2021-11-13T14:39:48.633Z</time>
      </trkpt>
      <trkpt lat="47.607183" lon="7.697654">
        <ele>442.999396</ele>
        <time>2021-11-13T14:39:52.717Z</time>
      </trkpt>
      <trkpt lat="47.607241" lon="7.697434">
        <ele>442.327925</ele>
        <time>2021-11-13T14:39:54.163Z</time>
      </trkpt>
      <trkpt lat="47.607399" lon="7.696948">
        <ele>440.794229</ele>
        <time>2021-11-13T14:39:57.578Z</time>
      </trkpt>
      <trkpt lat="47.607510" lon="7.696656">
        <ele>439.841367</ele>
        <time>2021-11-13T14:39:59.773Z</time>
      </trkpt>
      <trkpt lat="47.607667" lon="7.696310">
        <ele>438.608526</ele>
        <time>2021-11-13T14:40:02.391Z</time>
      </trkpt>
      <trkpt lat="47.607767" lon="7.696111">
        <ele>437.836794</ele>
        <time>2021-11-13T14:40:03.953Z</time>
      </trkpt>
      <trkpt lat="47.607893" lon="7.696043">
        <ele>437.218419</ele>
        <time>2021-11-13T14:40:05.130Z</time>
      </trkpt>
      <trkpt lat="47.608067" lon="7.696005">
        <ele>436.407291</ele>
        <time>2021-11-13T14:40:06.814Z</time>
      </trkpt>
      <trkpt lat="47.608196" lon="7.696020">
        <ele>435.810526</ele>
        <time>2021-11-13T14:40:07.937Z</time>
      </trkpt>
      <trkpt lat="47.608372" lon="7.696258">
        <ele>434.712121</ele>
        <time>2021-11-13T14:40:10.142Z</time>
      </trkpt>
      <trkpt lat="47.608771" lon="7.696795">
        <ele>432.227343</ele>
        <time>2021-11-13T14:40:15.088Z</time>
      </trkpt>
      <trkpt lat="47.609041" lon="7.697226">
        <ele>431.183712</ele>
        <time>2021-11-13T14:40:19.517Z</time>
      </trkpt>
      <trkpt lat="47.609246" lon="7.697627">
        <ele>432.253284</ele>
        <time>2021-11-13T14:40:27.333Z</time>
      </trkpt>
      <trkpt lat="47.609485" lon="7.698298">
        <ele>433.866170</ele>
        <time>2021-11-13T14:40:42.124Z</time>
      </trkpt>
      <trkpt lat="47.609508" lon="7.698376">
        <ele>434.047108</ele>
        <time>2021-11-13T14:40:44.345Z</time>
      </trkpt>
      <trkpt lat="47.609551" lon="7.698537">
        <ele>434.415156</ele>
        <time>2021-11-13T14:40:48.201Z</time>
      </trkpt>
      <trkpt lat="47.609650" lon="7.698957">
        <ele>435.360774</ele>
        <time>2021-11-13T14:40:59.300Z</time>
      </trkpt>
      <trkpt lat="47.609692" lon="7.699268">
        <ele>436.034876</ele>
        <time>2021-11-13T14:41:06.851Z</time>
      </trkpt>
      <trkpt lat="47.609728" lon="7.699617">
        <ele>436.872547</ele>
        <time>2021-11-13T14:41:16.335Z</time>
      </trkpt>
      <trkpt lat="47.609747" lon="7.700598">
        <ele>439.685556</ele>
        <time>2021-11-13T14:41:39.966Z</time>
      </trkpt>
      <trkpt lat="47.609709" lon="7.701136">
        <ele>441.236071</ele>
        <time>2021-11-13T14:41:52.396Z</time>
      </trkpt>
      <trkpt lat="47.609456" lon="7.702382">
        <ele>444.498105</ele>
        <time>2021-11-13T14:42:16.346Z</time>
      </trkpt>
      <trkpt lat="47.608889" lon="7.703993">
        <ele>446.598891</ele>
        <time>2021-11-13T14:42:41.752Z</time>
      </trkpt>
      <trkpt lat="47.608768" lon="7.704298">
        <ele>447.007982</ele>
        <time>2021-11-13T14:42:46.568Z</time>
      </trkpt>
      <trkpt lat="47.608553" lon="7.704890">
        <ele>447.470354</ele>
        <time>2021-11-13T14:42:55.556Z</time>
      </trkpt>
      <trkpt lat="47.608202" lon="7.706065">
        <ele>448.055126</ele>
        <time>2021-11-13T14:43:12.153Z</time>
      </trkpt>
      <trkpt lat="47.608116" lon="7.706776">
        <ele>448.383807</ele>
        <time>2021-11-13T14:43:19.949Z</time>
      </trkpt>
      <trkpt lat="47.608185" lon="7.707104">
        <ele>448.380096</ele>
        <time>2021-11-13T14:43:22.975Z</time>
      </trkpt>
      <trkpt lat="47.608415" lon="7.707586">
        <ele>447.935939</ele>
        <time>2021-11-13T14:43:27.918Z</time>
      </trkpt>
      <trkpt lat="47.608616" lon="7.707855">
        <ele>447.633911</ele>
        <time>2021-11-13T14:43:31.156Z</time>
      </trkpt>
      <trkpt lat="47.608857" lon="7.707990">
        <ele>447.346509</ele>
        <time>2021-11-13T14:43:34.148Z</time>
      </trkpt>
      <trkpt lat="47.609432" lon="7.708024">
        <ele>446.704511</ele>
        <time>2021-11-13T14:43:40.690Z</time>
      </trkpt>
      <trkpt lat="47.609945" lon="7.708077">
        <ele>446.274731</ele>
        <time>2021-11-13T14:43:46.768Z</time>
      </trkpt>
      <trkpt lat="47.610375" lon="7.708322">
        <ele>445.976853</ele>
        <time>2021-11-13T14:43:52.315Z</time>
      </trkpt>
      <trkpt lat="47.610583" lon="7.708562">
        <ele>445.806442</ele>
        <time>2021-11-13T14:43:55.664Z</time>
      </trkpt>
      <trkpt lat="47.610962" lon="7.709157">
        <ele>445.449572</ele>
        <time>2021-11-13T14:44:03.968Z</time>
      </trkpt>
      <trkpt lat="47.611254" lon="7.709366">
        <ele>445.268126</ele>
        <time>2021-11-13T14:44:08.777Z</time>
      </trkpt>
      <trkpt lat="47.611851" lon="7.709998">
        <ele>444.984586</ele>
        <time>2021-11-13T14:44:18.892Z</time>
      </trkpt>
      <trkpt lat="47.612153" lon="7.710516">
        <ele>444.806105</ele>
        <time>2021-11-13T14:44:25.277Z</time>
      </trkpt>
      <trkpt lat="47.612421" lon="7.711182">
        <ele>444.578847</ele>
        <time>2021-11-13T14:44:32.388Z</time>
      </trkpt>
      <trkpt lat="47.612529" lon="7.713387">
        <ele>442.658545</ele>
        <time>2021-11-13T14:44:49.935Z</time>
      </trkpt>
      <trkpt lat="47.612616" lon="7.713746">
        <ele>442.327184</ele>
        <time>2021-11-13T14:44:52.867Z</time>
      </trkpt>
      <trkpt lat="47.612715" lon="7.713994">
        <ele>441.912432</ele>
        <time>2021-11-13T14:44:55.027Z</time>
      </trkpt>
      <trkpt lat="47.612918" lon="7.714393">
        <ele>441.154417</ele>
        <time>2021-11-13T14:44:58.677Z</time>
      </trkpt>
      <trkpt lat="47.613053" lon="7.714840">
        <ele>440.411674</ele>
        <time>2021-11-13T14:45:02.198Z</time>
      </trkpt>
      <trkpt lat="47.613126" lon="7.715447">
        <ele>439.476690</ele>
        <time>2021-11-13T14:45:06.583Z</time>
      </trkpt>
      <trkpt lat="47.613063" lon="7.715952">
        <ele>438.697909</ele>
        <time>2021-11-13T14:45:10.189Z</time>
      </trkpt>
      <trkpt lat="47.612886" lon="7.716219">
        <ele>438.196017</ele>
        <time>2021-11-13T14:45:12.824Z</time>
      </trkpt>
      <trkpt lat="47.612794" lon="7.716290">
        <ele>438.089520</ele>
        <time>2021-11-13T14:45:13.914Z</time>
      </trkpt>
      <trkpt lat="47.612400" lon="7.716363">
        <ele>437.681774</ele>
        <time>2021-11-13T14:45:18.448Z</time>
      </trkpt>
      <trkpt lat="47.611451" lon="7.716117">
        <ele>436.692469</ele>
        <time>2021-11-13T14:45:30.460Z</time>
      </trkpt>
      <trkpt lat="47.610823" lon="7.716092">
        <ele>436.645692</ele>
        <time>2021-11-13T14:45:40.376Z</time>
      </trkpt>
      <trkpt lat="47.610328" lon="7.715981">
        <ele>436.993170</ele>
        <time>2021-11-13T14:45:49.244Z</time>
      </trkpt>
      <trkpt lat="47.610177" lon="7.716108">
        <ele>437.113653</ele>
        <time>2021-11-13T14:45:52.573Z</time>
      </trkpt>
      <trkpt lat="47.610137" lon="7.716271">
        <ele>437.194822</ele>
        <time>2021-11-13T14:45:54.634Z</time>
      </trkpt>
      <trkpt lat="47.610179" lon="7.716821">
        <ele>437.453832</ele>
        <time>2021-11-13T14:46:01.697Z</time>
      </trkpt>
      <trkpt lat="47.610141" lon="7.717048">
        <ele>437.563279</ele>
        <time>2021-11-13T14:46:04.794Z</time>
      </trkpt>
      <trkpt lat="47.610060" lon="7.717147">
        <ele>437.636128</ele>
        <time>2021-11-13T14:46:06.823Z</time>
      </trkpt>
      <trkpt lat="47.609949" lon="7.717160">
        <ele>437.698453</ele>
        <time>2021-11-13T14:46:08.788Z</time>
      </trkpt>
      <trkpt lat="47.609597" lon="7.717035">
        <ele>437.887684</ele>
        <time>2021-11-13T14:46:15.656Z</time>
      </trkpt>
      <trkpt lat="47.609492" lon="7.717058">
        <ele>437.943175</ele>
        <time>2021-11-13T14:46:17.664Z</time>
      </trkpt>
      <trkpt lat="47.609360" lon="7.717199">
        <ele>438.028219</ele>
        <time>2021-11-13T14:46:20.672Z</time>
      </trkpt>
      <trkpt lat="47.609310" lon="7.717330">
        <ele>438.081279</ele>
        <time>2021-11-13T14:46:22.363Z</time>
      </trkpt>
      <trkpt lat="47.609289" lon="7.717671">
        <ele>438.201973</ele>
        <time>2021-11-13T14:46:26.124Z</time>
      </trkpt>
      <trkpt lat="47.609476" lon="7.718077">
        <ele>438.375285</ele>
        <time>2021-11-13T14:46:30.846Z</time>
      </trkpt>
      <trkpt lat="47.609453" lon="7.718554">
        <ele>438.543843</ele>
        <time>2021-11-13T14:46:35.856Z</time>
      </trkpt>
      <trkpt lat="47.609572" lon="7.718806">
        <ele>438.677083</ele>
        <time>2021-11-13T14:46:39.313Z</time>
      </trkpt>
      <trkpt lat="47.609572" lon="7.718806">
        <ele>438.677083</ele>
        <time>2021-11-13T14:46:39.315Z</time>
      </trkpt>
      <trkpt lat="47.609896" lon="7.719065">
        <ele>438.950187</ele>
        <time>2021-11-13T14:46:45.289Z</time>
      </trkpt>
      <trkpt lat="47.609964" lon="7.719178">
        <ele>439.025959</ele>
        <time>2021-11-13T14:46:46.841Z</time>
      </trkpt>
      <trkpt lat="47.610040" lon="7.719503">
        <ele>439.198042</ele>
        <time>2021-11-13T14:46:50.675Z</time>
      </trkpt>
      <trkpt lat="47.609981" lon="7.719813">
        <ele>439.359180</ele>
        <time>2021-11-13T14:46:54.476Z</time>
      </trkpt>
      <trkpt lat="47.609938" lon="7.719910">
        <ele>439.417255</ele>
        <time>2021-11-13T14:46:55.319Z</time>
      </trkpt>
      <trkpt lat="47.609869" lon="7.719982">
        <ele>439.479854</ele>
        <time>2021-11-13T14:46:58.134Z</time>
      </trkpt>
      <trkpt lat="47.609746" lon="7.720056">
        <ele>439.578344</ele>
        <time>2021-11-13T14:47:00.380Z</time>
      </trkpt>
      <trkpt lat="47.609694" lon="7.720088">
        <ele>439.620117</ele>
        <time>2021-11-13T14:47:01.384Z</time>
      </trkpt>
      <trkpt lat="47.609123" lon="7.720028">
        <ele>440.191089</ele>
        <time>2021-11-13T14:47:12.914Z</time>
      </trkpt>
      <trkpt lat="47.609035" lon="7.720082">
        <ele>440.349991</ele>
        <time>2021-11-13T14:47:14.745Z</time>
      </trkpt>
      <trkpt lat="47.608949" lon="7.720323">
        <ele>440.656731</ele>
        <time>2021-11-13T14:47:18.253Z</time>
      </trkpt>
      <trkpt lat="47.608945" lon="7.721056">
        <ele>441.481324</ele>
        <time>2021-11-13T14:47:30.089Z</time>
      </trkpt>
      <trkpt lat="47.608991" lon="7.721651">
        <ele>442.155037</ele>
        <time>2021-11-13T14:47:39.028Z</time>
      </trkpt>
      <trkpt lat="47.609174" lon="7.722708">
        <ele>443.233602</ele>
        <time>2021-11-13T14:47:54.565Z</time>
      </trkpt>
      <trkpt lat="47.609127" lon="7.723743">
        <ele>444.017197</ele>
        <time>2021-11-13T14:48:08.862Z</time>
      </trkpt>
      <trkpt lat="47.609161" lon="7.724017">
        <ele>444.227649</ele>
        <time>2021-11-13T14:48:12.585Z</time>
      </trkpt>
      <trkpt lat="47.609341" lon="7.724198">
        <ele>444.471305</ele>
        <time>2021-11-13T14:48:16.927Z</time>
      </trkpt>
      <trkpt lat="47.609636" lon="7.724285">
        <ele>444.808305</ele>
        <time>2021-11-13T14:48:22.952Z</time>
      </trkpt>
      <trkpt lat="47.609742" lon="7.724373">
        <ele>444.943467</ele>
        <time>2021-11-13T14:48:25.379Z</time>
      </trkpt>
      <trkpt lat="47.609970" lon="7.724684">
        <ele>443.815030</ele>
        <time>2021-11-13T14:48:30.046Z</time>
      </trkpt>
      <trkpt lat="47.610108" lon="7.725107">
        <ele>442.660869</ele>
        <time>2021-11-13T14:48:33.652Z</time>
      </trkpt>
      <trkpt lat="47.610415" lon="7.726318">
        <ele>439.483270</ele>
        <time>2021-11-13T14:48:42.110Z</time>
      </trkpt>
      <trkpt lat="47.610578" lon="7.726917">
        <ele>437.181253</ele>
        <time>2021-11-13T14:48:45.955Z</time>
      </trkpt>
      <trkpt lat="47.610604" lon="7.726979">
        <ele>436.742615</ele>
        <time>2021-11-13T14:48:46.406Z</time>
      </trkpt>
      <trkpt lat="47.610833" lon="7.727203">
        <ele>434.298269</ele>
        <time>2021-11-13T14:48:48.784Z</time>
      </trkpt>
      <trkpt lat="47.611447" lon="7.727328">
        <ele>428.775688</ele>
        <time>2021-11-13T14:48:54.181Z</time>
      </trkpt>
      <trkpt lat="47.611558" lon="7.727374">
        <ele>427.748702</ele>
        <time>2021-11-13T14:48:55.151Z</time>
      </trkpt>
      <trkpt lat="47.611673" lon="7.727743">
        <ele>425.306601</ele>
        <time>2021-11-13T14:48:57.513Z</time>
      </trkpt>
      <trkpt lat="47.611794" lon="7.728207">
        <ele>422.327667</ele>
        <time>2021-11-13T14:49:00.409Z</time>
      </trkpt>
      <trkpt lat="47.612102" lon="7.728839">
        <ele>418.629712</ele>
        <time>2021-11-13T14:49:05.022Z</time>
      </trkpt>
      <trkpt lat="47.612234" lon="7.729223">
        <ele>416.585767</ele>
        <time>2021-11-13T14:49:07.597Z</time>
      </trkpt>
      <trkpt lat="47.612445" lon="7.730023">
        <ele>412.512266</ele>
        <time>2021-11-13T14:49:12.928Z</time>
      </trkpt>
      <trkpt lat="47.612490" lon="7.730332">
        <ele>411.013230</ele>
        <time>2021-11-13T14:49:14.935Z</time>
      </trkpt>
      <trkpt lat="47.612414" lon="7.731732">
        <ele>404.936764</ele>
        <time>2021-11-13T14:49:23.747Z</time>
      </trkpt>
      <trkpt lat="47.612582" lon="7.733083">
        <ele>399.131837</ele>
        <time>2021-11-13T14:49:32.058Z</time>
      </trkpt>
      <trkpt lat="47.612580" lon="7.733841">
        <ele>396.006846</ele>
        <time>2021-11-13T14:49:36.723Z</time>
      </trkpt>
      <trkpt lat="47.612580" lon="7.733842">
        <ele>396.002752</ele>
        <time>2021-11-13T14:49:36.753Z</time>
      </trkpt>
      <trkpt lat="47.612562" lon="7.734273">
        <ele>394.234745</ele>
        <time>2021-11-13T14:49:39.523Z</time>
      </trkpt>
      <trkpt lat="47.612560" lon="7.734334">
        <ele>393.984700</ele>
        <time>2021-11-13T14:49:39.890Z</time>
      </trkpt>
      <trkpt lat="47.612558" lon="7.734604">
        <ele>392.879184</ele>
        <time>2021-11-13T14:49:41.528Z</time>
      </trkpt>
      <trkpt lat="47.612618" lon="7.734756">
        <ele>392.158020</ele>
        <time>2021-11-13T14:49:42.626Z</time>
      </trkpt>
      <trkpt lat="47.612755" lon="7.734867">
        <ele>391.209955</ele>
        <time>2021-11-13T14:49:44.017Z</time>
      </trkpt>
      <trkpt lat="47.613181" lon="7.734997">
        <ele>388.568549</ele>
        <time>2021-11-13T14:49:48.031Z</time>
      </trkpt>
      <trkpt lat="47.613390" lon="7.735211">
        <ele>387.305020</ele>
        <time>2021-11-13T14:49:50.341Z</time>
      </trkpt>
      <trkpt lat="47.613434" lon="7.735397">
        <ele>386.958260</ele>
        <time>2021-11-13T14:49:51.624Z</time>
      </trkpt>
      <trkpt lat="47.613375" lon="7.735736">
        <ele>386.342359</ele>
        <time>2021-11-13T14:49:53.934Z</time>
      </trkpt>
      <trkpt lat="47.613317" lon="7.735838">
        <ele>386.107619</ele>
        <time>2021-11-13T14:49:54.896Z</time>
      </trkpt>
      <trkpt lat="47.613210" lon="7.735944">
        <ele>385.771863</ele>
        <time>2021-11-13T14:49:56.157Z</time>
      </trkpt>
      <trkpt lat="47.613039" lon="7.736015">
        <ele>385.308490</ele>
        <time>2021-11-13T14:49:58.123Z</time>
      </trkpt>
      <trkpt lat="47.612712" lon="7.736151">
        <ele>384.422281</ele>
        <time>2021-11-13T14:50:01.789Z</time>
      </trkpt>
      <trkpt lat="47.612447" lon="7.736778">
        <ele>383.120438</ele>
        <time>2021-11-13T14:50:07.540Z</time>
      </trkpt>
      <trkpt lat="47.612194" lon="7.737048">
        <ele>383.068127</ele>
        <time>2021-11-13T14:50:11.850Z</time>
      </trkpt>
      <trkpt lat="47.612044" lon="7.737224">
        <ele>383.307389</ele>
        <time>2021-11-13T14:50:14.578Z</time>
      </trkpt>
      <trkpt lat="47.611965" lon="7.737457">
        <ele>383.527348</ele>
        <time>2021-11-13T14:50:17.970Z</time>
      </trkpt>
      <trkpt lat="47.611893" lon="7.737711">
        <ele>383.759731</ele>
        <time>2021-11-13T14:50:21.693Z</time>
      </trkpt>
      <trkpt lat="47.611872" lon="7.738156">
        <ele>384.135951</ele>
        <time>2021-11-13T14:50:28.089Z</time>
      </trkpt>
      <trkpt lat="47.611785" lon="7.738609">
        <ele>384.533201</ele>
        <time>2021-11-13T14:50:34.895Z</time>
      </trkpt>
      <trkpt lat="47.611751" lon="7.738698">
        <ele>384.619476</ele>
        <time>2021-11-13T14:50:36.913Z</time>
      </trkpt>
      <trkpt lat="47.611684" lon="7.738828">
        <ele>384.757484</ele>
        <time>2021-11-13T14:50:39.414Z</time>
      </trkpt>
      <trkpt lat="47.611618" lon="7.738936">
        <ele>384.880422</ele>
        <time>2021-11-13T14:50:41.720Z</time>
      </trkpt>
      <trkpt lat="47.611382" lon="7.739254">
        <ele>385.501749</ele>
        <time>2021-11-13T14:50:49.805Z</time>
      </trkpt>
      <trkpt lat="47.611129" lon="7.739819">
        <ele>386.686712</ele>
        <time>2021-11-13T14:51:02.303Z</time>
      </trkpt>
      <trkpt lat="47.610898" lon="7.741056">
        <ele>388.929152</ele>
        <time>2021-11-13T14:51:24.305Z</time>
      </trkpt>
      <trkpt lat="47.610871" lon="7.741420">
        <ele>389.568907</ele>
        <time>2021-11-13T14:51:29.737Z</time>
      </trkpt>
      <trkpt lat="47.610879" lon="7.741793">
        <ele>390.328002</ele>
        <time>2021-11-13T14:51:35.488Z</time>
      </trkpt>
      <trkpt lat="47.611010" lon="7.743033">
        <ele>393.001892</ele>
        <time>2021-11-13T14:51:58.047Z</time>
      </trkpt>
      <trkpt lat="47.611161" lon="7.743634">
        <ele>394.368262</ele>
        <time>2021-11-13T14:52:11.284Z</time>
      </trkpt>
      <trkpt lat="47.611241" lon="7.743837">
        <ele>394.869193</ele>
        <time>2021-11-13T14:52:16.107Z</time>
      </trkpt>
      <trkpt lat="47.611456" lon="7.744262">
        <ele>396.027931</ele>
        <time>2021-11-13T14:52:26.483Z</time>
      </trkpt>
      <trkpt lat="47.611609" lon="7.744853">
        <ele>397.438364</ele>
        <time>2021-11-13T14:52:38.693Z</time>
      </trkpt>
      <trkpt lat="47.611651" lon="7.745141">
        <ele>398.094838</ele>
        <time>2021-11-13T14:52:45.175Z</time>
      </trkpt>
      <trkpt lat="47.611691" lon="7.745486">
        <ele>398.874745</ele>
        <time>2021-11-13T14:52:51.804Z</time>
      </trkpt>
      <trkpt lat="47.611647" lon="7.746050">
        <ele>400.139661</ele>
        <time>2021-11-13T14:53:03.101Z</time>
      </trkpt>
      <trkpt lat="47.611508" lon="7.746851">
        <ele>401.560260</ele>
        <time>2021-11-13T14:53:16.880Z</time>
      </trkpt>
      <trkpt lat="47.611423" lon="7.747196">
        <ele>401.823172</ele>
        <time>2021-11-13T14:53:22.783Z</time>
      </trkpt>
      <trkpt lat="47.611024" lon="7.748403">
        <ele>402.785374</ele>
        <time>2021-11-13T14:53:38.203Z</time>
      </trkpt>
      <trkpt lat="47.610897" lon="7.748667">
        <ele>403.017512</ele>
        <time>2021-11-13T14:53:41.411Z</time>
      </trkpt>
      <trkpt lat="47.610399" lon="7.749144">
        <ele>403.972463</ele>
        <time>2021-11-13T14:53:51.184Z</time>
      </trkpt>
      <trkpt lat="47.610331" lon="7.749289">
        <ele>404.208129</ele>
        <time>2021-11-13T14:53:53.264Z</time>
      </trkpt>
      <trkpt lat="47.610303" lon="7.749507">
        <ele>404.504222</ele>
        <time>2021-11-13T14:53:56.178Z</time>
      </trkpt>
      <trkpt lat="47.610345" lon="7.749815">
        <ele>404.923485</ele>
        <time>2021-11-13T14:54:01.134Z</time>
      </trkpt>
      <trkpt lat="47.610520" lon="7.750319">
        <ele>405.679881</ele>
        <time>2021-11-13T14:54:10.467Z</time>
      </trkpt>
      <trkpt lat="47.610643" lon="7.750603">
        <ele>406.130253</ele>
        <time>2021-11-13T14:54:15.926Z</time>
      </trkpt>
      <trkpt lat="47.610714" lon="7.750722">
        <ele>406.342273</ele>
        <time>2021-11-13T14:54:18.957Z</time>
      </trkpt>
      <trkpt lat="47.611094" lon="7.750951">
        <ele>407.668552</ele>
        <time>2021-11-13T14:54:30.508Z</time>
      </trkpt>
      <trkpt lat="47.611197" lon="7.751064">
        <ele>408.324390</ele>
        <time>2021-11-13T14:54:33.703Z</time>
      </trkpt>
      <trkpt lat="47.611255" lon="7.751205">
        <ele>408.894444</ele>
        <time>2021-11-13T14:54:37.194Z</time>
      </trkpt>
      <trkpt lat="47.611288" lon="7.751378">
        <ele>409.514944</ele>
        <time>2021-11-13T14:54:41.210Z</time>
      </trkpt>
      <trkpt lat="47.611242" lon="7.752336">
        <ele>412.829583</ele>
        <time>2021-11-13T14:55:04.116Z</time>
      </trkpt>
      <trkpt lat="47.611269" lon="7.753071">
        <ele>415.369989</ele>
        <time>2021-11-13T14:55:24.830Z</time>
      </trkpt>
      <trkpt lat="47.611310" lon="7.753428">
        <ele>416.861824</ele>
        <time>2021-11-13T14:55:34.553Z</time>
      </trkpt>
      <trkpt lat="47.611506" lon="7.753985">
        <ele>419.931465</ele>
        <time>2021-11-13T14:55:51.866Z</time>
      </trkpt>
      <trkpt lat="47.611701" lon="7.754245">
        <ele>421.831592</ele>
        <time>2021-11-13T14:56:03.170Z</time>
      </trkpt>
      <trkpt lat="47.611848" lon="7.754391">
        <ele>423.113632</ele>
        <time>2021-11-13T14:56:10.896Z</time>
      </trkpt>
      <trkpt lat="47.612146" lon="7.754726">
        <ele>425.823311</ele>
        <time>2021-11-13T14:56:27.780Z</time>
      </trkpt>
      <trkpt lat="47.612192" lon="7.754954">
        <ele>426.986011</ele>
        <time>2021-11-13T14:56:35.475Z</time>
      </trkpt>
      <trkpt lat="47.612161" lon="7.755353">
        <ele>428.948216</ele>
        <time>2021-11-13T14:56:47.408Z</time>
      </trkpt>
      <trkpt lat="47.612159" lon="7.755380">
        <ele>429.081270</ele>
        <time>2021-11-13T14:56:49.297Z</time>
      </trkpt>
      <trkpt lat="47.612161" lon="7.755449">
        <ele>429.432216</ele>
        <time>2021-11-13T14:56:51.428Z</time>
      </trkpt>
      <trkpt lat="47.612172" lon="7.755521">
        <ele>429.807359</ele>
        <time>2021-11-13T14:56:53.581Z</time>
      </trkpt>
      <trkpt lat="47.612196" lon="7.755580">
        <ele>430.157517</ele>
        <time>2021-11-13T14:56:55.676Z</time>
      </trkpt>
      <trkpt lat="47.612248" lon="7.755635">
        <ele>430.638911</ele>
        <time>2021-11-13T14:56:58.730Z</time>
      </trkpt>
      <trkpt lat="47.612387" lon="7.755703">
        <ele>431.742153</ele>
        <time>2021-11-13T14:57:05.724Z</time>
      </trkpt>
      <trkpt lat="47.612451" lon="7.755754">
        <ele>432.289766</ele>
        <time>2021-11-13T14:57:09.448Z</time>
      </trkpt>
      <trkpt lat="47.612481" lon="7.755809">
        <ele>432.649270</ele>
        <time>2021-11-13T14:57:11.768Z</time>
      </trkpt>
      <trkpt lat="47.612503" lon="7.755886">
        <ele>433.074231</ele>
        <time>2021-11-13T14:57:14.224Z</time>
      </trkpt>
      <trkpt lat="47.612539" lon="7.756079">
        <ele>434.091797</ele>
        <time>2021-11-13T14:57:20.464Z</time>
      </trkpt>
      <trkpt lat="47.612595" lon="7.756458">
        <ele>436.063377</ele>
        <time>2021-11-13T14:57:31.820Z</time>
      </trkpt>
      <trkpt lat="47.612635" lon="7.756867">
        <ele>438.163438</ele>
        <time>2021-11-13T14:57:44.798Z</time>
      </trkpt>
      <trkpt lat="47.612654" lon="7.757180">
        <ele>439.760360</ele>
        <time>2021-11-13T14:57:54.250Z</time>
      </trkpt>
      <trkpt lat="47.612657" lon="7.757559">
        <ele>441.686353</ele>
        <time>2021-11-13T14:58:06.064Z</time>
      </trkpt>
      <trkpt lat="47.612671" lon="7.757751">
        <ele>442.652551</ele>
        <time>2021-11-13T14:58:11.909Z</time>
      </trkpt>
      <trkpt lat="47.612697" lon="7.758003">
        <ele>443.432357</ele>
        <time>2021-11-13T14:58:18.198Z</time>
      </trkpt>
      <trkpt lat="47.612718" lon="7.758199">
        <ele>444.039416</ele>
        <time>2021-11-13T14:58:24.419Z</time>
      </trkpt>
      <trkpt lat="47.612779" lon="7.758543">
        <ele>445.127454</ele>
        <time>2021-11-13T14:58:32.303Z</time>
      </trkpt>
      <trkpt lat="47.612830" lon="7.758759">
        <ele>445.827516</ele>
        <time>2021-11-13T14:58:38.721Z</time>
      </trkpt>
      <trkpt lat="47.612944" lon="7.759245">
        <ele>447.401534</ele>
        <time>2021-11-13T14:58:49.956Z</time>
      </trkpt>
      <trkpt lat="47.613053" lon="7.759623">
        <ele>448.659110</ele>
        <time>2021-11-13T14:58:57.509Z</time>
      </trkpt>
      <trkpt lat="47.613205" lon="7.760080">
        <ele>450.217874</ele>
        <time>2021-11-13T14:59:07.261Z</time>
      </trkpt>
      <trkpt lat="47.613222" lon="7.760189">
        <ele>450.560092</ele>
        <time>2021-11-13T14:59:09.681Z</time>
      </trkpt>
      <trkpt lat="47.613231" lon="7.760404">
        <ele>450.863298</ele>
        <time>2021-11-13T14:59:12.898Z</time>
      </trkpt>
      <trkpt lat="47.613148" lon="7.760607">
        <ele>450.986148</ele>
        <time>2021-11-13T14:59:16.435Z</time>
      </trkpt>
      <trkpt lat="47.613059" lon="7.760674">
        <ele>451.062754</ele>
        <time>2021-11-13T14:59:18.869Z</time>
      </trkpt>
      <trkpt lat="47.612960" lon="7.760706">
        <ele>451.140526</ele>
        <time>2021-11-13T14:59:20.930Z</time>
      </trkpt>
      <trkpt lat="47.612812" lon="7.760726">
        <ele>451.254595</ele>
        <time>2021-11-13T14:59:23.779Z</time>
      </trkpt>
      <trkpt lat="47.612630" lon="7.760759">
        <ele>451.395331</ele>
        <time>2021-11-13T14:59:27.058Z</time>
      </trkpt>
      <trkpt lat="47.612523" lon="7.760811">
        <ele>451.481755</ele>
        <time>2021-11-13T14:59:28.975Z</time>
      </trkpt>
      <trkpt lat="47.612441" lon="7.760890">
        <ele>451.556805</ele>
        <time>2021-11-13T14:59:30.523Z</time>
      </trkpt>
      <trkpt lat="47.612127" lon="7.761383">
        <ele>451.907753</ele>
        <time>2021-11-13T14:59:37.336Z</time>
      </trkpt>
      <trkpt lat="47.612075" lon="7.761435">
        <ele>451.955889</ele>
        <time>2021-11-13T14:59:38.259Z</time>
      </trkpt>
      <trkpt lat="47.612022" lon="7.761449">
        <ele>451.997209</ele>
        <time>2021-11-13T14:59:39.065Z</time>
      </trkpt>
      <trkpt lat="47.611933" lon="7.761457">
        <ele>452.065648</ele>
        <time>2021-11-13T14:59:40.241Z</time>
      </trkpt>
      <trkpt lat="47.611100" lon="7.761324">
        <ele>450.786811</ele>
        <time>2021-11-13T14:59:51.109Z</time>
      </trkpt>
      <trkpt lat="47.610854" lon="7.761285">
        <ele>450.297426</ele>
        <time>2021-11-13T14:59:53.772Z</time>
      </trkpt>
      <trkpt lat="47.610760" lon="7.761304">
        <ele>450.109766</ele>
        <time>2021-11-13T14:59:54.815Z</time>
      </trkpt>
      <trkpt lat="47.610601" lon="7.761374">
        <ele>449.781686</ele>
        <time>2021-11-13T14:59:56.558Z</time>
      </trkpt>
      <trkpt lat="47.610580" lon="7.761637">
        <ele>449.428506</ele>
        <time>2021-11-13T14:59:58.422Z</time>
      </trkpt>
      <trkpt lat="47.610549" lon="7.761995">
        <ele>448.947166</ele>
        <time>2021-11-13T15:00:00.888Z</time>
      </trkpt>
      <trkpt lat="47.610510" lon="7.762675">
        <ele>447.298159</ele>
        <time>2021-11-13T15:00:05.470Z</time>
      </trkpt>
      <trkpt lat="47.610505" lon="7.763094">
        <ele>446.022992</ele>
        <time>2021-11-13T15:00:08.163Z</time>
      </trkpt>
      <trkpt lat="47.610607" lon="7.764328">
        <ele>442.239960</ele>
        <time>2021-11-13T15:00:16.063Z</time>
      </trkpt>
      <trkpt lat="47.610767" lon="7.765723">
        <ele>438.289667</ele>
        <time>2021-11-13T15:00:25.127Z</time>
      </trkpt>
      <trkpt lat="47.610797" lon="7.765993">
        <ele>437.572590</ele>
        <time>2021-11-13T15:00:26.963Z</time>
      </trkpt>
      <trkpt lat="47.610892" lon="7.766368">
        <ele>436.522817</ele>
        <time>2021-11-13T15:00:29.664Z</time>
      </trkpt>
      <trkpt lat="47.611720" lon="7.768321">
        <ele>430.658856</ele>
        <time>2021-11-13T15:00:45.313Z</time>
      </trkpt>
      <trkpt lat="47.611843" lon="7.768871">
        <ele>429.231537</ele>
        <time>2021-11-13T15:00:49.207Z</time>
      </trkpt>
      <trkpt lat="47.611735" lon="7.769126">
        <ele>428.489771</ele>
        <time>2021-11-13T15:00:51.169Z</time>
      </trkpt>
      <trkpt lat="47.611495" lon="7.770538">
        <ele>425.043045</ele>
        <time>2021-11-13T15:01:00.730Z</time>
      </trkpt>
      <trkpt lat="47.611349" lon="7.770818">
        <ele>424.231323</ele>
        <time>2021-11-13T15:01:03.004Z</time>
      </trkpt>
      <trkpt lat="47.611091" lon="7.771142">
        <ele>423.081467</ele>
        <time>2021-11-13T15:01:06.359Z</time>
      </trkpt>
      <trkpt lat="47.610490" lon="7.771899">
        <ele>420.513808</ele>
        <time>2021-11-13T15:01:14.775Z</time>
      </trkpt>
      <trkpt lat="47.610258" lon="7.772352">
        <ele>419.568704</ele>
        <time>2021-11-13T15:01:18.908Z</time>
      </trkpt>
      <trkpt lat="47.610187" lon="7.772679">
        <ele>418.997972</ele>
        <time>2021-11-13T15:01:21.504Z</time>
      </trkpt>
      <trkpt lat="47.610132" lon="7.773138">
        <ele>418.223472</ele>
        <time>2021-11-13T15:01:24.897Z</time>
      </trkpt>
      <trkpt lat="47.610139" lon="7.773592">
        <ele>417.469032</ele>
        <time>2021-11-13T15:01:28.137Z</time>
      </trkpt>
      <trkpt lat="47.610312" lon="7.774653">
        <ele>415.016767</ele>
        <time>2021-11-13T15:01:35.781Z</time>
      </trkpt>
      <trkpt lat="47.610473" lon="7.775477">
        <ele>412.338024</ele>
        <time>2021-11-13T15:01:41.486Z</time>
      </trkpt>
      <trkpt lat="47.610502" lon="7.776042">
        <ele>410.568760</ele>
        <time>2021-11-13T15:01:45.082Z</time>
      </trkpt>
      <trkpt lat="47.610448" lon="7.776605">
        <ele>408.793144</ele>
        <time>2021-11-13T15:01:48.609Z</time>
      </trkpt>
      <trkpt lat="47.610341" lon="7.777059">
        <ele>406.810909</ele>
        <time>2021-11-13T15:01:51.556Z</time>
      </trkpt>
      <trkpt lat="47.610133" lon="7.777501">
        <ele>404.063668</ele>
        <time>2021-11-13T15:01:54.816Z</time>
      </trkpt>
      <trkpt lat="47.609368" lon="7.778574">
        <ele>396.104161</ele>
        <time>2021-11-13T15:02:04.129Z</time>
      </trkpt>
      <trkpt lat="47.608894" lon="7.779407">
        <ele>390.469192</ele>
        <time>2021-11-13T15:02:10.586Z</time>
      </trkpt>
      <trkpt lat="47.608573" lon="7.780374">
        <ele>384.864036</ele>
        <time>2021-11-13T15:02:16.990Z</time>
      </trkpt>
      <trkpt lat="47.608399" lon="7.780950">
        <ele>381.581738</ele>
        <time>2021-11-13T15:02:20.771Z</time>
      </trkpt>
      <trkpt lat="47.608295" lon="7.781364">
        <ele>379.830949</ele>
        <time>2021-11-13T15:02:23.484Z</time>
      </trkpt>
      <trkpt lat="47.608309" lon="7.781587">
        <ele>379.157529</ele>
        <time>2021-11-13T15:02:24.887Z</time>
      </trkpt>
      <trkpt lat="47.608437" lon="7.781938">
        <ele>377.957642</ele>
        <time>2021-11-13T15:02:27.390Z</time>
      </trkpt>
      <trkpt lat="47.608448" lon="7.782041">
        <ele>377.644080</ele>
        <time>2021-11-13T15:02:28.059Z</time>
      </trkpt>
      <trkpt lat="47.608319" lon="7.782746">
        <ele>375.447596</ele>
        <time>2021-11-13T15:02:32.800Z</time>
      </trkpt>
      <trkpt lat="47.608293" lon="7.782840">
        <ele>375.142095</ele>
        <time>2021-11-13T15:02:33.457Z</time>
      </trkpt>
      <trkpt lat="47.608067" lon="7.783679">
        <ele>372.515361</ele>
        <time>2021-11-13T15:02:39.636Z</time>
      </trkpt>
      <trkpt lat="47.608000" lon="7.783873">
        <ele>372.302105</ele>
        <time>2021-11-13T15:02:41.194Z</time>
      </trkpt>
      <trkpt lat="47.607811" lon="7.784422">
        <ele>371.699012</ele>
        <time>2021-11-13T15:02:45.936Z</time>
      </trkpt>
      <trkpt lat="47.607784" lon="7.784501">
        <ele>371.612358</ele>
        <time>2021-11-13T15:02:46.615Z</time>
      </trkpt>
      <trkpt lat="47.607357" lon="7.785276">
        <ele>370.633136</ele>
        <time>2021-11-13T15:02:55.445Z</time>
      </trkpt>
      <trkpt lat="47.607244" lon="7.785405">
        <ele>370.426211</ele>
        <time>2021-11-13T15:02:57.097Z</time>
      </trkpt>
      <trkpt lat="47.607090" lon="7.785536">
        <ele>370.168590</ele>
        <time>2021-11-13T15:02:59.329Z</time>
      </trkpt>
      <trkpt lat="47.606894" lon="7.785802">
        <ele>369.673974</ele>
        <time>2021-11-13T15:03:02.434Z</time>
      </trkpt>
      <trkpt lat="47.606482" lon="7.786756">
        <ele>367.835107</ele>
        <time>2021-11-13T15:03:11.125Z</time>
      </trkpt>
      <trkpt lat="47.606236" lon="7.787573">
        <ele>366.382790</ele>
        <time>2021-11-13T15:03:17.360Z</time>
      </trkpt>
      <trkpt lat="47.606058" lon="7.787870">
        <ele>365.737798</ele>
        <time>2021-11-13T15:03:20.078Z</time>
      </trkpt>
      <trkpt lat="47.605245" lon="7.789093">
        <ele>361.406534</ele>
        <time>2021-11-13T15:03:31.232Z</time>
      </trkpt>
      <trkpt lat="47.604933" lon="7.789879">
        <ele>359.069680</ele>
        <time>2021-11-13T15:03:37.336Z</time>
      </trkpt>
      <trkpt lat="47.604881" lon="7.790305">
        <ele>358.295484</ele>
        <time>2021-11-13T15:03:40.325Z</time>
      </trkpt>
      <trkpt lat="47.604861" lon="7.790465">
        <ele>358.048192</ele>
        <time>2021-11-13T15:03:41.457Z</time>
      </trkpt>
      <trkpt lat="47.604776" lon="7.790738">
        <ele>357.591220</ele>
        <time>2021-11-13T15:03:43.600Z</time>
      </trkpt>
      <trkpt lat="47.604673" lon="7.790747">
        <ele>357.358664</ele>
        <time>2021-11-13T15:03:44.689Z</time>
      </trkpt>
      <trkpt lat="47.604312" lon="7.790667">
        <ele>356.535967</ele>
        <time>2021-11-13T15:03:48.661Z</time>
      </trkpt>
      <trkpt lat="47.604020" lon="7.790669">
        <ele>355.877817</ele>
        <time>2021-11-13T15:03:51.922Z</time>
      </trkpt>
      <trkpt lat="47.603500" lon="7.790696">
        <ele>354.717350</ele>
        <time>2021-11-13T15:03:57.740Z</time>
      </trkpt>
      <trkpt lat="47.603379" lon="7.790683">
        <ele>354.579396</ele>
        <time>2021-11-13T15:03:59.088Z</time>
      </trkpt>
      <trkpt lat="47.603218" lon="7.790665">
        <ele>354.395796</ele>
        <time>2021-11-13T15:04:00.934Z</time>
      </trkpt>
      <trkpt lat="47.602292" lon="7.790564">
        <ele>353.339959</ele>
        <time>2021-11-13T15:04:12.212Z</time>
      </trkpt>
      <trkpt lat="47.601954" lon="7.790533">
        <ele>352.954870</ele>
        <time>2021-11-13T15:04:16.424Z</time>
      </trkpt>
      <trkpt lat="47.601768" lon="7.790511">
        <ele>352.742690</ele>
        <time>2021-11-13T15:04:18.803Z</time>
      </trkpt>
      <trkpt lat="47.601359" lon="7.790478">
        <ele>352.240352</ele>
        <time>2021-11-13T15:04:23.914Z</time>
      </trkpt>
      <trkpt lat="47.601073" lon="7.790573">
        <ele>351.877181</ele>
        <time>2021-11-13T15:04:27.550Z</time>
      </trkpt>
      <trkpt lat="47.600304" lon="7.790832">
        <ele>350.900028</ele>
        <time>2021-11-13T15:04:36.939Z</time>
      </trkpt>
      <trkpt lat="47.600211" lon="7.790869">
        <ele>350.780715</ele>
        <time>2021-11-13T15:04:38.061Z</time>
      </trkpt>
      <trkpt lat="47.600151" lon="7.790895">
        <ele>350.703258</ele>
        <time>2021-11-13T15:04:38.778Z</time>
      </trkpt>
      <trkpt lat="47.599667" lon="7.791105">
        <ele>349.704889</ele>
        <time>2021-11-13T15:04:44.483Z</time>
      </trkpt>
      <trkpt lat="47.598592" lon="7.791580">
        <ele>346.939502</ele>
        <time>2021-11-13T15:04:56.242Z</time>
      </trkpt>
      <trkpt lat="47.598252" lon="7.791731">
        <ele>346.064502</ele>
        <time>2021-11-13T15:04:59.868Z</time>
      </trkpt>
      <trkpt lat="47.598017" lon="7.791913">
        <ele>345.422590</ele>
        <time>2021-11-13T15:05:02.577Z</time>
      </trkpt>
      <trkpt lat="47.597848" lon="7.792115">
        <ele>344.897707</ele>
        <time>2021-11-13T15:05:04.841Z</time>
      </trkpt>
      <trkpt lat="47.597646" lon="7.792396">
        <ele>344.227969</ele>
        <time>2021-11-13T15:05:07.735Z</time>
      </trkpt>
      <trkpt lat="47.596504" lon="7.792669">
        <ele>341.511028</ele>
        <time>2021-11-13T15:05:20.261Z</time>
      </trkpt>
      <trkpt lat="47.595750" lon="7.792802">
        <ele>340.285203</ele>
        <time>2021-11-13T15:05:28.649Z</time>
      </trkpt>
      <trkpt lat="47.595245" lon="7.792802">
        <ele>339.469940</ele>
        <time>2021-11-13T15:05:34.335Z</time>
      </trkpt>
      <trkpt lat="47.595133" lon="7.792800">
        <ele>339.289116</ele>
        <time>2021-11-13T15:05:35.612Z</time>
      </trkpt>
      <trkpt lat="47.594154" lon="7.792816">
        <ele>339.083080</ele>
        <time>2021-11-13T15:05:48.027Z</time>
      </trkpt>
      <trkpt lat="47.594082" lon="7.792808">
        <ele>339.117680</ele>
        <time>2021-11-13T15:05:49.024Z</time>
      </trkpt>
      <trkpt lat="47.594068" lon="7.792892">
        <ele>339.145642</ele>
        <time>2021-11-13T15:05:49.771Z</time>
      </trkpt>
      <trkpt lat="47.594118" lon="7.793102">
        <ele>339.217613</ele>
        <time>2021-11-13T15:05:52.125Z</time>
      </trkpt>
      <trkpt lat="47.594161" lon="7.793148">
        <ele>339.243021</ele>
        <time>2021-11-13T15:05:53.043Z</time>
      </trkpt>
      <trkpt lat="47.594337" lon="7.793337">
        <ele>339.347155</ele>
        <time>2021-11-13T15:05:56.492Z</time>
      </trkpt>
      <trkpt lat="47.594491" lon="7.793515">
        <ele>339.440723</ele>
        <time>2021-11-13T15:06:00.414Z</time>
      </trkpt>
      <trkpt lat="47.594650" lon="7.793807">
        <ele>339.562008</ele>
        <time>2021-11-13T15:06:05.866Z</time>
      </trkpt>
      <trkpt lat="47.594694" lon="7.794211">
        <ele>340.041354</ele>
        <time>2021-11-13T15:06:12.830Z</time>
      </trkpt>
      <trkpt lat="47.594615" lon="7.795353">
        <ele>342.428189</ele>
        <time>2021-11-13T15:06:35.288Z</time>
      </trkpt>
      <trkpt lat="47.594592" lon="7.795962">
        <ele>343.696370</ele>
        <time>2021-11-13T15:06:47.106Z</time>
      </trkpt>
      <trkpt lat="47.594601" lon="7.796746">
        <ele>345.274357</ele>
        <time>2021-11-13T15:07:01.709Z</time>
      </trkpt>
      <trkpt lat="47.594663" lon="7.797229">
        <ele>345.942387</ele>
        <time>2021-11-13T15:07:10.173Z</time>
      </trkpt>
      <trkpt lat="47.594957" lon="7.798605">
        <ele>347.903531</ele>
        <time>2021-11-13T15:07:32.136Z</time>
      </trkpt>
      <trkpt lat="47.595383" lon="7.799322">
        <ele>349.059043</ele>
        <time>2021-11-13T15:07:44.927Z</time>
      </trkpt>
      <trkpt lat="47.595466" lon="7.799497">
        <ele>349.246536</ele>
        <time>2021-11-13T15:07:47.692Z</time>
      </trkpt>
      <trkpt lat="47.595757" lon="7.800208">
        <ele>349.975397</ele>
        <time>2021-11-13T15:07:59.301Z</time>
      </trkpt>
      <trkpt lat="47.595950" lon="7.800596">
        <ele>350.397912</ele>
        <time>2021-11-13T15:08:05.682Z</time>
      </trkpt>
      <trkpt lat="47.596083" lon="7.800764">
        <ele>350.624953</ele>
        <time>2021-11-13T15:08:09.147Z</time>
      </trkpt>
      <trkpt lat="47.596154" lon="7.800842">
        <ele>350.739781</ele>
        <time>2021-11-13T15:08:10.980Z</time>
      </trkpt>
      <trkpt lat="47.596631" lon="7.801307">
        <ele>351.680489</ele>
        <time>2021-11-13T15:08:21.801Z</time>
      </trkpt>
      <trkpt lat="47.596866" lon="7.801508">
        <ele>352.236469</ele>
        <time>2021-11-13T15:08:27.044Z</time>
      </trkpt>
      <trkpt lat="47.597625" lon="7.801971">
        <ele>353.918438</ele>
        <time>2021-11-13T15:08:47.072Z</time>
      </trkpt>
      <trkpt lat="47.597927" lon="7.802250">
        <ele>354.647637</ele>
        <time>2021-11-13T15:08:55.688Z</time>
      </trkpt>
      <trkpt lat="47.598146" lon="7.802509">
        <ele>355.494420</ele>
        <time>2021-11-13T15:09:02.758Z</time>
      </trkpt>
      <trkpt lat="47.598398" lon="7.802889">
        <ele>356.734884</ele>
        <time>2021-11-13T15:09:12.637Z</time>
      </trkpt>
      <trkpt lat="47.599983" lon="7.804755">
        <ele>363.174106</ele>
        <time>2021-11-13T15:10:13.183Z</time>
      </trkpt>
      <trkpt lat="47.600367" lon="7.805144">
        <ele>364.453401</ele>
        <time>2021-11-13T15:10:24.843Z</time>
      </trkpt>
      <trkpt lat="47.600707" lon="7.805537">
        <ele>365.639265</ele>
        <time>2021-11-13T15:10:34.646Z</time>
      </trkpt>
      <trkpt lat="47.600919" lon="7.805847">
        <ele>366.271411</ele>
        <time>2021-11-13T15:10:40.848Z</time>
      </trkpt>
      <trkpt lat="47.601434" lon="7.806809">
        <ele>367.661208</ele>
        <time>2021-11-13T15:10:55.067Z</time>
      </trkpt>
      <trkpt lat="47.601856" lon="7.807444">
        <ele>368.669981</ele>
        <time>2021-11-13T15:11:09.218Z</time>
      </trkpt>
      <trkpt lat="47.602242" lon="7.807771">
        <ele>370.126304</ele>
        <time>2021-11-13T15:11:20.735Z</time>
      </trkpt>
      <trkpt lat="47.602352" lon="7.807799">
        <ele>370.631391</ele>
        <time>2021-11-13T15:11:24.059Z</time>
      </trkpt>
      <trkpt lat="47.602603" lon="7.807841">
        <ele>371.774506</ele>
        <time>2021-11-13T15:11:31.040Z</time>
      </trkpt>
      <trkpt lat="47.603050" lon="7.808058">
        <ele>373.903033</ele>
        <time>2021-11-13T15:11:47.486Z</time>
      </trkpt>
      <trkpt lat="47.603664" lon="7.808428">
        <ele>376.902317</ele>
        <time>2021-11-13T15:12:11.351Z</time>
      </trkpt>
      <trkpt lat="47.603933" lon="7.808453">
        <ele>378.426630</ele>
        <time>2021-11-13T15:12:21.489Z</time>
      </trkpt>
      <trkpt lat="47.604147" lon="7.808404">
        <ele>379.709568</ele>
        <time>2021-11-13T15:12:31.508Z</time>
      </trkpt>
      <trkpt lat="47.604338" lon="7.808356">
        <ele>380.857345</ele>
        <time>2021-11-13T15:12:38.954Z</time>
      </trkpt>
      <trkpt lat="47.605468" lon="7.808045">
        <ele>387.666715</ele>
        <time>2021-11-13T15:13:23.199Z</time>
      </trkpt>
      <trkpt lat="47.605899" lon="7.808010">
        <ele>390.391029</ele>
        <time>2021-11-13T15:13:38.609Z</time>
      </trkpt>
      <trkpt lat="47.606698" lon="7.808066">
        <ele>395.455681</ele>
        <time>2021-11-13T15:14:09.620Z</time>
      </trkpt>
      <trkpt lat="47.607385" lon="7.807967">
        <ele>399.920997</ele>
        <time>2021-11-13T15:14:40.049Z</time>
      </trkpt>
      <trkpt lat="47.607595" lon="7.808039">
        <ele>401.487032</ele>
        <time>2021-11-13T15:14:49.515Z</time>
      </trkpt>
      <trkpt lat="47.607803" lon="7.808223">
        <ele>403.246675</ele>
        <time>2021-11-13T15:15:00.984Z</time>
      </trkpt>
      <trkpt lat="47.608602" lon="7.809088">
        <ele>410.433861</ele>
        <time>2021-11-13T15:15:45.342Z</time>
      </trkpt>
      <trkpt lat="47.609427" lon="7.809753">
        <ele>415.461618</ele>
        <time>2021-11-13T15:16:23.155Z</time>
      </trkpt>
      <trkpt lat="47.609797" lon="7.810201">
        <ele>417.687819</ele>
        <time>2021-11-13T15:16:39.451Z</time>
      </trkpt>
      <trkpt lat="47.610233" lon="7.810909">
        <ele>420.653625</ele>
        <time>2021-11-13T15:16:56.969Z</time>
      </trkpt>
      <trkpt lat="47.610772" lon="7.811907">
        <ele>421.824834</ele>
        <time>2021-11-13T15:17:15.283Z</time>
      </trkpt>
      <trkpt lat="47.611013" lon="7.812221">
        <ele>422.260618</ele>
        <time>2021-11-13T15:17:20.711Z</time>
      </trkpt>
      <trkpt lat="47.612313" lon="7.813004">
        <ele>424.442228</ele>
        <time>2021-11-13T15:17:45.897Z</time>
      </trkpt>
      <trkpt lat="47.612555" lon="7.813076">
        <ele>424.862352</ele>
        <time>2021-11-13T15:17:51.155Z</time>
      </trkpt>
      <trkpt lat="47.612810" lon="7.813060">
        <ele>425.296787</ele>
        <time>2021-11-13T15:17:57.040Z</time>
      </trkpt>
      <trkpt lat="47.613501" lon="7.812899">
        <ele>426.918048</ele>
        <time>2021-11-13T15:18:15.200Z</time>
      </trkpt>
      <trkpt lat="47.613621" lon="7.812859">
        <ele>427.386370</ele>
        <time>2021-11-13T15:18:18.637Z</time>
      </trkpt>
      <trkpt lat="47.613868" lon="7.812544">
        <ele>428.626673</ele>
        <time>2021-11-13T15:18:28.233Z</time>
      </trkpt>
      <trkpt lat="47.614051" lon="7.812407">
        <ele>429.407198</ele>
        <time>2021-11-13T15:18:34.605Z</time>
      </trkpt>
      <trkpt lat="47.614764" lon="7.812475">
        <ele>432.127721</ele>
        <time>2021-11-13T15:18:57.286Z</time>
      </trkpt>
      <trkpt lat="47.614932" lon="7.812637">
        <ele>432.890695</ele>
        <time>2021-11-13T15:19:03.428Z</time>
      </trkpt>
      <trkpt lat="47.615387" lon="7.813324">
        <ele>436.073606</ele>
        <time>2021-11-13T15:19:24.565Z</time>
      </trkpt>
      <trkpt lat="47.615645" lon="7.813447">
        <ele>437.414353</ele>
        <time>2021-11-13T15:19:33.645Z</time>
      </trkpt>
      <trkpt lat="47.615803" lon="7.813616">
        <ele>438.378062</ele>
        <time>2021-11-13T15:19:41.230Z</time>
      </trkpt>
      <trkpt lat="47.616224" lon="7.814793">
        <ele>442.884765</ele>
        <time>2021-11-13T15:20:12.965Z</time>
      </trkpt>
      <trkpt lat="47.616291" lon="7.814920">
        <ele>443.458810</ele>
        <time>2021-11-13T15:20:18.283Z</time>
      </trkpt>
      <trkpt lat="47.616368" lon="7.815112">
        <ele>444.254044</ele>
        <time>2021-11-13T15:20:23.138Z</time>
      </trkpt>
      <trkpt lat="47.616439" lon="7.815458">
        <ele>445.541440</ele>
        <time>2021-11-13T15:20:33.353Z</time>
      </trkpt>
      <trkpt lat="47.616582" lon="7.816196">
        <ele>448.274737</ele>
        <time>2021-11-13T15:20:50.977Z</time>
      </trkpt>
      <trkpt lat="47.616632" lon="7.816335">
        <ele>448.835547</ele>
        <time>2021-11-13T15:20:55.389Z</time>
      </trkpt>
      <trkpt lat="47.616707" lon="7.816445">
        <ele>449.392461</ele>
        <time>2021-11-13T15:20:59.807Z</time>
      </trkpt>
      <trkpt lat="47.617000" lon="7.816677">
        <ele>451.146233</ele>
        <time>2021-11-13T15:21:11.217Z</time>
      </trkpt>
      <trkpt lat="47.617243" lon="7.816840">
        <ele>452.373386</ele>
        <time>2021-11-13T15:21:19.104Z</time>
      </trkpt>
      <trkpt lat="47.617373" lon="7.816786">
        <ele>452.975922</ele>
        <time>2021-11-13T15:21:24.022Z</time>
      </trkpt>
      <trkpt lat="47.617466" lon="7.816748">
        <ele>453.406459</ele>
        <time>2021-11-13T15:21:26.544Z</time>
      </trkpt>
      <trkpt lat="47.617591" lon="7.816685">
        <ele>453.995680</ele>
        <time>2021-11-13T15:21:30.756Z</time>
      </trkpt>
      <trkpt lat="47.617645" lon="7.816658">
        <ele>454.250016</ele>
        <time>2021-11-13T15:21:32.853Z</time>
      </trkpt>
      <trkpt lat="47.617819" lon="7.816612">
        <ele>455.038853</ele>
        <time>2021-11-13T15:21:38.230Z</time>
      </trkpt>
      <trkpt lat="47.618026" lon="7.816656">
        <ele>455.972177</ele>
        <time>2021-11-13T15:21:45.700Z</time>
      </trkpt>
      <trkpt lat="47.618567" lon="7.816927">
        <ele>458.520717</ele>
        <time>2021-11-13T15:22:03.613Z</time>
      </trkpt>
      <trkpt lat="47.618674" lon="7.816980">
        <ele>459.024199</ele>
        <time>2021-11-13T15:22:07.551Z</time>
      </trkpt>
      <trkpt lat="47.618799" lon="7.817081">
        <ele>459.537622</ele>
        <time>2021-11-13T15:22:12.625Z</time>
      </trkpt>
      <trkpt lat="47.619023" lon="7.817353">
        <ele>460.192844</ele>
        <time>2021-11-13T15:22:22.173Z</time>
      </trkpt>
      <trkpt lat="47.619222" lon="7.817606">
        <ele>460.786064</ele>
        <time>2021-11-13T15:22:29.473Z</time>
      </trkpt>
      <trkpt lat="47.619286" lon="7.817698">
        <ele>460.987782</ele>
        <time>2021-11-13T15:22:32.517Z</time>
      </trkpt>
      <trkpt lat="47.619369" lon="7.817884">
        <ele>461.328125</ele>
        <time>2021-11-13T15:22:36.434Z</time>
      </trkpt>
      <trkpt lat="47.619414" lon="7.817980">
        <ele>461.506533</ele>
        <time>2021-11-13T15:22:37.923Z</time>
      </trkpt>
      <trkpt lat="47.619455" lon="7.818047">
        <ele>461.644601</ele>
        <time>2021-11-13T15:22:39.110Z</time>
      </trkpt>
      <trkpt lat="47.619481" lon="7.818077">
        <ele>461.719158</ele>
        <time>2021-11-13T15:22:40.627Z</time>
      </trkpt>
      <trkpt lat="47.619880" lon="7.818346">
        <ele>462.711196</ele>
        <time>2021-11-13T15:22:48.479Z</time>
      </trkpt>
      <trkpt lat="47.619948" lon="7.818387">
        <ele>462.877343</ele>
        <time>2021-11-13T15:22:50.424Z</time>
      </trkpt>
      <trkpt lat="47.619983" lon="7.818525">
        <ele>463.102306</ele>
        <time>2021-11-13T15:22:51.620Z</time>
      </trkpt>
      <trkpt lat="47.620052" lon="7.818861">
        <ele>463.522107</ele>
        <time>2021-11-13T15:22:55.168Z</time>
      </trkpt>
      <trkpt lat="47.620091" lon="7.818898">
        <ele>463.548235</ele>
        <time>2021-11-13T15:22:56.008Z</time>
      </trkpt>
      <trkpt lat="47.619931" lon="7.819155">
        <ele>463.681334</ele>
        <time>2021-11-13T15:23:00.294Z</time>
      </trkpt>
      <trkpt lat="47.619739" lon="7.819464">
        <ele>463.841220</ele>
        <time>2021-11-13T15:23:05.822Z</time>
      </trkpt>
      <trkpt lat="47.619563" lon="7.819774">
        <ele>463.995420</ele>
        <time>2021-11-13T15:23:11.814Z</time>
      </trkpt>
      <trkpt lat="47.619503" lon="7.819903">
        <ele>464.055048</ele>
        <time>2021-11-13T15:23:14.598Z</time>
      </trkpt>
      <trkpt lat="47.619480" lon="7.819969">
        <ele>464.083315</ele>
        <time>2021-11-13T15:23:15.319Z</time>
      </trkpt>
      <trkpt lat="47.619471" lon="7.819998">
        <ele>464.095461</ele>
        <time>2021-11-13T15:23:15.634Z</time>
      </trkpt>
      <trkpt lat="47.619452" lon="7.820110">
        <ele>464.139400</ele>
        <time>2021-11-13T15:23:17.759Z</time>
      </trkpt>
      <trkpt lat="47.619453" lon="7.820217">
        <ele>464.180112</ele>
        <time>2021-11-13T15:23:19.218Z</time>
      </trkpt>
      <trkpt lat="47.619523" lon="7.820339">
        <ele>464.241065</ele>
        <time>2021-11-13T15:23:22.378Z</time>
      </trkpt>
      <trkpt lat="47.619615" lon="7.820500">
        <ele>464.321366</ele>
        <time>2021-11-13T15:23:24.668Z</time>
      </trkpt>
      <trkpt lat="47.619700" lon="7.820678">
        <ele>464.404357</ele>
        <time>2021-11-13T15:23:27.867Z</time>
      </trkpt>
      <trkpt lat="47.619748" lon="7.820814">
        <ele>464.462762</ele>
        <time>2021-11-13T15:23:30.717Z</time>
      </trkpt>
      <trkpt lat="47.619831" lon="7.821041">
        <ele>465.047492</ele>
        <time>2021-11-13T15:23:34.593Z</time>
      </trkpt>
      <trkpt lat="47.619886" lon="7.821190">
        <ele>465.616940</ele>
        <time>2021-11-13T15:23:38.898Z</time>
      </trkpt>
      <trkpt lat="47.619921" lon="7.821263">
        <ele>465.917230</ele>
        <time>2021-11-13T15:23:40.643Z</time>
      </trkpt>
      <trkpt lat="47.619956" lon="7.821295">
        <ele>466.121685</ele>
        <time>2021-11-13T15:23:41.493Z</time>
      </trkpt>
      <trkpt lat="47.620094" lon="7.821351">
        <ele>466.833176</ele>
        <time>2021-11-13T15:23:45.715Z</time>
      </trkpt>
      <trkpt lat="47.620115" lon="7.821360">
        <ele>466.941880</ele>
        <time>2021-11-13T15:23:46.757Z</time>
      </trkpt>
      <trkpt lat="47.620142" lon="7.821371">
        <ele>467.081124</ele>
        <time>2021-11-13T15:23:47.536Z</time>
      </trkpt>
      <trkpt lat="47.620205" lon="7.821419">
        <ele>467.433326</ele>
        <time>2021-11-13T15:23:50.920Z</time>
      </trkpt>
      <trkpt lat="47.620375" lon="7.821867">
        <ele>469.156661</ele>
        <time>2021-11-13T15:24:05.146Z</time>
      </trkpt>
      <trkpt lat="47.620423" lon="7.822679">
        <ele>471.888961</ele>
        <time>2021-11-13T15:24:31.779Z</time>
      </trkpt>
      <trkpt lat="47.620415" lon="7.822781">
        <ele>472.233175</ele>
        <time>2021-11-13T15:24:36.057Z</time>
      </trkpt>
      <trkpt lat="47.620379" lon="7.822890">
        <ele>472.640052</ele>
        <time>2021-11-13T15:24:40.527Z</time>
      </trkpt>
      <trkpt lat="47.620145" lon="7.823390">
        <ele>474.359860</ele>
        <time>2021-11-13T15:25:00.053Z</time>
      </trkpt>
      <trkpt lat="47.620313" lon="7.823927">
        <ele>475.830017</ele>
        <time>2021-11-13T15:25:15.315Z</time>
      </trkpt>
      <trkpt lat="47.620426" lon="7.824361">
        <ele>476.985369</ele>
        <time>2021-11-13T15:25:27.154Z</time>
      </trkpt>
      <trkpt lat="47.620535" lon="7.825147">
        <ele>478.978098</ele>
        <time>2021-11-13T15:25:44.037Z</time>
      </trkpt>
      <trkpt lat="47.620532" lon="7.825491">
        <ele>479.832413</ele>
        <time>2021-11-13T15:25:49.999Z</time>
      </trkpt>
      <trkpt lat="47.620280" lon="7.825972">
        <ele>479.529109</ele>
        <time>2021-11-13T15:25:59.070Z</time>
      </trkpt>
      <trkpt lat="47.620239" lon="7.826424">
        <ele>479.048770</ele>
        <time>2021-11-13T15:26:04.359Z</time>
      </trkpt>
      <trkpt lat="47.620417" lon="7.827360">
        <ele>478.024491</ele>
        <time>2021-11-13T15:26:14.221Z</time>
      </trkpt>
      <trkpt lat="47.620592" lon="7.827866">
        <ele>477.425516</ele>
        <time>2021-11-13T15:26:19.935Z</time>
      </trkpt>
      <trkpt lat="47.621216" lon="7.829246">
        <ele>474.468689</ele>
        <time>2021-11-13T15:26:36.589Z</time>
      </trkpt>
      <trkpt lat="47.621534" lon="7.829734">
        <ele>473.209306</ele>
        <time>2021-11-13T15:26:43.464Z</time>
      </trkpt>
      <trkpt lat="47.621427" lon="7.829933">
        <ele>472.736996</ele>
        <time>2021-11-13T15:26:45.276Z</time>
      </trkpt>
      <trkpt lat="47.621202" lon="7.830405">
        <ele>471.671786</ele>
        <time>2021-11-13T15:26:49.375Z</time>
      </trkpt>
      <trkpt lat="47.619543" lon="7.832548">
        <ele>465.286001</ele>
        <time>2021-11-13T15:27:12.258Z</time>
      </trkpt>
      <trkpt lat="47.618883" lon="7.833744">
        <ele>461.794229</ele>
        <time>2021-11-13T15:27:22.599Z</time>
      </trkpt>
      <trkpt lat="47.618582" lon="7.834417">
        <ele>459.787901</ele>
        <time>2021-11-13T15:27:27.938Z</time>
      </trkpt>
      <trkpt lat="47.618319" lon="7.834959">
        <ele>458.085677</ele>
        <time>2021-11-13T15:27:32.355Z</time>
      </trkpt>
      <trkpt lat="47.617841" lon="7.835706">
        <ele>455.460342</ele>
        <time>2021-11-13T15:27:39.167Z</time>
      </trkpt>
      <trkpt lat="47.617290" lon="7.837217">
        <ele>451.529810</ele>
        <time>2021-11-13T15:27:50.799Z</time>
      </trkpt>
      <trkpt lat="47.616796" lon="7.838812">
        <ele>447.549784</ele>
        <time>2021-11-13T15:28:02.837Z</time>
      </trkpt>
      <trkpt lat="47.616766" lon="7.839183">
        <ele>446.655745</ele>
        <time>2021-11-13T15:28:05.414Z</time>
      </trkpt>
      <trkpt lat="47.617103" lon="7.841209">
        <ele>441.486878</ele>
        <time>2021-11-13T15:28:19.340Z</time>
      </trkpt>
      <trkpt lat="47.617228" lon="7.842570">
        <ele>437.247677</ele>
        <time>2021-11-13T15:28:28.179Z</time>
      </trkpt>
      <trkpt lat="47.617368" lon="7.843216">
        <ele>435.153456</ele>
        <time>2021-11-13T15:28:32.458Z</time>
      </trkpt>
      <trkpt lat="47.617607" lon="7.843840">
        <ele>433.193617</ele>
        <time>2021-11-13T15:28:37.040Z</time>
      </trkpt>
      <trkpt lat="47.617988" lon="7.844483">
        <ele>431.166373</ele>
        <time>2021-11-13T15:28:42.654Z</time>
      </trkpt>
      <trkpt lat="47.618134" lon="7.844973">
        <ele>429.897770</ele>
        <time>2021-11-13T15:28:46.293Z</time>
      </trkpt>
      <trkpt lat="47.618223" lon="7.845325">
        <ele>429.007542</ele>
        <time>2021-11-13T15:28:48.934Z</time>
      </trkpt>
      <trkpt lat="47.618233" lon="7.846599">
        <ele>426.605869</ele>
        <time>2021-11-13T15:28:58.123Z</time>
      </trkpt>
      <trkpt lat="47.617998" lon="7.847811">
        <ele>424.684311</ele>
        <time>2021-11-13T15:29:07.700Z</time>
      </trkpt>
      <trkpt lat="47.617988" lon="7.848055">
        <ele>424.311851</ele>
        <time>2021-11-13T15:29:09.563Z</time>
      </trkpt>
      <trkpt lat="47.618004" lon="7.848291">
        <ele>423.950452</ele>
        <time>2021-11-13T15:29:11.251Z</time>
      </trkpt>
      <trkpt lat="47.618035" lon="7.849984">
        <ele>419.342684</ele>
        <time>2021-11-13T15:29:22.738Z</time>
      </trkpt>
      <trkpt lat="47.618006" lon="7.850183">
        <ele>418.756728</ele>
        <time>2021-11-13T15:29:24.044Z</time>
      </trkpt>
      <trkpt lat="47.617527" lon="7.851427">
        <ele>413.503766</ele>
        <time>2021-11-13T15:29:32.995Z</time>
      </trkpt>
      <trkpt lat="47.617505" lon="7.852663">
        <ele>406.939792</ele>
        <time>2021-11-13T15:29:40.338Z</time>
      </trkpt>
      <trkpt lat="47.617401" lon="7.852985">
        <ele>405.044257</ele>
        <time>2021-11-13T15:29:42.426Z</time>
      </trkpt>
      <trkpt lat="47.617174" lon="7.853374">
        <ele>402.312786</ele>
        <time>2021-11-13T15:29:45.442Z</time>
      </trkpt>
      <trkpt lat="47.617121" lon="7.853582">
        <ele>401.169340</ele>
        <time>2021-11-13T15:29:46.750Z</time>
      </trkpt>
      <trkpt lat="47.616902" lon="7.854158">
        <ele>397.851751</ele>
        <time>2021-11-13T15:29:50.654Z</time>
      </trkpt>
      <trkpt lat="47.616532" lon="7.854834">
        <ele>393.483274</ele>
        <time>2021-11-13T15:29:58.019Z</time>
      </trkpt>
      <trkpt lat="47.615834" lon="7.855623">
        <ele>387.758219</ele>
        <time>2021-11-13T15:30:09.402Z</time>
      </trkpt>
      <trkpt lat="47.615482" lon="7.855744">
        <ele>386.546056</ele>
        <time>2021-11-13T15:30:14.588Z</time>
      </trkpt>
      <trkpt lat="47.615405" lon="7.855848">
        <ele>386.196710</ele>
        <time>2021-11-13T15:30:16.094Z</time>
      </trkpt>
      <trkpt lat="47.615230" lon="7.856082">
        <ele>385.406332</ele>
        <time>2021-11-13T15:30:19.651Z</time>
      </trkpt>
      <trkpt lat="47.615591" lon="7.856559">
        <ele>383.784509</ele>
        <time>2021-11-13T15:30:27.098Z</time>
      </trkpt>
      <trkpt lat="47.615844" lon="7.856900">
        <ele>382.637750</ele>
        <time>2021-11-13T15:30:32.392Z</time>
      </trkpt>
      <trkpt lat="47.615613" lon="7.857102">
        <ele>381.967008</ele>
        <time>2021-11-13T15:30:35.226Z</time>
      </trkpt>
      <trkpt lat="47.615475" lon="7.857323">
        <ele>381.526540</ele>
        <time>2021-11-13T15:30:37.392Z</time>
      </trkpt>
      <trkpt lat="47.615118" lon="7.857895">
        <ele>380.386760</ele>
        <time>2021-11-13T15:30:43.269Z</time>
      </trkpt>
      <trkpt lat="47.614688" lon="7.858653">
        <ele>378.938215</ele>
        <time>2021-11-13T15:30:50.583Z</time>
      </trkpt>
      <trkpt lat="47.614583" lon="7.858866">
        <ele>378.552383</ele>
        <time>2021-11-13T15:30:52.384Z</time>
      </trkpt>
      <trkpt lat="47.614286" lon="7.859741">
        <ele>377.095134</ele>
        <time>2021-11-13T15:30:59.417Z</time>
      </trkpt>
      <trkpt lat="47.614015" lon="7.860305">
        <ele>376.063996</ele>
        <time>2021-11-13T15:31:04.353Z</time>
      </trkpt>
      <trkpt lat="47.613795" lon="7.860645">
        <ele>375.362362</ele>
        <time>2021-11-13T15:31:07.740Z</time>
      </trkpt>
      <trkpt lat="47.613709" lon="7.860779">
        <ele>375.086913</ele>
        <time>2021-11-13T15:31:09.181Z</time>
      </trkpt>
      <trkpt lat="47.613477" lon="7.861090">
        <ele>374.428721</ele>
        <time>2021-11-13T15:31:12.755Z</time>
      </trkpt>
      <trkpt lat="47.613247" lon="7.861408">
        <ele>373.928749</ele>
        <time>2021-11-13T15:31:16.364Z</time>
      </trkpt>
      <trkpt lat="47.613183" lon="7.861517">
        <ele>373.773796</ele>
        <time>2021-11-13T15:31:17.478Z</time>
      </trkpt>
      <trkpt lat="47.613099" lon="7.861661">
        <ele>373.569661</ele>
        <time>2021-11-13T15:31:18.891Z</time>
      </trkpt>
      <trkpt lat="47.611814" lon="7.864344">
        <ele>369.205094</ele>
        <time>2021-11-13T15:31:44.411Z</time>
      </trkpt>
      <trkpt lat="47.611380" lon="7.864872">
        <ele>367.848925</ele>
        <time>2021-11-13T15:31:50.148Z</time>
      </trkpt>
      <trkpt lat="47.610539" lon="7.865746">
        <ele>363.940035</ele>
        <time>2021-11-13T15:32:00.093Z</time>
      </trkpt>
      <trkpt lat="47.609971" lon="7.866486">
        <ele>360.767915</ele>
        <time>2021-11-13T15:32:07.296Z</time>
      </trkpt>
      <trkpt lat="47.608371" lon="7.868821">
        <ele>351.626769</ele>
        <time>2021-11-13T15:32:29.351Z</time>
      </trkpt>
      <trkpt lat="47.608074" lon="7.869176">
        <ele>349.776788</ele>
        <time>2021-11-13T15:32:33.020Z</time>
      </trkpt>
      <trkpt lat="47.607911" lon="7.869279">
        <ele>348.917476</ele>
        <time>2021-11-13T15:32:34.741Z</time>
      </trkpt>
      <trkpt lat="47.607848" lon="7.869319">
        <ele>348.585104</ele>
        <time>2021-11-13T15:32:35.365Z</time>
      </trkpt>
      <trkpt lat="47.607466" lon="7.869418">
        <ele>346.704313</ele>
        <time>2021-11-13T15:32:38.996Z</time>
      </trkpt>
      <trkpt lat="47.607341" lon="7.869436">
        <ele>346.095206</ele>
        <time>2021-11-13T15:32:40.159Z</time>
      </trkpt>
      <trkpt lat="47.607251" lon="7.869449">
        <ele>345.656636</ele>
        <time>2021-11-13T15:32:40.993Z</time>
      </trkpt>
      <trkpt lat="47.606761" lon="7.869665">
        <ele>343.382974</ele>
        <time>2021-11-13T15:32:45.779Z</time>
      </trkpt>
      <trkpt lat="47.606461" lon="7.869656">
        <ele>342.341779</ele>
        <time>2021-11-13T15:32:48.592Z</time>
      </trkpt>
      <trkpt lat="47.606292" lon="7.869632">
        <ele>341.752677</ele>
        <time>2021-11-13T15:32:50.148Z</time>
      </trkpt>
      <trkpt lat="47.605878" lon="7.869549">
        <ele>340.303057</ele>
        <time>2021-11-13T15:32:54.156Z</time>
      </trkpt>
      <trkpt lat="47.605451" lon="7.869487">
        <ele>338.814309</ele>
        <time>2021-11-13T15:32:58.778Z</time>
      </trkpt>
      <trkpt lat="47.605251" lon="7.869499">
        <ele>338.119753</ele>
        <time>2021-11-13T15:33:00.898Z</time>
      </trkpt>
      <trkpt lat="47.605151" lon="7.869535">
        <ele>337.762683</ele>
        <time>2021-11-13T15:33:02.187Z</time>
      </trkpt>
      <trkpt lat="47.604178" lon="7.870272">
        <ele>338.199407</ele>
        <time>2021-11-13T15:33:20.181Z</time>
      </trkpt>
      <trkpt lat="47.603441" lon="7.870715">
        <ele>338.545721</ele>
        <time>2021-11-13T15:33:36.774Z</time>
      </trkpt>
      <trkpt lat="47.603243" lon="7.870755">
        <ele>338.450437</ele>
        <time>2021-11-13T15:33:40.822Z</time>
      </trkpt>
      <trkpt lat="47.602981" lon="7.870758">
        <ele>338.325504</ele>
        <time>2021-11-13T15:33:45.153Z</time>
      </trkpt>
      <trkpt lat="47.602723" lon="7.870667">
        <ele>338.199051</ele>
        <time>2021-11-13T15:33:49.336Z</time>
      </trkpt>
      <trkpt lat="47.602649" lon="7.870651">
        <ele>338.163393</ele>
        <time>2021-11-13T15:33:50.352Z</time>
      </trkpt>
      <trkpt lat="47.602070" lon="7.870289">
        <ele>337.863779</ele>
        <time>2021-11-13T15:33:58.439Z</time>
      </trkpt>
      <trkpt lat="47.600522" lon="7.868445">
        <ele>333.469683</ele>
        <time>2021-11-13T15:34:19.033Z</time>
      </trkpt>
      <trkpt lat="47.600376" lon="7.868280">
        <ele>333.122299</ele>
        <time>2021-11-13T15:34:20.921Z</time>
      </trkpt>
      <trkpt lat="47.599705" lon="7.867526">
        <ele>332.609827</ele>
        <time>2021-11-13T15:34:30.764Z</time>
      </trkpt>
      <trkpt lat="47.598844" lon="7.866669">
        <ele>332.098536</ele>
        <time>2021-11-13T15:34:47.834Z</time>
      </trkpt>
      <trkpt lat="47.598366" lon="7.866463">
        <ele>332.218030</ele>
        <time>2021-11-13T15:34:57.538Z</time>
      </trkpt>
      <trkpt lat="47.597848" lon="7.866506">
        <ele>332.342574</ele>
        <time>2021-11-13T15:35:06.793Z</time>
      </trkpt>
      <trkpt lat="47.596934" lon="7.867028">
        <ele>331.650515</ele>
        <time>2021-11-13T15:35:20.176Z</time>
      </trkpt>
      <trkpt lat="47.596649" lon="7.867104">
        <ele>330.927306</ele>
        <time>2021-11-13T15:35:23.340Z</time>
      </trkpt>
      <trkpt lat="47.596216" lon="7.866990">
        <ele>329.828971</ele>
        <time>2021-11-13T15:35:27.642Z</time>
      </trkpt>
      <trkpt lat="47.595529" lon="7.866433">
        <ele>327.820084</ele>
        <time>2021-11-13T15:35:35.523Z</time>
      </trkpt>
      <trkpt lat="47.595188" lon="7.866380">
        <ele>326.614225</ele>
        <time>2021-11-13T15:35:39.171Z</time>
      </trkpt>
      <trkpt lat="47.594961" lon="7.866424">
        <ele>325.809079</ele>
        <time>2021-11-13T15:35:41.440Z</time>
      </trkpt>
      <trkpt lat="47.594779" lon="7.866515">
        <ele>325.133581</ele>
        <time>2021-11-13T15:35:43.786Z</time>
      </trkpt>
      <trkpt lat="47.594420" lon="7.866749">
        <ele>323.754393</ele>
        <time>2021-11-13T15:35:47.907Z</time>
      </trkpt>
      <trkpt lat="47.594096" lon="7.866777">
        <ele>322.612958</ele>
        <time>2021-11-13T15:35:51.176Z</time>
      </trkpt>
      <trkpt lat="47.593941" lon="7.866752">
        <ele>322.064611</ele>
        <time>2021-11-13T15:35:52.590Z</time>
      </trkpt>
      <trkpt lat="47.593497" lon="7.866682">
        <ele>318.738233</ele>
        <time>2021-11-13T15:35:56.675Z</time>
      </trkpt>
      <trkpt lat="47.593114" lon="7.866603">
        <ele>315.361558</ele>
        <time>2021-11-13T15:36:00.184Z</time>
      </trkpt>
      <trkpt lat="47.592687" lon="7.866538">
        <ele>311.613268</ele>
        <time>2021-11-13T15:36:03.916Z</time>
      </trkpt>
      <trkpt lat="47.592389" lon="7.866483">
        <ele>308.990962</ele>
        <time>2021-11-13T15:36:06.490Z</time>
      </trkpt>
      <trkpt lat="47.592194" lon="7.866446">
        <ele>307.274278</ele>
        <time>2021-11-13T15:36:08.136Z</time>
      </trkpt>
      <trkpt lat="47.591755" lon="7.866378">
        <ele>303.435568</ele>
        <time>2021-11-13T15:36:11.875Z</time>
      </trkpt>
      <trkpt lat="47.591538" lon="7.866361">
        <ele>301.549637</ele>
        <time>2021-11-13T15:36:13.705Z</time>
      </trkpt>
      <trkpt lat="47.591332" lon="7.866357">
        <ele>299.761646</ele>
        <time>2021-11-13T15:36:15.483Z</time>
      </trkpt>
      <trkpt lat="47.591128" lon="7.866362">
        <ele>297.990924</ele>
        <time>2021-11-13T15:36:17.206Z</time>
      </trkpt>
      <trkpt lat="47.590822" lon="7.866391">
        <ele>295.329785</ele>
        <time>2021-11-13T15:36:19.876Z</time>
      </trkpt>
      <trkpt lat="47.590725" lon="7.865793">
        <ele>291.729767</ele>
        <time>2021-11-13T15:36:23.703Z</time>
      </trkpt>
      <trkpt lat="47.590711" lon="7.865706">
        <ele>291.206245</ele>
        <time>2021-11-13T15:36:24.319Z</time>
      </trkpt>
      <trkpt lat="47.590697" lon="7.865616">
        <ele>290.665627</ele>
        <time>2021-11-13T15:36:24.939Z</time>
      </trkpt>
      <trkpt lat="47.590641" lon="7.865166">
        <ele>290.083913</ele>
        <time>2021-11-13T15:36:28.046Z</time>
      </trkpt>
      <trkpt lat="47.590547" lon="7.864188">
        <ele>289.406675</ele>
        <time>2021-11-13T15:36:36.112Z</time>
      </trkpt>
      <trkpt lat="47.590529" lon="7.863327">
        <ele>288.816136</ele>
        <time>2021-11-13T15:36:46.167Z</time>
      </trkpt>
      <trkpt lat="47.590535" lon="7.862855">
        <ele>288.554848</ele>
        <time>2021-11-13T15:36:51.837Z</time>
      </trkpt>
      <trkpt lat="47.590556" lon="7.861868">
        <ele>288.900945</ele>
        <time>2021-11-13T15:37:02.990Z</time>
      </trkpt>
      <trkpt lat="47.590583" lon="7.860850">
        <ele>289.258011</ele>
        <time>2021-11-13T15:37:14.471Z</time>
      </trkpt>
      <trkpt lat="47.590588" lon="7.860647">
        <ele>289.329206</ele>
        <time>2021-11-13T15:37:16.942Z</time>
      </trkpt>
      <trkpt lat="47.590611" lon="7.859435">
        <ele>289.566624</ele>
        <time>2021-11-13T15:37:30.495Z</time>
      </trkpt>
      <trkpt lat="47.590610" lon="7.858648">
        <ele>289.661394</ele>
        <time>2021-11-13T15:37:38.856Z</time>
      </trkpt>
      <trkpt lat="47.590607" lon="7.858460">
        <ele>289.684039</ele>
        <time>2021-11-13T15:37:40.925Z</time>
      </trkpt>
      <trkpt lat="47.590561" lon="7.857127">
        <ele>289.650284</ele>
        <time>2021-11-13T15:37:53.824Z</time>
      </trkpt>
      <trkpt lat="47.590520" lon="7.855958">
        <ele>289.294178</ele>
        <time>2021-11-13T15:38:04.210Z</time>
      </trkpt>
      <trkpt lat="47.590424" lon="7.854393">
        <ele>288.958949</ele>
        <time>2021-11-13T15:38:17.958Z</time>
      </trkpt>
      <trkpt lat="47.590357" lon="7.853304">
        <ele>288.919259</ele>
        <time>2021-11-13T15:38:28.534Z</time>
      </trkpt>
      <trkpt lat="47.590329" lon="7.852851">
        <ele>288.902748</ele>
        <time>2021-11-13T15:38:33.332Z</time>
      </trkpt>
      <trkpt lat="47.590057" lon="7.850113">
        <ele>289.461802</ele>
        <time>2021-11-13T15:39:04.316Z</time>
      </trkpt>
      <trkpt lat="47.590017" lon="7.849859">
        <ele>289.531165</ele>
        <time>2021-11-13T15:39:07.167Z</time>
      </trkpt>
      <trkpt lat="47.589928" lon="7.849282">
        <ele>289.640145</ele>
        <time>2021-11-13T15:39:13.605Z</time>
      </trkpt>
      <trkpt lat="47.589635" lon="7.847510">
        <ele>289.885236</ele>
        <time>2021-11-13T15:39:32.926Z</time>
      </trkpt>
      <trkpt lat="47.589339" lon="7.845650">
        <ele>290.126885</ele>
        <time>2021-11-13T15:39:52.462Z</time>
      </trkpt>
      <trkpt lat="47.589208" lon="7.844692">
        <ele>290.247939</ele>
        <time>2021-11-13T15:40:02.629Z</time>
      </trkpt>
      <trkpt lat="47.589148" lon="7.843298">
        <ele>290.582292</ele>
        <time>2021-11-13T15:40:17.797Z</time>
      </trkpt>
      <trkpt lat="47.589148" lon="7.842161">
        <ele>290.883466</ele>
        <time>2021-11-13T15:40:30.689Z</time>
      </trkpt>
      <trkpt lat="47.589170" lon="7.841656">
        <ele>291.021390</ele>
        <time>2021-11-13T15:40:36.520Z</time>
      </trkpt>
      <trkpt lat="47.589184" lon="7.841335">
        <ele>291.116968</ele>
        <time>2021-11-13T15:40:40.226Z</time>
      </trkpt>
      <trkpt lat="47.589403" lon="7.839556">
        <ele>291.654295</ele>
        <time>2021-11-13T15:41:00.466Z</time>
      </trkpt>
      <trkpt lat="47.589698" lon="7.838226">
        <ele>291.765344</ele>
        <time>2021-11-13T15:41:15.618Z</time>
      </trkpt>
      <trkpt lat="47.589864" lon="7.837623">
        <ele>291.756927</ele>
        <time>2021-11-13T15:41:22.692Z</time>
      </trkpt>
      <trkpt lat="47.589926" lon="7.837360">
        <ele>291.753326</ele>
        <time>2021-11-13T15:41:25.562Z</time>
      </trkpt>
      <trkpt lat="47.590035" lon="7.836926">
        <ele>291.747341</ele>
        <time>2021-11-13T15:41:29.912Z</time>
      </trkpt>
      <trkpt lat="47.590062" lon="7.836819">
        <ele>291.745864</ele>
        <time>2021-11-13T15:41:30.936Z</time>
      </trkpt>
      <trkpt lat="47.590166" lon="7.836338">
        <ele>291.238692</ele>
        <time>2021-11-13T15:41:35.330Z</time>
      </trkpt>
      <trkpt lat="47.590263" lon="7.835856">
        <ele>290.466866</ele>
        <time>2021-11-13T15:41:39.344Z</time>
      </trkpt>
      <trkpt lat="47.589181" lon="7.835983">
        <ele>287.997426</ele>
        <time>2021-11-13T15:41:50.667Z</time>
      </trkpt>
      <trkpt lat="47.588272" lon="7.836090">
        <ele>285.233043</ele>
        <time>2021-11-13T15:41:59.639Z</time>
      </trkpt>
      <trkpt lat="47.587903" lon="7.836007">
        <ele>284.045069</ele>
        <time>2021-11-13T15:42:03.336Z</time>
      </trkpt>
      <trkpt lat="47.587628" lon="7.835942">
        <ele>283.158685</ele>
        <time>2021-11-13T15:42:06.151Z</time>
      </trkpt>
      <trkpt lat="47.587848" lon="7.834235">
        <ele>281.063945</ele>
        <time>2021-11-13T15:42:18.790Z</time>
      </trkpt>
      <trkpt lat="47.586496" lon="7.833050">
        <ele>280.823232</ele>
        <time>2021-11-13T15:42:41.103Z</time>
      </trkpt>
      <trkpt lat="47.586276" lon="7.833601">
        <ele>281.500185</ele>
        <time>2021-11-13T15:42:49.356Z</time>
      </trkpt>
      <trkpt lat="47.585278" lon="7.832688">
        <ele>284.197874</ele>
        <time>2021-11-13T15:43:20.760Z</time>
      </trkpt>
      <trkpt lat="47.585247" lon="7.832651">
        <ele>284.354539</ele>
        <time>2021-11-13T15:43:22.042Z</time>
      </trkpt>
      <trkpt lat="47.585195" lon="7.832588">
        <ele>284.618896</ele>
        <time>2021-11-13T15:43:24.259Z</time>
      </trkpt>
      <trkpt lat="47.585027" lon="7.832425">
        <ele>285.409270</ele>
        <time>2021-11-13T15:43:29.821Z</time>
      </trkpt>
      <trkpt lat="47.584717" lon="7.832264">
        <ele>286.702318</ele>
        <time>2021-11-13T15:43:39.468Z</time>
      </trkpt>
      <trkpt lat="47.584367" lon="7.832247">
        <ele>288.080860</ele>
        <time>2021-11-13T15:43:50.539Z</time>
      </trkpt>
      <trkpt lat="47.584156" lon="7.832334">
        <ele>288.943003</ele>
        <time>2021-11-13T15:43:58.152Z</time>
      </trkpt>
      <trkpt lat="47.584029" lon="7.832543">
        <ele>289.689938</ele>
        <time>2021-11-13T15:44:05.025Z</time>
      </trkpt>
      <trkpt lat="47.583989" lon="7.832619">
        <ele>289.932160</ele>
        <time>2021-11-13T15:44:07.121Z</time>
      </trkpt>
      <trkpt lat="47.583849" lon="7.832883">
        <ele>290.695825</ele>
        <time>2021-11-13T15:44:15.311Z</time>
      </trkpt>
      <trkpt lat="47.583825" lon="7.832927">
        <ele>290.824504</ele>
        <time>2021-11-13T15:44:17.048Z</time>
      </trkpt>
      <trkpt lat="47.583696" lon="7.833171">
        <ele>291.529498</ele>
        <time>2021-11-13T15:44:23.980Z</time>
      </trkpt>
      <trkpt lat="47.583523" lon="7.833509">
        <ele>292.494359</ele>
        <time>2021-11-13T15:44:32.458Z</time>
      </trkpt>
      <trkpt lat="47.583401" lon="7.833658">
        <ele>293.027257</ele>
        <time>2021-11-13T15:44:36.340Z</time>
      </trkpt>
      <trkpt lat="47.583327" lon="7.833750">
        <ele>293.352849</ele>
        <time>2021-11-13T15:44:39.578Z</time>
      </trkpt>
      <trkpt lat="47.583163" lon="7.833942">
        <ele>294.057361</ele>
        <time>2021-11-13T15:44:44.941Z</time>
      </trkpt>
      <trkpt lat="47.582828" lon="7.834117">
        <ele>295.254831</ele>
        <time>2021-11-13T15:44:53.387Z</time>
      </trkpt>
      <trkpt lat="47.580816" lon="7.834599">
        <ele>298.690020</ele>
        <time>2021-11-13T15:45:37.295Z</time>
      </trkpt>
      <trkpt lat="47.580667" lon="7.834627">
        <ele>298.698930</ele>
        <time>2021-11-13T15:45:39.677Z</time>
      </trkpt>
      <trkpt lat="47.579073" lon="7.834987">
        <ele>298.784617</ele>
        <time>2021-11-13T15:46:03.637Z</time>
      </trkpt>
      <trkpt lat="47.576219" lon="7.835650">
        <ele>295.434118</ele>
        <time>2021-11-13T15:46:37.298Z</time>
      </trkpt>
      <trkpt lat="47.575959" lon="7.835718">
        <ele>295.148884</ele>
        <time>2021-11-13T15:46:40.453Z</time>
      </trkpt>
      <trkpt lat="47.575033" lon="7.835907">
        <ele>294.693039</ele>
        <time>2021-11-13T15:46:52.907Z</time>
      </trkpt>
      <trkpt lat="47.574568" lon="7.836025">
        <ele>294.708023</ele>
        <time>2021-11-13T15:46:59.893Z</time>
      </trkpt>
      <trkpt lat="47.574158" lon="7.836106">
        <ele>294.721160</ele>
        <time>2021-11-13T15:47:06.566Z</time>
      </trkpt>
      <trkpt lat="47.573815" lon="7.836215">
        <ele>294.732302</ele>
        <time>2021-11-13T15:47:14.246Z</time>
      </trkpt>
      <trkpt lat="47.573348" lon="7.836386">
        <ele>294.943514</ele>
        <time>2021-11-13T15:47:25.098Z</time>
      </trkpt>
      <trkpt lat="47.572760" lon="7.836606">
        <ele>295.247904</ele>
        <time>2021-11-13T15:47:38.708Z</time>
      </trkpt>
      <trkpt lat="47.572296" lon="7.836777">
        <ele>295.487889</ele>
        <time>2021-11-13T15:47:49.134Z</time>
      </trkpt>
      <trkpt lat="47.572139" lon="7.836834">
        <ele>295.569021</ele>
        <time>2021-11-13T15:47:52.620Z</time>
      </trkpt>
      <trkpt lat="47.571871" lon="7.836932">
        <ele>295.781044</ele>
        <time>2021-11-13T15:47:58.657Z</time>
      </trkpt>
      <trkpt lat="47.571771" lon="7.836971">
        <ele>295.887081</ele>
        <time>2021-11-13T15:48:00.893Z</time>
      </trkpt>
      <trkpt lat="47.571254" lon="7.837161">
        <ele>296.433304</ele>
        <time>2021-11-13T15:48:13.344Z</time>
      </trkpt>
      <trkpt lat="47.570985" lon="7.837265">
        <ele>296.718385</ele>
        <time>2021-11-13T15:48:20.298Z</time>
      </trkpt>
      <trkpt lat="47.570872" lon="7.837307">
        <ele>296.837852</ele>
        <time>2021-11-13T15:48:23.314Z</time>
      </trkpt>
      <trkpt lat="47.570298" lon="7.837528">
        <ele>297.446008</ele>
        <time>2021-11-13T15:48:38.635Z</time>
      </trkpt>
      <trkpt lat="47.570038" lon="7.837643">
        <ele>297.810119</ele>
        <time>2021-11-13T15:48:45.759Z</time>
      </trkpt>
      <trkpt lat="47.569907" lon="7.837696">
        <ele>297.998648</ele>
        <time>2021-11-13T15:48:49.280Z</time>
      </trkpt>
      <trkpt lat="47.569814" lon="7.837733">
        <ele>298.132336</ele>
        <time>2021-11-13T15:48:51.842Z</time>
      </trkpt>
      <trkpt lat="47.569665" lon="7.837789">
        <ele>298.345749</ele>
        <time>2021-11-13T15:48:55.805Z</time>
      </trkpt>
      <trkpt lat="47.569522" lon="7.837844">
        <ele>298.550859</ele>
        <time>2021-11-13T15:48:59.660Z</time>
      </trkpt>
      <trkpt lat="47.569310" lon="7.837922">
        <ele>298.854124</ele>
        <time>2021-11-13T15:49:05.408Z</time>
      </trkpt>
      <trkpt lat="47.568988" lon="7.838054">
        <ele>299.317960</ele>
        <time>2021-11-13T15:49:14.185Z</time>
      </trkpt>
      <trkpt lat="47.568420" lon="7.838300">
        <ele>300.070824</ele>
        <time>2021-11-13T15:49:29.443Z</time>
      </trkpt>
      <trkpt lat="47.568160" lon="7.838415">
        <ele>300.286556</ele>
        <time>2021-11-13T15:49:35.856Z</time>
      </trkpt>
      <trkpt lat="47.568042" lon="7.838436">
        <ele>300.381051</ele>
        <time>2021-11-13T15:49:38.591Z</time>
      </trkpt>
      <trkpt lat="47.567936" lon="7.838380">
        <ele>300.470524</ele>
        <time>2021-11-13T15:49:41.123Z</time>
      </trkpt>
      <trkpt lat="47.567846" lon="7.838609">
        <ele>300.612695</ele>
        <time>2021-11-13T15:49:44.152Z</time>
      </trkpt>
      <trkpt lat="47.567823" lon="7.838648">
        <ele>300.640483</ele>
        <time>2021-11-13T15:49:44.809Z</time>
      </trkpt>
      <trkpt lat="47.567634" lon="7.839037">
        <ele>300.897641</ele>
        <time>2021-11-13T15:49:50.224Z</time>
      </trkpt>
      <trkpt lat="47.567626" lon="7.839064">
        <ele>300.913461</ele>
        <time>2021-11-13T15:49:50.637Z</time>
      </trkpt>
      <trkpt lat="47.567564" lon="7.839283">
        <ele>301.040869</ele>
        <time>2021-11-13T15:49:53.353Z</time>
      </trkpt>
      <trkpt lat="47.567530" lon="7.839459">
        <ele>301.139081</ele>
        <time>2021-11-13T15:49:55.544Z</time>
      </trkpt>
      <trkpt lat="47.567510" lon="7.839548">
        <ele>301.189405</ele>
        <time>2021-11-13T15:49:56.666Z</time>
      </trkpt>
      <trkpt lat="47.567481" lon="7.839664">
        <ele>301.255769</ele>
        <time>2021-11-13T15:49:58.007Z</time>
      </trkpt>
      <trkpt lat="47.567406" lon="7.839778">
        <ele>301.341186</ele>
        <time>2021-11-13T15:50:00.057Z</time>
      </trkpt>
      <trkpt lat="47.567239" lon="7.839903">
        <ele>301.506462</ele>
        <time>2021-11-13T15:50:03.514Z</time>
      </trkpt>
      <trkpt lat="47.567111" lon="7.839998">
        <ele>301.643470</ele>
        <time>2021-11-13T15:50:06.037Z</time>
      </trkpt>
      <trkpt lat="47.566826" lon="7.840179">
        <ele>301.940225</ele>
        <time>2021-11-13T15:50:11.559Z</time>
      </trkpt>
      <trkpt lat="47.566592" lon="7.840279">
        <ele>302.173304</ele>
        <time>2021-11-13T15:50:16.189Z</time>
      </trkpt>
      <trkpt lat="47.566515" lon="7.840312">
        <ele>302.250019</ele>
        <time>2021-11-13T15:50:17.478Z</time>
      </trkpt>
      <trkpt lat="47.566450" lon="7.840326">
        <ele>302.312882</ele>
        <time>2021-11-13T15:50:18.716Z</time>
      </trkpt>
      <trkpt lat="47.566350" lon="7.840350">
        <ele>302.409836</ele>
        <time>2021-11-13T15:50:20.624Z</time>
      </trkpt>
      <trkpt lat="47.566221" lon="7.840340">
        <ele>302.533468</ele>
        <time>2021-11-13T15:50:22.958Z</time>
      </trkpt>
      <trkpt lat="47.566142" lon="7.840322">
        <ele>302.609965</ele>
        <time>2021-11-13T15:50:24.190Z</time>
      </trkpt>
      <trkpt lat="47.566081" lon="7.840309">
        <ele>302.668947</ele>
        <time>2021-11-13T15:50:25.402Z</time>
      </trkpt>
      <trkpt lat="47.565906" lon="7.840272">
        <ele>302.838131</ele>
        <time>2021-11-13T15:50:28.854Z</time>
      </trkpt>
      <trkpt lat="47.565343" lon="7.840185">
        <ele>303.440986</ele>
        <time>2021-11-13T15:50:40.173Z</time>
      </trkpt>
      <trkpt lat="47.565233" lon="7.840176">
        <ele>303.572233</ele>
        <time>2021-11-13T15:50:42.511Z</time>
      </trkpt>
      <trkpt lat="47.565168" lon="7.840179">
        <ele>303.649708</ele>
        <time>2021-11-13T15:50:43.887Z</time>
      </trkpt>
      <trkpt lat="47.565057" lon="7.840213">
        <ele>303.784743</ele>
        <time>2021-11-13T15:50:46.130Z</time>
      </trkpt>
      <trkpt lat="47.564936" lon="7.840261">
        <ele>303.933970</ele>
        <time>2021-11-13T15:50:48.846Z</time>
      </trkpt>
      <trkpt lat="47.564558" lon="7.840516">
        <ele>304.428759</ele>
        <time>2021-11-13T15:50:57.128Z</time>
      </trkpt>
      <trkpt lat="47.564534" lon="7.840532">
        <ele>304.460111</ele>
        <time>2021-11-13T15:50:57.625Z</time>
      </trkpt>
      <trkpt lat="47.564463" lon="7.840580">
        <ele>304.553082</ele>
        <time>2021-11-13T15:50:59.239Z</time>
      </trkpt>
      <trkpt lat="47.564094" lon="7.840838">
        <ele>305.039157</ele>
        <time>2021-11-13T15:51:06.900Z</time>
      </trkpt>
      <trkpt lat="47.563986" lon="7.840916">
        <ele>305.182288</ele>
        <time>2021-11-13T15:51:09.188Z</time>
      </trkpt>
      <trkpt lat="47.563941" lon="7.840948">
        <ele>305.241751</ele>
        <time>2021-11-13T15:51:10.113Z</time>
      </trkpt>
      <trkpt lat="47.563805" lon="7.841046">
        <ele>305.405017</ele>
        <time>2021-11-13T15:51:12.919Z</time>
      </trkpt>
      <trkpt lat="47.563659" lon="7.841150">
        <ele>305.576098</ele>
        <time>2021-11-13T15:51:15.811Z</time>
      </trkpt>
      <trkpt lat="47.563483" lon="7.841269">
        <ele>305.780406</ele>
        <time>2021-11-13T15:51:19.540Z</time>
      </trkpt>
      <trkpt lat="47.563300" lon="7.841391">
        <ele>305.992331</ele>
        <time>2021-11-13T15:51:23.100Z</time>
      </trkpt>
      <trkpt lat="47.563016" lon="7.841568">
        <ele>306.317712</ele>
        <time>2021-11-13T15:51:28.957Z</time>
      </trkpt>
      <trkpt lat="47.562965" lon="7.841597">
        <ele>306.375403</ele>
        <time>2021-11-13T15:51:29.935Z</time>
      </trkpt>
      <trkpt lat="47.562904" lon="7.841632">
        <ele>306.444486</ele>
        <time>2021-11-13T15:51:31.164Z</time>
      </trkpt>
      <trkpt lat="47.562574" lon="7.841873">
        <ele>306.833026</ele>
        <time>2021-11-13T15:51:38.130Z</time>
      </trkpt>
      <trkpt lat="47.562440" lon="7.842083">
        <ele>307.038999</ele>
        <time>2021-11-13T15:51:41.749Z</time>
      </trkpt>
      <trkpt lat="47.562385" lon="7.842183">
        <ele>307.130938</ele>
        <time>2021-11-13T15:51:43.316Z</time>
      </trkpt>
      <trkpt lat="47.562300" lon="7.842326">
        <ele>307.286271</ele>
        <time>2021-11-13T15:51:46.216Z</time>
      </trkpt>
      <trkpt lat="47.562179" lon="7.842500">
        <ele>307.501282</ele>
        <time>2021-11-13T15:51:49.694Z</time>
      </trkpt>
      <trkpt lat="47.561498" lon="7.843130">
        <ele>308.525054</ele>
        <time>2021-11-13T15:52:06.406Z</time>
      </trkpt>
      <trkpt lat="47.561434" lon="7.843181">
        <ele>308.617722</ele>
        <time>2021-11-13T15:52:08.211Z</time>
      </trkpt>
      <trkpt lat="47.561038" lon="7.843502">
        <ele>309.193335</ele>
        <time>2021-11-13T15:52:16.912Z</time>
      </trkpt>
      <trkpt lat="47.560934" lon="7.843550">
        <ele>309.332244</ele>
        <time>2021-11-13T15:52:19.066Z</time>
      </trkpt>
      <trkpt lat="47.560812" lon="7.843560">
        <ele>309.471858</ele>
        <time>2021-11-13T15:52:21.310Z</time>
      </trkpt>
      <trkpt lat="47.560515" lon="7.843379">
        <ele>309.575342</ele>
        <time>2021-11-13T15:52:27.047Z</time>
      </trkpt>
      <trkpt lat="47.560430" lon="7.843341">
        <ele>309.603953</ele>
        <time>2021-11-13T15:52:28.848Z</time>
      </trkpt>
      <trkpt lat="47.560338" lon="7.843341">
        <ele>309.633599</ele>
        <time>2021-11-13T15:52:30.071Z</time>
      </trkpt>
      <trkpt lat="47.560209" lon="7.843393">
        <ele>309.676680</ele>
        <time>2021-11-13T15:52:32.547Z</time>
      </trkpt>
      <trkpt lat="47.560139" lon="7.843433">
        <ele>309.700856</ele>
        <time>2021-11-13T15:52:33.866Z</time>
      </trkpt>
      <trkpt lat="47.559847" lon="7.843604">
        <ele>309.802033</ele>
        <time>2021-11-13T15:52:39.040Z</time>
      </trkpt>
      <trkpt lat="47.559583" lon="7.843813">
        <ele>309.898485</ele>
        <time>2021-11-13T15:52:43.529Z</time>
      </trkpt>
      <trkpt lat="47.559158" lon="7.844233">
        <ele>310.038728</ele>
        <time>2021-11-13T15:52:50.741Z</time>
      </trkpt>
      <trkpt lat="47.559109" lon="7.844229">
        <ele>310.032024</ele>
        <time>2021-11-13T15:52:51.332Z</time>
      </trkpt>
      <trkpt lat="47.559060" lon="7.844197">
        <ele>310.024708</ele>
        <time>2021-11-13T15:52:51.962Z</time>
      </trkpt>
      <trkpt lat="47.558884" lon="7.843836">
        <ele>309.983648</ele>
        <time>2021-11-13T15:52:56.116Z</time>
      </trkpt>
      <trkpt lat="47.558595" lon="7.843446">
        <ele>309.930246</ele>
        <time>2021-11-13T15:53:01.434Z</time>
      </trkpt>
      <trkpt lat="47.558555" lon="7.843392">
        <ele>309.922854</ele>
        <time>2021-11-13T15:53:02.150Z</time>
      </trkpt>
      <trkpt lat="47.558471" lon="7.843365">
        <ele>309.911111</ele>
        <time>2021-11-13T15:53:03.409Z</time>
      </trkpt>
      <trkpt lat="47.558405" lon="7.843371">
        <ele>309.902077</ele>
        <time>2021-11-13T15:53:04.579Z</time>
      </trkpt>
      <trkpt lat="47.558136" lon="7.843582">
        <ele>309.860495</ele>
        <time>2021-11-13T15:53:08.785Z</time>
      </trkpt>
      <trkpt lat="47.557967" lon="7.843683">
        <ele>309.835599</ele>
        <time>2021-11-13T15:53:11.508Z</time>
      </trkpt>
      <trkpt lat="47.557846" lon="7.843756">
        <ele>309.817750</ele>
        <time>2021-11-13T15:53:13.348Z</time>
      </trkpt>
      <trkpt lat="47.557759" lon="7.843839">
        <ele>309.803614</ele>
        <time>2021-11-13T15:53:15.127Z</time>
      </trkpt>
      <trkpt lat="47.557715" lon="7.843940">
        <ele>309.825479</ele>
        <time>2021-11-13T15:53:16.357Z</time>
      </trkpt>
      <trkpt lat="47.557560" lon="7.844433">
        <ele>309.989254</ele>
        <time>2021-11-13T15:53:22.308Z</time>
      </trkpt>
      <trkpt lat="47.557282" lon="7.844832">
        <ele>310.161948</ele>
        <time>2021-11-13T15:53:28.668Z</time>
      </trkpt>
      <trkpt lat="47.557134" lon="7.845095">
        <ele>310.265065</ele>
        <time>2021-11-13T15:53:32.383Z</time>
      </trkpt>
      <trkpt lat="47.556636" lon="7.845928">
        <ele>310.600175</ele>
        <time>2021-11-13T15:53:45.225Z</time>
      </trkpt>
      <trkpt lat="47.556134" lon="7.846740">
        <ele>311.402786</ele>
        <time>2021-11-13T15:53:59.040Z</time>
      </trkpt>
      <trkpt lat="47.556060" lon="7.846859">
        <ele>311.521283</ele>
        <time>2021-11-13T15:54:01.412Z</time>
      </trkpt>
      <trkpt lat="47.555990" lon="7.846965">
        <ele>311.629887</ele>
        <time>2021-11-13T15:54:03.370Z</time>
      </trkpt>
      <trkpt lat="47.555966" lon="7.846932">
        <ele>311.665414</ele>
        <time>2021-11-13T15:54:03.949Z</time>
      </trkpt>
      <trkpt lat="47.555892" lon="7.846856">
        <ele>311.763113</ele>
        <time>2021-11-13T15:54:05.482Z</time>
      </trkpt>
      <trkpt lat="47.555855" lon="7.846815">
        <ele>311.813246</ele>
        <time>2021-11-13T15:54:06.393Z</time>
      </trkpt>
      <trkpt lat="47.555727" lon="7.846715">
        <ele>311.970261</ele>
        <time>2021-11-13T15:54:09.438Z</time>
      </trkpt>
      <trkpt lat="47.555199" lon="7.846687">
        <ele>312.543557</ele>
        <time>2021-11-13T15:54:19.361Z</time>
      </trkpt>
      <trkpt lat="47.555068" lon="7.846672">
        <ele>312.726967</ele>
        <time>2021-11-13T15:54:22.296Z</time>
      </trkpt>
      <trkpt lat="47.554995" lon="7.846915">
        <ele>312.982195</ele>
        <time>2021-11-13T15:54:26.000Z</time>
      </trkpt>
      <trkpt lat="47.554973" lon="7.846966">
        <ele>313.040275</ele>
        <time>2021-11-13T15:54:26.785Z</time>
      </trkpt>
      <trkpt lat="47.554892" lon="7.847148">
        <ele>313.249468</ele>
        <time>2021-11-13T15:54:30.058Z</time>
      </trkpt>
      <trkpt lat="47.554759" lon="7.847388">
        <ele>313.547451</ele>
        <time>2021-11-13T15:54:34.379Z</time>
      </trkpt>
      <trkpt lat="47.554618" lon="7.847626">
        <ele>313.851334</ele>
        <time>2021-11-13T15:54:38.938Z</time>
      </trkpt>
      <trkpt lat="47.554465" lon="7.847858">
        <ele>314.162591</ele>
        <time>2021-11-13T15:54:43.574Z</time>
      </trkpt>
      <trkpt lat="47.554351" lon="7.848049">
        <ele>314.407258</ele>
        <time>2021-11-13T15:54:47.033Z</time>
      </trkpt>
      <trkpt lat="47.554269" lon="7.848188">
        <ele>314.584410</ele>
        <time>2021-11-13T15:54:49.567Z</time>
      </trkpt>
      <trkpt lat="47.554209" lon="7.848300">
        <ele>314.721624</ele>
        <time>2021-11-13T15:54:51.648Z</time>
      </trkpt>
      <trkpt lat="47.554055" lon="7.848586">
        <ele>315.072705</ele>
        <time>2021-11-13T15:54:56.516Z</time>
      </trkpt>
      <trkpt lat="47.553725" lon="7.849291">
        <ele>316.008999</ele>
        <time>2021-11-13T15:55:07.882Z</time>
      </trkpt>
      <trkpt lat="47.553605" lon="7.849629">
        <ele>316.428291</ele>
        <time>2021-11-13T15:55:13.337Z</time>
      </trkpt>
      <trkpt lat="47.553537" lon="7.849904">
        <ele>316.749832</ele>
        <time>2021-11-13T15:55:17.528Z</time>
      </trkpt>
      <trkpt lat="47.553380" lon="7.850453">
        <ele>317.404441</ele>
        <time>2021-11-13T15:55:26.380Z</time>
      </trkpt>
      <trkpt lat="47.553344" lon="7.850525">
        <ele>317.502817</ele>
        <time>2021-11-13T15:55:27.646Z</time>
      </trkpt>
      <trkpt lat="47.553283" lon="7.850634">
        <ele>317.658275</ele>
        <time>2021-11-13T15:55:29.699Z</time>
      </trkpt>
      <trkpt lat="47.552876" lon="7.851300">
        <ele>319.119868</ele>
        <time>2021-11-13T15:55:43.532Z</time>
      </trkpt>
      <trkpt lat="47.552678" lon="7.851709">
        <ele>320.105128</ele>
        <time>2021-11-13T15:55:52.214Z</time>
      </trkpt>
      <trkpt lat="47.552449" lon="7.852231">
        <ele>321.323813</ele>
        <time>2021-11-13T15:56:03.514Z</time>
      </trkpt>
      <trkpt lat="47.552272" lon="7.852167">
        <ele>321.852235</ele>
        <time>2021-11-13T15:56:08.914Z</time>
      </trkpt>
      <trkpt lat="47.552097" lon="7.852063">
        <ele>322.399095</ele>
        <time>2021-11-13T15:56:14.161Z</time>
      </trkpt>
      <trkpt lat="47.552042" lon="7.852007">
        <ele>322.592647</ele>
        <time>2021-11-13T15:56:16.561Z</time>
      </trkpt>
      <trkpt lat="47.551925" lon="7.851845">
        <ele>323.057093</ele>
        <time>2021-11-13T15:56:20.827Z</time>
      </trkpt>
      <trkpt lat="47.551830" lon="7.851603">
        <ele>323.622837</ele>
        <time>2021-11-13T15:56:26.649Z</time>
      </trkpt>
      <trkpt lat="47.551660" lon="7.851725">
        <ele>324.198375</ele>
        <time>2021-11-13T15:56:31.882Z</time>
      </trkpt>
      <trkpt lat="47.551516" lon="7.851950">
        <ele>324.836027</ele>
        <time>2021-11-13T15:56:38.441Z</time>
      </trkpt>
      <trkpt lat="47.550221" lon="7.853833">
        <ele>329.434226</ele>
        <time>2021-11-13T15:57:25.733Z</time>
      </trkpt>
      <trkpt lat="47.549883" lon="7.854434">
        <ele>330.124735</ele>
        <time>2021-11-13T15:57:35.853Z</time>
      </trkpt>
      <trkpt lat="47.549566" lon="7.855225">
        <ele>330.936735</ele>
        <time>2021-11-13T15:57:49.712Z</time>
      </trkpt>
      <trkpt lat="47.549362" lon="7.855774">
        <ele>331.080305</ele>
        <time>2021-11-13T15:57:58.200Z</time>
      </trkpt>
      <trkpt lat="47.548887" lon="7.857308">
        <ele>331.055923</ele>
        <time>2021-11-13T15:58:20.308Z</time>
      </trkpt>
      <trkpt lat="47.548743" lon="7.857692">
        <ele>331.049576</ele>
        <time>2021-11-13T15:58:26.280Z</time>
      </trkpt>
      <trkpt lat="47.548701" lon="7.857893">
        <ele>331.113098</ele>
        <time>2021-11-13T15:58:29.251Z</time>
      </trkpt>
      <trkpt lat="47.548686" lon="7.857973">
        <ele>331.154683</ele>
        <time>2021-11-13T15:58:30.375Z</time>
      </trkpt>
      <trkpt lat="47.548611" lon="7.858381">
        <ele>331.366467</ele>
        <time>2021-11-13T15:58:36.589Z</time>
      </trkpt>
      <trkpt lat="47.548334" lon="7.859801">
        <ele>332.106767</ele>
        <time>2021-11-13T15:58:59.626Z</time>
      </trkpt>
      <trkpt lat="47.548049" lon="7.860929">
        <ele>333.124817</ele>
        <time>2021-11-13T15:59:20.644Z</time>
      </trkpt>
      <trkpt lat="47.547930" lon="7.861711">
        <ele>334.035677</ele>
        <time>2021-11-13T15:59:35.408Z</time>
      </trkpt>
      <trkpt lat="47.547568" lon="7.863151">
        <ele>335.571422</ele>
        <time>2021-11-13T16:00:04.536Z</time>
      </trkpt>
      <trkpt lat="47.547320" lon="7.863864">
        <ele>335.965960</ele>
        <time>2021-11-13T16:00:18.476Z</time>
      </trkpt>
      <trkpt lat="47.546974" lon="7.864423">
        <ele>336.339030</ele>
        <time>2021-11-13T16:00:29.299Z</time>
      </trkpt>
      <trkpt lat="47.546885" lon="7.864500">
        <ele>336.414136</ele>
        <time>2021-11-13T16:00:32.384Z</time>
      </trkpt>
      <trkpt lat="47.546894" lon="7.864837">
        <ele>336.580032</ele>
        <time>2021-11-13T16:00:36.268Z</time>
      </trkpt>
      <trkpt lat="47.546889" lon="7.865225">
        <ele>336.663035</ele>
        <time>2021-11-13T16:00:41.693Z</time>
      </trkpt>
      <trkpt lat="47.546819" lon="7.865489">
        <ele>336.497077</ele>
        <time>2021-11-13T16:00:45.638Z</time>
      </trkpt>
      <trkpt lat="47.546510" lon="7.865766">
        <ele>336.184007</ele>
        <time>2021-11-13T16:00:52.272Z</time>
      </trkpt>
      <trkpt lat="47.546327" lon="7.865959">
        <ele>335.989287</ele>
        <time>2021-11-13T16:00:55.787Z</time>
      </trkpt>
      <trkpt lat="47.546096" lon="7.866147">
        <ele>335.760822</ele>
        <time>2021-11-13T16:01:00.343Z</time>
      </trkpt>
      <trkpt lat="47.545240" lon="7.866887">
        <ele>335.337097</ele>
        <time>2021-11-13T16:01:17.016Z</time>
      </trkpt>
      <trkpt lat="47.545160" lon="7.866985">
        <ele>335.397333</ele>
        <time>2021-11-13T16:01:18.972Z</time>
      </trkpt>
      <trkpt lat="47.545003" lon="7.867278">
        <ele>335.543862</ele>
        <time>2021-11-13T16:01:24.640Z</time>
      </trkpt>
      <trkpt lat="47.544568" lon="7.867693">
        <ele>335.844090</ele>
        <time>2021-11-13T16:01:37.431Z</time>
      </trkpt>
      <trkpt lat="47.544469" lon="7.867776">
        <ele>335.910098</ele>
        <time>2021-11-13T16:01:40.293Z</time>
      </trkpt>
      <trkpt lat="47.544410" lon="7.867825">
        <ele>335.949347</ele>
        <time>2021-11-13T16:01:42.382Z</time>
      </trkpt>
      <trkpt lat="47.544246" lon="7.867967">
        <ele>336.059574</ele>
        <time>2021-11-13T16:01:47.065Z</time>
      </trkpt>
      <trkpt lat="47.544214" lon="7.867988">
        <ele>336.079882</ele>
        <time>2021-11-13T16:01:47.913Z</time>
      </trkpt>
      <trkpt lat="47.543801" lon="7.868269">
        <ele>336.542152</ele>
        <time>2021-11-13T16:01:59.516Z</time>
      </trkpt>
      <trkpt lat="47.543657" lon="7.868359">
        <ele>336.763909</ele>
        <time>2021-11-13T16:02:03.866Z</time>
      </trkpt>
      <trkpt lat="47.543201" lon="7.868657">
        <ele>337.471073</ele>
        <time>2021-11-13T16:02:14.066Z</time>
      </trkpt>
      <trkpt lat="47.543105" lon="7.868711">
        <ele>337.616774</ele>
        <time>2021-11-13T16:02:16.650Z</time>
      </trkpt>
      <trkpt lat="47.543049" lon="7.868759">
        <ele>337.708573</ele>
        <time>2021-11-13T16:02:18.027Z</time>
      </trkpt>
      <trkpt lat="47.542722" lon="7.869201">
        <ele>338.336658</ele>
        <time>2021-11-13T16:02:27.859Z</time>
      </trkpt>
      <trkpt lat="47.542696" lon="7.869257">
        <ele>338.401756</ele>
        <time>2021-11-13T16:02:28.689Z</time>
      </trkpt>
      <trkpt lat="47.542657" lon="7.869354">
        <ele>338.509893</ele>
        <time>2021-11-13T16:02:30.124Z</time>
      </trkpt>
      <trkpt lat="47.542372" lon="7.869746">
        <ele>338.758262</ele>
        <time>2021-11-13T16:02:37.328Z</time>
      </trkpt>
      <trkpt lat="47.542329" lon="7.869820">
        <ele>338.758262</ele>
        <time>2021-11-13T16:02:38.535Z</time>
      </trkpt>
      <trkpt lat="47.542348" lon="7.869983">
        <ele>338.758262</ele>
        <time>2021-11-13T16:02:40.105Z</time>
      </trkpt>
      <trkpt lat="47.542317" lon="7.870012">
        <ele>338.758262</ele>
        <time>2021-11-13T16:02:40.799Z</time>
      </trkpt>
      <trkpt lat="47.542181" lon="7.870131">
        <ele>338.758262</ele>
        <time>2021-11-13T16:02:43.428Z</time>
      </trkpt>
      <trkpt lat="47.542118" lon="7.870135">
        <ele>338.758262</ele>
        <time>2021-11-13T16:02:44.457Z</time>
      </trkpt>
      <trkpt lat="47.542014" lon="7.870126">
        <ele>338.758262</ele>
        <time>2021-11-13T16:02:45.834Z</time>
      </trkpt>
      <trkpt lat="47.541910" lon="7.870106">
        <ele>338.758262</ele>
        <time>2021-11-13T16:02:47.475Z</time>
      </trkpt>
      <trkpt lat="47.541606" lon="7.870424">
        <ele>338.758262</ele>
        <time>2021-11-13T16:02:52.853Z</time>
      </trkpt>
      <trkpt lat="47.541521" lon="7.870517">
        <ele>338.758262</ele>
        <time>2021-11-13T16:02:54.362Z</time>
      </trkpt>
      <trkpt lat="47.541550" lon="7.870601">
        <ele>338.758262</ele>
        <time>2021-11-13T16:02:55.239Z</time>
      </trkpt>
      <trkpt lat="47.541576" lon="7.870664">
        <ele>338.758262</ele>
        <time>2021-11-13T16:02:55.913Z</time>
      </trkpt>
      <trkpt lat="47.541469" lon="7.870746">
        <ele>338.758262</ele>
        <time>2021-11-13T16:02:58.021Z</time>
      </trkpt>
      <trkpt lat="47.541410" lon="7.870791">
        <ele>338.758262</ele>
        <time>2021-11-13T16:02:59.110Z</time>
      </trkpt>
      <trkpt lat="47.541294" lon="7.870887">
        <ele>338.758262</ele>
        <time>2021-11-13T16:03:00.957Z</time>
      </trkpt>
    </trkseg>
  </trk>
</gpx>